Darstellungsparameter: Aktuell verwendete Einstellungen:
Skalierung der Graphiken ... ?
xyx+y,   Skalierungsfaktor:      Skalierung: Modus: x, Faktor: 1
Darstellungszeitraum ... ?
Vom - - bis: - -   Zeitraum: 18.10.2007 - 17.11.2007
Min/Max/Avg-Anzeige ... ?
Zeige MMA aktuell
Zeige MMA Monat
Zeige MMA alles
Zeige --A aktuell
Zeige --A Monat
Zeige --A alles
Keine MMA-Anzeige
MMA:
Average (ber die Originaldaten)
MMA-Basis: 17.04.2019 - 19.05.2019
Quicknavigation für Darstellung... ?
Tage:      1T, 2T, 3T, 5T -1T -2T -3T -5T +1T +2T +3T +5T
Wochen: 1W, 2W, 3W -1W -2W -3W +1W +2W +3W
Monate: 1M, 3M, 6M -1M -3M -6M +1M +3M +6M
Jahre:    1J, 3J, 5J, 10J -1J -3J -5J -10J +1J +3J +5J +10J
Nutze für die Darstellung ... ?
Originaldaten oder Mittelwerte auf ...
Stundenbasis Tagesbasis Wochenbasis
Monatsbasis Jahresbasis      Datenbasis: Original-Daten
Darstellen als:
Statistik (Auto) Statistik J:M      Darstellung:
Zur Graphik,    zurück zur Übersicht aller Sensoren.
 
Tabellarische Datenbersicht: ?
 
Sensor: Nr:Datum:Temp:Abs-Feuchte:Windchill:Wind:
Aussen-T/F 1 18-10-2007 00:00:02 10.7 C 7.46 g/m*3 10.7 C 0 km/h
2 18-10-2007 00:03:02 10.7 C 7.46 g/m*3 10.7 C 0 km/h
3 18-10-2007 00:06:02 10.7 C 7.37 g/m*3 10.7 C 0 km/h
4 18-10-2007 00:09:02 10.6 C 7.42 g/m*3 10.6 C 0 km/h
5 18-10-2007 00:12:02 10.5 C 7.37 g/m*3 10.5 C 0 km/h
6 18-10-2007 00:15:01 10.4 C 7.32 g/m*3 10.4 C 0 km/h
7 18-10-2007 00:18:01 10.4 C 7.32 g/m*3 10.4 C 0 km/h
8 18-10-2007 00:21:02 10.3 C 7.37 g/m*3 10.3 C 0 km/h
9 18-10-2007 00:24:02 10.3 C 7.28 g/m*3 10.3 C 0 km/h
10 18-10-2007 00:27:02 10.3 C 7.28 g/m*3 10.3 C 0 km/h
11 18-10-2007 00:30:02 10.2 C 7.14 g/m*3 10.2 C 0 km/h
12 18-10-2007 00:33:02 10.3 C 7.09 g/m*3 10.3 C 0 km/h
13 18-10-2007 00:36:02 10.3 C 7.09 g/m*3 10.3 C 0 km/h
14 18-10-2007 00:39:02 10.4 C 7.13 g/m*3 10.4 C 0 km/h
15 18-10-2007 00:42:02 10.4 C 7.04 g/m*3 10.4 C 0 km/h
16 18-10-2007 00:45:02 10.5 C 7.08 g/m*3 10.5 C 0 km/h
17 18-10-2007 00:48:02 10.5 C 7.08 g/m*3 10.5 C 0 km/h
18 18-10-2007 00:51:02 10.5 C 6.98 g/m*3 10.5 C 0 km/h
19 18-10-2007 00:54:02 10.4 C 6.94 g/m*3 10.4 C 0 km/h
20 18-10-2007 00:57:02 10.4 C 6.94 g/m*3 10.4 C 0 km/h
21 18-10-2007 01:00:02 10.4 C 6.84 g/m*3 10.4 C 0 km/h
22 18-10-2007 01:03:03 10.5 C 6.89 g/m*3 10.5 C 0 km/h
23 18-10-2007 01:06:03 10.5 C 6.79 g/m*3 10.5 C 0 km/h
24 18-10-2007 01:09:03 10.5 C 6.79 g/m*3 10.5 C 0 km/h
25 18-10-2007 01:12:03 10.5 C 6.89 g/m*3 10.5 C 0 km/h
Sensor: Nr:Datum:Temp:Abs-Feuchte:Windchill:Wind:
Aussen-T/F 26 18-10-2007 01:15:02 10.6 C 6.83 g/m*3 10.6 C 0 km/h
27 18-10-2007 01:18:02 10.5 C 6.79 g/m*3 10.5 C 0 km/h
28 18-10-2007 01:21:03 10.6 C 6.83 g/m*3 10.6 C 0 km/h
29 18-10-2007 01:24:03 10.6 C 6.83 g/m*3 10.6 C 0 km/h
30 18-10-2007 01:27:03 10.6 C 6.73 g/m*3 10.6 C 0 km/h
31 18-10-2007 01:30:03 10.7 C 6.78 g/m*3 10.7 C 0 km/h
32 18-10-2007 01:33:02 10.6 C 6.64 g/m*3 10.6 C 0 km/h
33 18-10-2007 01:36:02 10.5 C 6.69 g/m*3 10.5 C 0 km/h
34 18-10-2007 01:39:02 10.5 C 6.6 g/m*3 10.5 C 0 km/h
35 18-10-2007 01:42:02 10.4 C 6.65 g/m*3 10.4 C 0 km/h
36 18-10-2007 01:45:01 10.3 C 6.61 g/m*3 10.3 C 0 km/h
37 18-10-2007 01:48:01 10.4 C 6.65 g/m*3 10.4 C 0 km/h
38 18-10-2007 01:51:01 10.3 C 6.61 g/m*3 10.3 C 0 km/h
39 18-10-2007 01:54:01 10.2 C 6.57 g/m*3 10.2 C 0 km/h
40 18-10-2007 01:57:01 10.2 C 6.57 g/m*3 10.2 C 0 km/h
41 18-10-2007 02:00:01 10 C 6.58 g/m*3 10 C 0 km/h
42 18-10-2007 02:03:01 10.1 C 6.62 g/m*3 10.1 C 0 km/h
43 18-10-2007 02:06:01 10 C 6.58 g/m*3 10 C 0 km/h
44 18-10-2007 02:09:01 10.1 C 6.62 g/m*3 10.1 C 0 km/h
45 18-10-2007 02:12:01 10.1 C 6.62 g/m*3 10.1 C 0 km/h
46 18-10-2007 02:15:02 10.1 C 6.62 g/m*3 10.1 C 0 km/h
47 18-10-2007 02:18:02 10.1 C 6.62 g/m*3 10.1 C 0 km/h
48 18-10-2007 02:21:02 10.1 C 6.71 g/m*3 10.1 C 0 km/h
49 18-10-2007 02:24:02 10.1 C 6.71 g/m*3 10.1 C 0 km/h
50 18-10-2007 02:27:02 10 C 6.67 g/m*3 10 C 0 km/h
Sensor: Nr:Datum:Temp:Abs-Feuchte:Windchill:Wind:
Aussen-T/F 51 18-10-2007 02:30:02 10 C 6.67 g/m*3 10 C 0 km/h
52 18-10-2007 02:33:02 9.9 C 6.72 g/m*3 9.9 C 0 km/h
53 18-10-2007 02:36:03 9.9 C 6.72 g/m*3 9.9 C 0 km/h
54 18-10-2007 02:39:03 10 C 6.67 g/m*3 10 C 0 km/h
55 18-10-2007 02:42:03 10 C 6.58 g/m*3 10 C 0 km/h
56 18-10-2007 02:46:04 9.9 C 6.63 g/m*3 9.9 C 0 km/h
57 18-10-2007 02:49:05 9.9 C 6.63 g/m*3 9.9 C 0 km/h
58 18-10-2007 02:52:05 9.9 C 6.63 g/m*3 9.9 C 0 km/h
59 18-10-2007 02:55:05 10 C 6.58 g/m*3 10 C 0 km/h
60 18-10-2007 02:58:05 10 C 6.58 g/m*3 10 C 0 km/h
61 18-10-2007 03:01:05 9.9 C 6.72 g/m*3 9.9 C 0 km/h
62 18-10-2007 03:04:05 9.7 C 6.73 g/m*3 9.7 C 0 km/h
63 18-10-2007 03:07:05 9.5 C 6.74 g/m*3 9.5 C 0 km/h
64 18-10-2007 03:10:04 9.5 C 6.74 g/m*3 9.5 C 0 km/h
65 18-10-2007 03:13:05 9.3 C 6.74 g/m*3 9.3 C 0 km/h
66 18-10-2007 03:16:05 9.4 C 6.78 g/m*3 9.4 C 0 km/h
67 18-10-2007 03:19:05 9.3 C 6.74 g/m*3 9.3 C 0 km/h
68 18-10-2007 03:22:05 9.4 C 6.78 g/m*3 9.4 C 0 km/h
69 18-10-2007 03:25:05 9.3 C 6.74 g/m*3 9.3 C 0 km/h
70 18-10-2007 03:28:05 9.2 C 6.7 g/m*3 9.2 C 0 km/h
71 18-10-2007 03:31:02 9.2 C 6.7 g/m*3 9.2 C 0 km/h
72 18-10-2007 03:34:02 9.2 C 6.7 g/m*3 9.2 C 0 km/h
73 18-10-2007 03:37:02 9.1 C 6.65 g/m*3 9.1 C 0 km/h
74 18-10-2007 03:40:02 9 C 6.61 g/m*3 9 C 0 km/h
75 18-10-2007 03:43:02 9.1 C 6.65 g/m*3 9.1 C 0 km/h
Sensor: Nr:Datum:Temp:Abs-Feuchte:Windchill:Wind:
Aussen-T/F 76 18-10-2007 03:46:02 9.1 C 6.65 g/m*3 9.1 C 0 km/h
77 18-10-2007 03:49:02 9.2 C 6.61 g/m*3 9.2 C 0 km/h
78 18-10-2007 03:52:02 9.3 C 6.56 g/m*3 9.3 C 0 km/h
79 18-10-2007 03:55:02 9.3 C 6.56 g/m*3 9.3 C 0 km/h
80 18-10-2007 03:58:02 9.2 C 6.52 g/m*3 9.2 C 0 km/h
81 18-10-2007 04:01:02 9.1 C 6.48 g/m*3 9.1 C 0 km/h
82 18-10-2007 04:04:02 9.1 C 6.48 g/m*3 9.1 C 0 km/h
83 18-10-2007 04:07:02 9.1 C 6.48 g/m*3 9.1 C 0 km/h
84 18-10-2007 04:10:02 9 C 6.44 g/m*3 9 C 0 km/h
85 18-10-2007 04:13:02 8.9 C 6.57 g/m*3 8.9 C 0 km/h
86 18-10-2007 04:16:01 8.8 C 6.53 g/m*3 8.8 C 0 km/h
87 18-10-2007 04:19:01 8.7 C 6.49 g/m*3 8.7 C 0 km/h
88 18-10-2007 04:22:01 8.6 C 6.53 g/m*3 8.6 C 0 km/h
89 18-10-2007 04:25:02 8.6 C 6.53 g/m*3 8.6 C 0 km/h
90 18-10-2007 04:28:02 8.4 C 6.45 g/m*3 8.4 C 0 km/h
91 18-10-2007 04:31:01 8.5 C 6.57 g/m*3 8.5 C 0 km/h
92 18-10-2007 04:34:01 8.5 C 6.57 g/m*3 8.5 C 0 km/h
93 18-10-2007 04:37:01 8.6 C 6.62 g/m*3 8.6 C 0 km/h
94 18-10-2007 04:40:01 8.7 C 6.66 g/m*3 8.7 C 0 km/h
95 18-10-2007 04:43:01 8.7 C 6.57 g/m*3 8.7 C 0 km/h
96 18-10-2007 04:46:01 8.7 C 6.49 g/m*3 8.7 C 0 km/h
97 18-10-2007 04:49:01 8.7 C 6.49 g/m*3 8.7 C 0 km/h
98 18-10-2007 04:52:01 8.6 C 6.36 g/m*3 8.6 C 0 km/h
99 18-10-2007 04:55:01 8.6 C 6.36 g/m*3 8.6 C 0 km/h
100 18-10-2007 04:58:01 8.6 C 6.36 g/m*3 8.6 C 0 km/h
Sensor: Nr:Datum:Temp:Abs-Feuchte:Windchill:Wind:
Aussen-T/F 101 18-10-2007 05:01:02 8.6 C 6.36 g/m*3 8.6 C 0 km/h
102 18-10-2007 05:04:02 8.6 C 6.36 g/m*3 8.6 C 0 km/h
103 18-10-2007 05:07:02 8.5 C 6.32 g/m*3 8.5 C 0 km/h
104 18-10-2007 05:10:02 8.4 C 6.36 g/m*3 8.4 C 0 km/h
105 18-10-2007 05:13:02 8.4 C 6.36 g/m*3 8.4 C 0 km/h
106 18-10-2007 05:16:02 8.4 C 6.36 g/m*3 8.4 C 0 km/h
107 18-10-2007 05:19:03 8.3 C 6.32 g/m*3 8.3 C 0 km/h
108 18-10-2007 05:22:03 8.2 C 6.28 g/m*3 8.2 C 0 km/h
109 18-10-2007 05:25:03 8.2 C 6.36 g/m*3 8.2 C 0 km/h
110 18-10-2007 05:28:03 8.3 C 6.49 g/m*3 8.3 C 0 km/h
111 18-10-2007 05:31:01 8.3 C 6.49 g/m*3 8.3 C 0 km/h
112 18-10-2007 05:34:01 8.2 C 6.53 g/m*3 8.2 C 0 km/h
113 18-10-2007 05:37:01 8.2 C 6.53 g/m*3 8.2 C 0 km/h
114 18-10-2007 05:40:01 8.3 C 6.57 g/m*3 8.3 C 0 km/h
115 18-10-2007 05:43:01 8.4 C 6.53 g/m*3 8.4 C 0 km/h
116 18-10-2007 05:46:02 8.5 C 6.49 g/m*3 8.5 C 0 km/h
117 18-10-2007 05:49:02 8.5 C 6.4 g/m*3 8.5 C 0 km/h
118 18-10-2007 05:52:02 8.5 C 6.4 g/m*3 8.5 C 0 km/h
119 18-10-2007 05:55:03 8.8 C 6.35 g/m*3 8.8 C 0 km/h
120 18-10-2007 05:58:03 8.8 C 6.35 g/m*3 8.8 C 0 km/h
121 18-10-2007 06:01:01 8.8 C 6.27 g/m*3 8.8 C 0 km/h
122 18-10-2007 06:04:01 8.8 C 6.35 g/m*3 8.8 C 0 km/h
123 18-10-2007 06:07:01 8.7 C 6.31 g/m*3 8.7 C 0 km/h
124 18-10-2007 06:10:01 8.7 C 6.31 g/m*3 8.7 C 0 km/h
125 18-10-2007 06:13:01 8.6 C 6.36 g/m*3 8.6 C 0 km/h
Sensor: Nr:Datum:Temp:Abs-Feuchte:Windchill:Wind:
Aussen-T/F 126 18-10-2007 06:16:02 8.6 C 6.36 g/m*3 8.6 C 0 km/h
127 18-10-2007 06:19:02 8.6 C 6.36 g/m*3 8.6 C 0 km/h
128 18-10-2007 06:22:02 8.6 C 6.36 g/m*3 8.6 C 0 km/h
129 18-10-2007 06:25:02 8.5 C 6.32 g/m*3 8.5 C 0 km/h
130 18-10-2007 06:28:02 8.5 C 6.32 g/m*3 8.5 C 0 km/h
131 18-10-2007 06:31:02 8.5 C 6.4 g/m*3 8.5 C 0 km/h
132 18-10-2007 06:34:02 8.4 C 6.36 g/m*3 8.4 C 0 km/h
133 18-10-2007 06:37:02 8.3 C 6.41 g/m*3 8.3 C 0 km/h
134 18-10-2007 06:40:02 8.2 C 6.45 g/m*3 8.2 C 0 km/h
135 18-10-2007 06:43:02 8.1 C 6.49 g/m*3 8.1 C 0 km/h
136 18-10-2007 06:46:02 8 C 6.45 g/m*3 8 C 0 km/h
137 18-10-2007 06:49:02 8 C 6.53 g/m*3 8 C 0 km/h
138 18-10-2007 06:52:02 8 C 6.53 g/m*3 8 C 0 km/h
139 18-10-2007 06:55:02 8.1 C 6.66 g/m*3 8.1 C 0 km/h
140 18-10-2007 06:58:02 8.1 C 6.57 g/m*3 8.1 C 0 km/h
141 18-10-2007 07:01:03 8.3 C 6.66 g/m*3 8.3 C 0 km/h
142 18-10-2007 07:04:03 8.2 C 6.53 g/m*3 8.2 C 0 km/h
143 18-10-2007 07:07:03 8.2 C 6.53 g/m*3 8.2 C 0 km/h
144 18-10-2007 07:10:03 8.3 C 6.57 g/m*3 8.3 C 0 km/h
145 18-10-2007 07:13:03 8.2 C 6.45 g/m*3 8.2 C 0 km/h
146 18-10-2007 07:16:02 8.2 C 6.45 g/m*3 8.2 C 0 km/h
147 18-10-2007 07:19:02 8.2 C 6.53 g/m*3 8.2 C 0 km/h
148 18-10-2007 07:22:02 8.1 C 6.49 g/m*3 8.1 C 0 km/h
149 18-10-2007 07:25:02 8.1 C 6.49 g/m*3 8.1 C 0 km/h
150 18-10-2007 07:28:02 8.1 C 6.49 g/m*3 8.1 C 0 km/h
Sensor: Nr:Datum:Temp:Abs-Feuchte:Windchill:Wind:
Aussen-T/F 151 18-10-2007 07:31:03 8.1 C 6.49 g/m*3 8.1 C 0 km/h
152 18-10-2007 07:34:03 8.2 C 6.53 g/m*3 8.2 C 0 km/h
153 18-10-2007 07:37:03 8.2 C 6.53 g/m*3 8.2 C 0 km/h
154 18-10-2007 07:40:03 8.2 C 6.53 g/m*3 8.2 C 0 km/h
155 18-10-2007 07:43:03 8.2 C 6.53 g/m*3 8.2 C 0 km/h
156 18-10-2007 07:46:02 8.2 C 6.53 g/m*3 8.2 C 0 km/h
157 18-10-2007 07:49:02 8.2 C 6.53 g/m*3 8.2 C 0 km/h
158 18-10-2007 07:52:02 8.2 C 6.53 g/m*3 8.2 C 0 km/h
159 18-10-2007 07:55:02 8.2 C 6.53 g/m*3 8.2 C 0 km/h
160 18-10-2007 07:58:02 8.2 C 6.53 g/m*3 8.2 C 0 km/h
161 18-10-2007 08:01:02 8.1 C 6.49 g/m*3 8.1 C 0 km/h
162 18-10-2007 08:04:02 8.2 C 6.53 g/m*3 8.2 C 0 km/h
163 18-10-2007 08:07:03 8.1 C 6.57 g/m*3 8.1 C 0 km/h
164 18-10-2007 08:10:03 8.1 C 6.57 g/m*3 8.1 C 0 km/h
165 18-10-2007 08:13:03 8.2 C 6.62 g/m*3 8.2 C 0 km/h
166 18-10-2007 08:16:02 8.2 C 6.62 g/m*3 8.2 C 0 km/h
167 18-10-2007 08:19:02 8.3 C 6.66 g/m*3 8.3 C 0 km/h
168 18-10-2007 08:22:02 8.4 C 6.62 g/m*3 8.4 C 0 km/h
169 18-10-2007 08:25:02 8.4 C 6.53 g/m*3 8.4 C 0 km/h
170 18-10-2007 08:28:02 8.5 C 6.57 g/m*3 8.5 C 0 km/h
171 18-10-2007 08:31:01 8.6 C 6.44 g/m*3 8.6 C 0 km/h
172 18-10-2007 08:34:01 8.6 C 6.44 g/m*3 8.6 C 0 km/h
173 18-10-2007 08:37:01 8.7 C 6.49 g/m*3 8.7 C 0 km/h
174 18-10-2007 08:40:01 8.7 C 6.49 g/m*3 8.7 C 0 km/h
175 18-10-2007 08:43:01 8.7 C 6.4 g/m*3 8.7 C 0 km/h
Sensor: Nr:Datum:Temp:Abs-Feuchte:Windchill:Wind:
Aussen-T/F 176 18-10-2007 08:46:01 8.8 C 6.44 g/m*3 8.8 C 0 km/h
177 18-10-2007 08:49:01 8.8 C 6.44 g/m*3 8.8 C 0 km/h
178 18-10-2007 08:52:01 8.9 C 6.39 g/m*3 8.9 C 0 km/h
179 18-10-2007 08:55:01 8.9 C 6.39 g/m*3 8.9 C 0 km/h
180 18-10-2007 08:58:01 8.9 C 6.39 g/m*3 8.9 C 0 km/h
181 18-10-2007 09:01:02 8.9 C 6.39 g/m*3 8.9 C 0 km/h
182 18-10-2007 09:04:02 8.6 C 6.44 g/m*3 8.6 C 0 km/h
183 18-10-2007 09:07:02 8.5 C 6.49 g/m*3 8.5 C 0 km/h
184 18-10-2007 09:10:02 8.5 C 6.57 g/m*3 8.5 C 0 km/h
185 18-10-2007 09:13:02 8.3 C 6.49 g/m*3 8.3 C 0 km/h
186 18-10-2007 09:16:02 8.4 C 6.53 g/m*3 8.4 C 0 km/h
187 18-10-2007 09:19:02 8.3 C 6.49 g/m*3 8.3 C 0 km/h
188 18-10-2007 09:22:02 8.4 C 6.53 g/m*3 8.4 C 0 km/h
189 18-10-2007 09:25:02 8.4 C 6.53 g/m*3 8.4 C 0 km/h
190 18-10-2007 09:28:02 8.4 C 6.53 g/m*3 8.4 C 0 km/h
191 18-10-2007 09:31:02 8.5 C 6.57 g/m*3 8.5 C 0 km/h
192 18-10-2007 09:34:02 8.6 C 6.62 g/m*3 8.6 C 0 km/h
193 18-10-2007 09:37:02 8.5 C 6.57 g/m*3 8.5 C 0 km/h
194 18-10-2007 09:40:02 8.6 C 6.62 g/m*3 8.6 C 0 km/h
195 18-10-2007 09:43:02 8.6 C 6.62 g/m*3 8.6 C 0 km/h
196 18-10-2007 09:46:01 8.7 C 6.66 g/m*3 8.7 C 0 km/h
197 18-10-2007 09:49:01 8.8 C 6.7 g/m*3 8.8 C 0 km/h
198 18-10-2007 09:52:01 8.9 C 6.75 g/m*3 8.9 C 0 km/h
199 18-10-2007 09:55:01 8.9 C 6.57 g/m*3 8.9 C 0 km/h
200 18-10-2007 09:58:01 8.9 C 6.57 g/m*3 8.9 C 0 km/h
Sensor: Nr:Datum:Temp:Abs-Feuchte:Windchill:Wind:
Aussen-T/F 201 18-10-2007 10:01:02 9.1 C 6.57 g/m*3 9.1 C 0 km/h
202 18-10-2007 10:04:02 9.1 C 6.57 g/m*3 9.1 C 0 km/h
203 18-10-2007 10:07:02 9.2 C 6.61 g/m*3 9.2 C 0 km/h
204 18-10-2007 10:10:02 9.3 C 6.65 g/m*3 9.3 C 0 km/h
205 18-10-2007 10:13:02 9.4 C 6.69 g/m*3 9.4 C 0 km/h
206 18-10-2007 10:16:02 9.5 C 6.64 g/m*3 9.5 C 0 km/h
207 18-10-2007 10:19:02 9.6 C 6.69 g/m*3 9.6 C 0 km/h
208 18-10-2007 10:22:02 9.7 C 6.64 g/m*3 9.7 C 0 km/h
209 18-10-2007 10:25:02 9.9 C 6.54 g/m*3 9.9 C 0 km/h
210 18-10-2007 10:28:02 9.8 C 6.49 g/m*3 9.8 C 0 km/h
211 18-10-2007 10:31:01 9.9 C 6.54 g/m*3 9.9 C 0 km/h
212 18-10-2007 10:34:01 10 C 6.39 g/m*3 10 C 0 km/h
213 18-10-2007 10:37:02 10.1 C 6.43 g/m*3 10.1 C 0 km/h
214 18-10-2007 10:40:02 10.4 C 6.55 g/m*3 10.4 C 0 km/h
215 18-10-2007 10:43:02 10.4 C 6.46 g/m*3 10.4 C 0 km/h
216 18-10-2007 10:46:03 10.3 C 6.42 g/m*3 10.3 C 0 km/h
217 18-10-2007 10:49:03 10.3 C 6.32 g/m*3 10.3 C 0 km/h
218 18-10-2007 10:52:03 10.3 C 6.32 g/m*3 10.3 C 0 km/h
219 18-10-2007 10:55:03 10.3 C 6.32 g/m*3 10.3 C 0 km/h
220 18-10-2007 10:58:03 10.4 C 6.36 g/m*3 10.4 C 0 km/h
221 18-10-2007 11:01:03 10.5 C 6.5 g/m*3 10.5 C 0 km/h
222 18-10-2007 11:04:03 10.5 C 6.4 g/m*3 10.5 C 0 km/h
223 18-10-2007 11:07:03 10.6 C 6.34 g/m*3 10.6 C 0 km/h
224 18-10-2007 11:10:03 10.6 C 6.34 g/m*3 10.6 C 0 km/h
225 18-10-2007 11:13:03 10.7 C 6.38 g/m*3 10.7 C 0 km/h
Sensor: Nr:Datum:Temp:Abs-Feuchte:Windchill:Wind:
Aussen-T/F 226 18-10-2007 11:16:02 10.6 C 6.25 g/m*3 10.6 C 0 km/h
227 18-10-2007 11:19:02 10.6 C 6.34 g/m*3 10.6 C 0 km/h
228 18-10-2007 11:22:02 10.7 C 6.38 g/m*3 10.7 C 0 km/h
229 18-10-2007 11:25:02 10.7 C 6.38 g/m*3 10.7 C 0 km/h
230 18-10-2007 11:28:02 10.7 C 6.38 g/m*3 10.7 C 0 km/h
231 18-10-2007 11:31:02 10.8 C 6.52 g/m*3 10.8 C 0 km/h
232 18-10-2007 11:34:02 10.8 C 6.42 g/m*3 10.8 C 0 km/h
233 18-10-2007 11:37:02 10.9 C 6.27 g/m*3 10.9 C 0 km/h
234 18-10-2007 11:40:02 10.9 C 6.27 g/m*3 10.9 C 0 km/h
235 18-10-2007 11:43:02 11 C 6.41 g/m*3 11 C 0 km/h
236 18-10-2007 11:46:02 11 C 6.31 g/m*3 11 C 0 km/h
237 18-10-2007 11:49:02 11.1 C 6.25 g/m*3 11.1 C 0 km/h
238 18-10-2007 11:52:02 11.3 C 6.43 g/m*3 11.3 C 0 km/h
239 18-10-2007 11:55:02 11.1 C 6.25 g/m*3 11.1 C 0 km/h
240 18-10-2007 11:58:02 11.4 C 6.36 g/m*3 11.4 C 0 km/h
241 18-10-2007 12:01:02 11.4 C 6.36 g/m*3 11.4 C 0 km/h
242 18-10-2007 12:04:03 11.6 C 6.44 g/m*3 11.6 C 0 km/h
243 18-10-2007 12:07:03 11.6 C 6.44 g/m*3 11.6 C 0 km/h
244 18-10-2007 12:10:03 11.5 C 6.4 g/m*3 11.5 C 0 km/h
245 18-10-2007 12:13:03 11.3 C 6.32 g/m*3 11.3 C 0 km/h
246 18-10-2007 12:16:02 11.1 C 6.25 g/m*3 11.1 C 0 km/h
247 18-10-2007 12:19:02 11.1 C 6.14 g/m*3 11.1 C 0 km/h
248 18-10-2007 12:22:02 11 C 6.11 g/m*3 11 C 0 km/h
249 18-10-2007 12:25:02 11 C 6.11 g/m*3 11 C 0 km/h
250 18-10-2007 12:28:02 11 C 6.21 g/m*3 11 C 0 km/h
Sensor: Nr:Datum:Temp:Abs-Feuchte:Windchill:Wind:
Aussen-T/F 251 18-10-2007 12:31:01 11.2 C 6.28 g/m*3 11.2 C 0 km/h
252 18-10-2007 12:34:01 11.2 C 6.28 g/m*3 11.2 C 0 km/h
253 18-10-2007 12:37:01 11.3 C 6.12 g/m*3 11.3 C 0 km/h
254 18-10-2007 12:40:01 11.3 C 6.12 g/m*3 11.3 C 0 km/h
255 18-10-2007 12:43:01 11.4 C 6.16 g/m*3 11.4 C 0 km/h
256 18-10-2007 12:46:02 11.7 C 6.38 g/m*3 11.7 C 0 km/h
257 18-10-2007 12:49:02 12 C 6.5 g/m*3 12 C 0 km/h
258 18-10-2007 12:52:02 12.5 C 6.49 g/m*3 12.5 C 0 km/h
259 18-10-2007 12:55:02 12.4 C 6.23 g/m*3 12.4 C 0 km/h
260 18-10-2007 12:58:02 12.2 C 5.94 g/m*3 12.2 C 0 km/h
261 18-10-2007 13:01:02 12.2 C 5.83 g/m*3 12.2 C 0 km/h
262 18-10-2007 13:04:02 12 C 5.65 g/m*3 12 C 0 km/h
263 18-10-2007 13:07:02 11.9 C 5.72 g/m*3 11.9 C 0 km/h
264 18-10-2007 13:10:02 12 C 5.75 g/m*3 12 C 0 km/h
265 18-10-2007 13:13:02 11.9 C 5.93 g/m*3 11.9 C 0 km/h
266 18-10-2007 13:16:02 11.9 C 5.93 g/m*3 11.9 C 0 km/h
267 18-10-2007 13:19:02 11.9 C 5.93 g/m*3 11.9 C 0 km/h
268 18-10-2007 13:22:02 11.9 C 6.04 g/m*3 11.9 C 0 km/h
269 18-10-2007 13:25:02 11.9 C 5.93 g/m*3 11.9 C 0 km/h
270 18-10-2007 13:28:02 11.9 C 5.93 g/m*3 11.9 C 0 km/h
271 18-10-2007 13:31:02 12 C 5.86 g/m*3 12 C 0 km/h
272 18-10-2007 13:34:02 12.1 C 5.9 g/m*3 12.1 C 0 km/h
273 18-10-2007 13:37:02 12 C 5.97 g/m*3 12 C 0 km/h
274 18-10-2007 13:40:03 12 C 5.86 g/m*3 12 C 0 km/h
275 18-10-2007 13:43:03 12 C 5.86 g/m*3 12 C 0 km/h
Sensor: Nr:Datum:Temp:Abs-Feuchte:Windchill:Wind:
Aussen-T/F 276 18-10-2007 13:46:02 12.2 C 5.94 g/m*3 12.2 C 0 km/h
277 18-10-2007 13:49:02 12.2 C 5.94 g/m*3 12.2 C 0 km/h
278 18-10-2007 13:52:02 12 C 5.97 g/m*3 12 C 0 km/h
279 18-10-2007 13:55:02 12 C 6.07 g/m*3 12 C 0 km/h
280 18-10-2007 13:58:02 11.7 C 6.07 g/m*3 11.7 C 0 km/h
281 18-10-2007 14:01:02 11.8 C 5.89 g/m*3 11.8 C 0 km/h
282 18-10-2007 14:04:02 11.9 C 5.93 g/m*3 11.9 C 0 km/h
283 18-10-2007 14:07:02 11.9 C 5.93 g/m*3 11.9 C 0 km/h
284 18-10-2007 14:10:02 12.2 C 5.94 g/m*3 12.2 C 0 km/h
285 18-10-2007 14:13:02 12.2 C 5.94 g/m*3 12.2 C 0 km/h
286 18-10-2007 14:16:02 12.2 C 6.04 g/m*3 12.2 C 0 km/h
287 18-10-2007 14:19:02 12.2 C 6.04 g/m*3 12.2 C 0 km/h
288 18-10-2007 14:22:02 12.4 C 6.01 g/m*3 12.4 C 0 km/h
289 18-10-2007 14:25:02 12.7 C 6.12 g/m*3 12.7 C 0 km/h
290 18-10-2007 14:28:02 13 C 6.01 g/m*3 13 C 0 km/h
291 18-10-2007 14:31:01 13.6 C 6.24 g/m*3 13.6 C 0 km/h
292 18-10-2007 14:34:01 13.4 C 5.81 g/m*3 13.4 C 0 km/h
293 18-10-2007 14:37:02 13.2 C 5.63 g/m*3 13.2 C 0 km/h
294 18-10-2007 14:40:02 12.8 C 5.49 g/m*3 12.8 C 0 km/h
295 18-10-2007 14:43:02 12.9 C 5.64 g/m*3 12.9 C 0 km/h
296 18-10-2007 14:46:02 12.7 C 5.57 g/m*3 12.7 C 0 km/h
297 18-10-2007 14:49:02 12.7 C 5.57 g/m*3 12.7 C 0 km/h
298 18-10-2007 14:52:02 12.6 C 5.53 g/m*3 12.6 C 0 km/h
299 18-10-2007 14:55:02 12.6 C 5.53 g/m*3 12.6 C 0 km/h
300 18-10-2007 14:58:02 12.9 C 5.64 g/m*3 12.9 C 0 km/h
Sensor: Nr:Datum:Temp:Abs-Feuchte:Windchill:Wind:
Aussen-T/F 301 18-10-2007 15:01:02 13 C 5.56 g/m*3 13 C 0 km/h
302 18-10-2007 15:04:02 13.1 C 5.36 g/m*3 13.1 C 0 km/h
303 18-10-2007 15:07:02 13.4 C 5.58 g/m*3 13.4 C 0 km/h
304 18-10-2007 15:10:03 13.7 C 5.57 g/m*3 13.7 C 0 km/h
305 18-10-2007 15:13:03 13.7 C 5.45 g/m*3 13.7 C 0 km/h
306 18-10-2007 15:16:02 14 C 5.43 g/m*3 14 C 0 km/h
307 18-10-2007 15:19:02 14 C 5.43 g/m*3 14 C 0 km/h
308 18-10-2007 15:22:02 14.1 C 5.46 g/m*3 14.1 C 0 km/h
309 18-10-2007 15:25:02 14 C 5.43 g/m*3 14 C 0 km/h
310 18-10-2007 15:28:02 14.1 C 5.34 g/m*3 14.1 C 0 km/h
311 18-10-2007 15:31:02 14 C 5.31 g/m*3 14 C 0 km/h
312 18-10-2007 15:34:02 13.9 C 5.39 g/m*3 13.9 C 0 km/h
313 18-10-2007 15:37:02 14 C 5.31 g/m*3 14 C 0 km/h
314 18-10-2007 15:40:02 14 C 5.31 g/m*3 14 C 0 km/h
315 18-10-2007 15:43:02 13.5 C 5.26 g/m*3 13.5 C 0 km/h
316 18-10-2007 15:46:02 13.5 C 5.38 g/m*3 13.5 C 0 km/h
317 18-10-2007 15:49:02 14 C 5.55 g/m*3 14 C 0 km/h
318 18-10-2007 15:52:02 14.3 C 5.65 g/m*3 14.3 C 0 km/h
319 18-10-2007 15:55:02 14.6 C 5.63 g/m*3 14.6 C 0 km/h
320 18-10-2007 15:58:03 14.2 C 5.25 g/m*3 14.2 C 0 km/h
321 18-10-2007 16:01:02 14.2 C 5.13 g/m*3 14.2 C 0 km/h
322 18-10-2007 16:04:02 14.1 C 5.1 g/m*3 14.1 C 0 km/h
323 18-10-2007 16:07:02 14.1 C 5.1 g/m*3 14.1 C 0 km/h
324 18-10-2007 16:10:02 13.7 C 5.33 g/m*3 13.7 C 0 km/h
325 18-10-2007 16:13:02 13.3 C 5.43 g/m*3 13.3 C 0 km/h
Sensor: Nr:Datum:Temp:Abs-Feuchte:Windchill:Wind:
Aussen-T/F 326 18-10-2007 16:16:02 12.8 C 5.71 g/m*3 12.8 C 0 km/h
327 18-10-2007 16:19:02 12.2 C 5.72 g/m*3 12.2 C 0 km/h
328 18-10-2007 16:22:02 11.4 C 6.06 g/m*3 11.4 C 0 km/h
329 18-10-2007 16:25:02 10.7 C 6.38 g/m*3 10.7 C 0 km/h
330 18-10-2007 16:28:02 10 C 6.39 g/m*3 10 C 0 km/h
331 18-10-2007 16:31:03 9.7 C 6.55 g/m*3 9.7 C 0 km/h
332 18-10-2007 16:34:03 9.6 C 6.87 g/m*3 9.6 C 0 km/h
333 18-10-2007 16:37:03 9.5 C 6.92 g/m*3 9.5 C 0 km/h
334 18-10-2007 16:40:03 9.4 C 6.96 g/m*3 9.4 C 0 km/h
335 18-10-2007 16:43:03 9.3 C 7.01 g/m*3 9.3 C 0 km/h
336 18-10-2007 16:46:02 9.3 C 7.01 g/m*3 9.3 C 0 km/h
337 18-10-2007 16:49:02 9.2 C 7.05 g/m*3 9.2 C 0 km/h
338 18-10-2007 16:52:02 9.1 C 7.1 g/m*3 9.1 C 0 km/h
339 18-10-2007 16:55:02 9.2 C 7.23 g/m*3 9.2 C 0 km/h
340 18-10-2007 16:58:02 9.3 C 7.28 g/m*3 9.3 C 0 km/h
341 18-10-2007 17:01:03 9.4 C 7.24 g/m*3 9.4 C 0 km/h
342 18-10-2007 17:04:03 9.6 C 7.24 g/m*3 9.6 C 0 km/h
343 18-10-2007 17:07:03 9.8 C 7.24 g/m*3 9.8 C 0 km/h
344 18-10-2007 17:10:03 10.1 C 7 g/m*3 10.1 C 0 km/h
345 18-10-2007 17:13:03 10.5 C 6.89 g/m*3 10.5 C 0 km/h
346 18-10-2007 17:16:02 10.8 C 6.82 g/m*3 10.8 C 0 km/h
347 18-10-2007 17:19:02 11 C 6.81 g/m*3 11 C 0 km/h
348 18-10-2007 17:22:02 11.1 C 6.75 g/m*3 11.1 C 0 km/h
349 18-10-2007 17:25:02 11.2 C 6.69 g/m*3 11.2 C 0 km/h
350 18-10-2007 17:28:02 11.2 C 6.59 g/m*3 11.2 C 0 km/h
Sensor: Nr:Datum:Temp:Abs-Feuchte:Windchill:Wind:
Aussen-T/F 351 18-10-2007 17:31:02 11.3 C 6.53 g/m*3 11.3 C 0 km/h
352 18-10-2007 17:34:02 11.4 C 6.36 g/m*3 11.4 C 0 km/h
353 18-10-2007 17:37:02 11.4 C 6.36 g/m*3 11.4 C 0 km/h
354 18-10-2007 17:40:03 11.4 C 6.36 g/m*3 11.4 C 0 km/h
355 18-10-2007 17:43:03 11.5 C 6.3 g/m*3 11.5 C 0 km/h
356 18-10-2007 17:46:03 11.5 C 6.3 g/m*3 11.5 C 0 km/h
357 18-10-2007 17:49:03 11.4 C 6.26 g/m*3 11.4 C 0 km/h
358 18-10-2007 17:52:03 11.2 C 6.08 g/m*3 11.2 C 0 km/h
359 18-10-2007 17:55:03 11.4 C 6.26 g/m*3 11.4 C 0 km/h
360 18-10-2007 17:58:03 11.4 C 6.26 g/m*3 11.4 C 0 km/h
361 18-10-2007 18:01:02 11.4 C 6.26 g/m*3 11.4 C 0 km/h
362 18-10-2007 18:04:02 11 C 6.21 g/m*3 11 C 0 km/h
363 18-10-2007 18:07:02 11 C 6.21 g/m*3 11 C 0 km/h
364 18-10-2007 18:10:02 10.9 C 6.27 g/m*3 10.9 C 0 km/h
365 18-10-2007 18:13:02 10.7 C 6.29 g/m*3 10.7 C 0 km/h
366 18-10-2007 18:16:02 10.6 C 6.34 g/m*3 10.6 C 0 km/h
367 18-10-2007 18:19:02 10.4 C 6.26 g/m*3 10.4 C 0 km/h
368 18-10-2007 18:22:02 10.3 C 6.32 g/m*3 10.3 C 0 km/h
369 18-10-2007 18:25:03 10.2 C 6.19 g/m*3 10.2 C 0 km/h
370 18-10-2007 18:28:03 10.2 C 6.19 g/m*3 10.2 C 0 km/h
371 18-10-2007 18:31:02 10.2 C 6.28 g/m*3 10.2 C 0 km/h
372 18-10-2007 18:34:02 10.1 C 6.24 g/m*3 10.1 C 0 km/h
373 18-10-2007 18:37:02 10.1 C 6.24 g/m*3 10.1 C 0 km/h
374 18-10-2007 18:40:02 10.1 C 6.24 g/m*3 10.1 C 0 km/h
375 18-10-2007 18:43:02 10.1 C 6.24 g/m*3 10.1 C 0 km/h
Sensor: Nr:Datum:Temp:Abs-Feuchte:Windchill:Wind:
Aussen-T/F 376 18-10-2007 18:46:01 10 C 6.2 g/m*3 10 C 0 km/h
377 18-10-2007 18:49:01 10 C 6.2 g/m*3 10 C 0 km/h
378 18-10-2007 18:52:01 10 C 6.11 g/m*3 10 C 0 km/h
379 18-10-2007 18:55:01 10 C 6.3 g/m*3 10 C 0 km/h
380 18-10-2007 18:58:01 9.9 C 6.35 g/m*3 9.9 C 0 km/h
381 18-10-2007 19:01:01 9.8 C 6.31 g/m*3 9.8 C 0 km/h
382 18-10-2007 19:04:01 9.9 C 6.35 g/m*3 9.9 C 0 km/h
383 18-10-2007 19:07:01 9.9 C 6.35 g/m*3 9.9 C 0 km/h
384 18-10-2007 19:10:01 9.9 C 6.35 g/m*3 9.9 C 0 km/h
385 18-10-2007 19:13:01 9.6 C 6.32 g/m*3 9.6 C 0 km/h
386 18-10-2007 19:16:02 9.6 C 6.32 g/m*3 9.6 C 0 km/h
387 18-10-2007 19:19:02 9.5 C 6.28 g/m*3 9.5 C 0 km/h
388 18-10-2007 19:22:02 9.4 C 6.33 g/m*3 9.4 C 0 km/h
389 18-10-2007 19:25:02 9.3 C 6.29 g/m*3 9.3 C 0 km/h
390 18-10-2007 19:28:02 9.3 C 6.29 g/m*3 9.3 C 0 km/h
391 18-10-2007 19:31:02 9.3 C 6.29 g/m*3 9.3 C 0 km/h
392 18-10-2007 19:34:02 9.3 C 6.29 g/m*3 9.3 C 0 km/h
393 18-10-2007 19:37:02 9.3 C 6.38 g/m*3 9.3 C 0 km/h
394 18-10-2007 19:40:02 9.3 C 6.38 g/m*3 9.3 C 0 km/h
395 18-10-2007 19:43:02 9.4 C 6.42 g/m*3 9.4 C 0 km/h
396 18-10-2007 19:46:02 9.3 C 6.29 g/m*3 9.3 C 0 km/h
397 18-10-2007 19:49:02 9.3 C 6.29 g/m*3 9.3 C 0 km/h
398 18-10-2007 19:52:02 9.4 C 6.33 g/m*3 9.4 C 0 km/h
399 18-10-2007 19:55:02 9.4 C 6.33 g/m*3 9.4 C 0 km/h
400 18-10-2007 19:58:02 9.4 C 6.33 g/m*3 9.4 C 0 km/h
Sensor: Nr:Datum:Temp:Abs-Feuchte:Windchill:Wind:
Aussen-T/F 401 18-10-2007 20:01:02 9.5 C 6.28 g/m*3 9.5 C 0 km/h
402 18-10-2007 20:04:02 9.5 C 6.28 g/m*3 9.5 C 0 km/h
403 18-10-2007 20:07:02 9.3 C 6.29 g/m*3 9.3 C 0 km/h
404 18-10-2007 20:10:03 9.1 C 6.3 g/m*3 9.1 C 0 km/h
405 18-10-2007 20:13:03 9 C 6.17 g/m*3 9 C 0 km/h
406 18-10-2007 20:16:02 8.8 C 6.27 g/m*3 8.8 C 0 km/h
407 18-10-2007 20:19:02 8.7 C 6.23 g/m*3 8.7 C 0 km/h
408 18-10-2007 20:22:02 8.6 C 6.19 g/m*3 8.6 C 0 km/h
409 18-10-2007 20:25:02 8.5 C 6.23 g/m*3 8.5 C 0 km/h
410 18-10-2007 20:28:02 8.4 C 6.19 g/m*3 8.4 C 0 km/h
411 18-10-2007 20:31:03 8.4 C 6.19 g/m*3 8.4 C 0 km/h
412 18-10-2007 20:34:03 8.4 C 6.19 g/m*3 8.4 C 0 km/h
413 18-10-2007 20:37:03 8.3 C 6.15 g/m*3 8.3 C 0 km/h
414 18-10-2007 20:40:03 8.2 C 6.11 g/m*3 8.2 C 0 km/h
415 18-10-2007 20:43:03 8.1 C 6.07 g/m*3 8.1 C 0 km/h
416 18-10-2007 20:46:03 8.1 C 6.16 g/m*3 8.1 C 0 km/h
417 18-10-2007 20:49:03 8 C 6.12 g/m*3 8 C 0 km/h
418 18-10-2007 20:52:03 8 C 6.12 g/m*3 8 C 0 km/h
419 18-10-2007 20:55:03 8 C 6.12 g/m*3 8 C 0 km/h
420 18-10-2007 20:58:03 7.9 C 6.24 g/m*3 7.9 C 0 km/h
421 18-10-2007 21:01:03 7.8 C 6.2 g/m*3 7.8 C 0 km/h
422 18-10-2007 21:04:03 7.7 C 6.24 g/m*3 7.7 C 0 km/h
423 18-10-2007 21:07:03 7.7 C 6.24 g/m*3 7.7 C 0 km/h
424 18-10-2007 21:10:03 7.8 C 6.28 g/m*3 7.8 C 0 km/h
425 18-10-2007 21:13:03 7.6 C 6.2 g/m*3 7.6 C 0 km/h
Sensor: Nr:Datum:Temp:Abs-Feuchte:Windchill:Wind:
Aussen-T/F 426 18-10-2007 21:16:02 7.6 C 6.2 g/m*3 7.6 C 0 km/h
427 18-10-2007 21:19:03 7.6 C 6.2 g/m*3 7.6 C 0 km/h
428 18-10-2007 21:22:03 7.7 C 6.24 g/m*3 7.7 C 0 km/h
429 18-10-2007 21:25:03 7.6 C 6.2 g/m*3 7.6 C 0 km/h
430 18-10-2007 21:28:03 7.6 C 6.2 g/m*3 7.6 C 0 km/h
431 18-10-2007 21:31:02 7.7 C 6.32 g/m*3 7.7 C 0 km/h
432 18-10-2007 21:34:02 7.6 C 6.28 g/m*3 7.6 C 0 km/h
433 18-10-2007 21:37:02 7.5 C 6.32 g/m*3 7.5 C 0 km/h
434 18-10-2007 21:40:02 7.6 C 6.36 g/m*3 7.6 C 0 km/h
435 18-10-2007 21:43:02 7.5 C 6.4 g/m*3 7.5 C 0 km/h
436 18-10-2007 21:46:01 7.5 C 6.4 g/m*3 7.5 C 0 km/h
437 18-10-2007 21:49:01 7.5 C 6.4 g/m*3 7.5 C 0 km/h
438 18-10-2007 21:52:01 7.5 C 6.4 g/m*3 7.5 C 0 km/h
439 18-10-2007 21:55:01 7.6 C 6.53 g/m*3 7.6 C 0 km/h
440 18-10-2007 21:58:01 7.3 C 6.4 g/m*3 7.3 C 0 km/h
441 18-10-2007 22:01:01 7.3 C 6.4 g/m*3 7.3 C 0 km/h
442 18-10-2007 22:04:01 7.3 C 6.4 g/m*3 7.3 C 0 km/h
443 18-10-2007 22:07:01 7.3 C 6.4 g/m*3 7.3 C 0 km/h
444 18-10-2007 22:10:01 7.2 C 6.44 g/m*3 7.2 C 0 km/h
445 18-10-2007 22:13:01 7.2 C 6.44 g/m*3 7.2 C 0 km/h
446 18-10-2007 22:16:02 7.2 C 6.44 g/m*3 7.2 C 0 km/h
447 18-10-2007 22:19:02 7.2 C 6.44 g/m*3 7.2 C 0 km/h
448 18-10-2007 22:22:02 7.1 C 6.4 g/m*3 7.1 C 0 km/h
449 18-10-2007 22:25:02 7.1 C 6.4 g/m*3 7.1 C 0 km/h
450 18-10-2007 22:28:02 7 C 6.35 g/m*3 7 C 0 km/h
Sensor: Nr:Datum:Temp:Abs-Feuchte:Windchill:Wind:
Aussen-T/F 451 18-10-2007 22:31:02 7 C 6.35 g/m*3 7 C 0 km/h
452 18-10-2007 22:34:02 7 C 6.35 g/m*3 7 C 0 km/h
453 18-10-2007 22:37:02 6.9 C 6.39 g/m*3 6.9 C 0 km/h
454 18-10-2007 22:40:02 6.9 C 6.39 g/m*3 6.9 C 0 km/h
455 18-10-2007 22:43:02 6.8 C 6.42 g/m*3 6.8 C 0 km/h
456 18-10-2007 22:46:01 6.8 C 6.42 g/m*3 6.8 C 0 km/h
457 18-10-2007 22:49:01 6.8 C 6.42 g/m*3 6.8 C 0 km/h
458 18-10-2007 22:52:01 6.7 C 6.38 g/m*3 6.7 C 0 km/h
459 18-10-2007 22:55:01 6.7 C 6.38 g/m*3 6.7 C 0 km/h
460 18-10-2007 22:58:01 6.6 C 6.34 g/m*3 6.6 C 0 km/h
461 18-10-2007 23:01:02 6.5 C 6.3 g/m*3 6.5 C 0 km/h
462 18-10-2007 23:04:02 6.5 C 6.3 g/m*3 6.5 C 0 km/h
463 18-10-2007 23:07:02 6.4 C 6.33 g/m*3 6.4 C 0 km/h
464 18-10-2007 23:10:02 6.4 C 6.33 g/m*3 6.4 C 0 km/h
465 18-10-2007 23:13:02 6.3 C 6.37 g/m*3 6.3 C 0 km/h
466 18-10-2007 23:16:02 6.3 C 6.37 g/m*3 6.3 C 0 km/h
467 18-10-2007 23:19:02 6.3 C 6.37 g/m*3 6.3 C 0 km/h
468 18-10-2007 23:22:02 6.2 C 6.32 g/m*3 6.2 C 0 km/h
469 18-10-2007 23:25:03 6.2 C 6.32 g/m*3 6.2 C 0 km/h
470 18-10-2007 23:28:03 6.2 C 6.32 g/m*3 6.2 C 0 km/h
471 18-10-2007 23:31:01 6.2 C 6.32 g/m*3 6.2 C 0 km/h
472 18-10-2007 23:34:01 6 C 6.24 g/m*3 6 C 0 km/h
473 18-10-2007 23:37:01 6 C 6.24 g/m*3 6 C 0 km/h
474 18-10-2007 23:40:01 6 C 6.24 g/m*3 6 C 0 km/h
475 18-10-2007 23:43:01 6 C 6.31 g/m*3 6 C 0 km/h
Sensor: Nr:Datum:Temp:Abs-Feuchte:Windchill:Wind:
Aussen-T/F 476 18-10-2007 23:46:02 6.1 C 6.36 g/m*3 6.1 C 0 km/h
477 18-10-2007 23:49:02 6.2 C 6.4 g/m*3 6.2 C 0 km/h
478 18-10-2007 23:52:02 6.2 C 6.47 g/m*3 6.2 C 0 km/h
479 18-10-2007 23:55:02 6.3 C 6.51 g/m*3 6.3 C 0 km/h
480 18-10-2007 23:58:02 6.3 C 6.51 g/m*3 6.3 C 0 km/h
481 19-10-2007 00:01:02 6.4 C 6.56 g/m*3 6.4 C 0 km/h
482 19-10-2007 00:04:02 6.3 C 6.51 g/m*3 6.3 C 0 km/h
483 19-10-2007 00:07:02 6.3 C 6.51 g/m*3 6.3 C 0 km/h
484 19-10-2007 00:10:02 6.4 C 6.56 g/m*3 6.4 C 0 km/h
485 19-10-2007 00:13:02 6.4 C 6.56 g/m*3 6.4 C 0 km/h
486 19-10-2007 00:16:02 6.4 C 6.56 g/m*3 6.4 C 0 km/h
487 19-10-2007 00:19:02 6.4 C 6.56 g/m*3 6.4 C 0 km/h
488 19-10-2007 00:22:02 6.5 C 6.6 g/m*3 6.5 C 0 km/h
489 19-10-2007 00:25:02 6.5 C 6.6 g/m*3 6.5 C 0 km/h
490 19-10-2007 00:28:02 6.6 C 6.64 g/m*3 6.6 C 0 km/h
491 19-10-2007 00:31:02 6.6 C 6.64 g/m*3 6.6 C 0 km/h
492 19-10-2007 00:34:02 6.6 C 6.64 g/m*3 6.6 C 0 km/h
493 19-10-2007 00:37:02 6.7 C 6.69 g/m*3 6.7 C 0 km/h
494 19-10-2007 00:40:02 6.7 C 6.69 g/m*3 6.7 C 0 km/h
495 19-10-2007 00:43:02 6.8 C 6.73 g/m*3 6.8 C 0 km/h
496 19-10-2007 00:46:02 6.7 C 6.61 g/m*3 6.7 C 0 km/h
497 19-10-2007 00:49:02 6.7 C 6.61 g/m*3 6.7 C 0 km/h
498 19-10-2007 00:52:02 6.7 C 6.61 g/m*3 6.7 C 0 km/h
499 19-10-2007 00:55:02 6.7 C 6.61 g/m*3 6.7 C 0 km/h
500 19-10-2007 00:58:02 6.6 C 6.57 g/m*3 6.6 C 0 km/h
Sensor: Nr:Datum:Temp:Abs-Feuchte:Windchill:Wind:
Aussen-T/F 501 19-10-2007 01:01:02 6.6 C 6.57 g/m*3 6.6 C 0 km/h
502 19-10-2007 01:04:02 6.6 C 6.57 g/m*3 6.6 C 0 km/h
503 19-10-2007 01:07:02 6.5 C 6.52 g/m*3 6.5 C 0 km/h
504 19-10-2007 01:10:02 6.5 C 6.52 g/m*3 6.5 C 0 km/h
505 19-10-2007 01:13:02 6.5 C 6.52 g/m*3 6.5 C 0 km/h
506 19-10-2007 01:16:02 6.6 C 6.57 g/m*3 6.6 C 0 km/h
507 19-10-2007 01:19:02 6.5 C 6.52 g/m*3 6.5 C 0 km/h
508 19-10-2007 01:22:02 6.5 C 6.52 g/m*3 6.5 C 0 km/h
509 19-10-2007 01:25:02 6.5 C 6.52 g/m*3 6.5 C 0 km/h
510 19-10-2007 01:28:02 6.6 C 6.57 g/m*3 6.6 C 0 km/h
511 19-10-2007 01:31:02 6.6 C 6.57 g/m*3 6.6 C 0 km/h
512 19-10-2007 01:34:02 6.6 C 6.57 g/m*3 6.6 C 0 km/h
513 19-10-2007 01:37:02 6.6 C 6.57 g/m*3 6.6 C 0 km/h
514 19-10-2007 01:40:03 6.7 C 6.61 g/m*3 6.7 C 0 km/h
515 19-10-2007 01:43:03 6.7 C 6.53 g/m*3 6.7 C 0 km/h
516 19-10-2007 01:46:02 6.7 C 6.53 g/m*3 6.7 C 0 km/h
517 19-10-2007 01:49:02 6.7 C 6.46 g/m*3 6.7 C 0 km/h
518 19-10-2007 01:52:03 6.7 C 6.46 g/m*3 6.7 C 0 km/h
519 19-10-2007 01:55:03 6.7 C 6.46 g/m*3 6.7 C 0 km/h
520 19-10-2007 01:58:03 6.7 C 6.38 g/m*3 6.7 C 0 km/h
521 19-10-2007 02:01:01 6.7 C 6.38 g/m*3 6.7 C 0 km/h
522 19-10-2007 02:04:01 6.7 C 6.38 g/m*3 6.7 C 0 km/h
523 19-10-2007 02:07:01 6.7 C 6.38 g/m*3 6.7 C 0 km/h
524 19-10-2007 02:10:01 6.7 C 6.38 g/m*3 6.7 C 0 km/h
525 19-10-2007 02:13:01 6.8 C 6.35 g/m*3 6.8 C 0 km/h
Sensor: Nr:Datum:Temp:Abs-Feuchte:Windchill:Wind:
Aussen-T/F 526 19-10-2007 02:16:01 6.8 C 6.35 g/m*3 6.8 C 0 km/h
527 19-10-2007 02:19:01 6.8 C 6.35 g/m*3 6.8 C 0 km/h
528 19-10-2007 02:22:01 6.8 C 6.35 g/m*3 6.8 C 0 km/h
529 19-10-2007 02:25:01 6.8 C 6.35 g/m*3 6.8 C 0 km/h
530 19-10-2007 02:28:01 6.8 C 6.35 g/m*3 6.8 C 0 km/h
531 19-10-2007 02:31:02 6.8 C 6.35 g/m*3 6.8 C 0 km/h
532 19-10-2007 02:34:02 6.8 C 6.35 g/m*3 6.8 C 0 km/h
533 19-10-2007 02:37:02 6.9 C 6.39 g/m*3 6.9 C 0 km/h
534 19-10-2007 02:40:02 6.9 C 6.39 g/m*3 6.9 C 0 km/h
535 19-10-2007 02:43:02 6.9 C 6.39 g/m*3 6.9 C 0 km/h
536 19-10-2007 02:46:02 6.9 C 6.39 g/m*3 6.9 C 0 km/h
537 19-10-2007 02:49:02 6.9 C 6.39 g/m*3 6.9 C 0 km/h
538 19-10-2007 02:52:02 6.9 C 6.39 g/m*3 6.9 C 0 km/h
539 19-10-2007 02:55:02 6.9 C 6.39 g/m*3 6.9 C 0 km/h
540 19-10-2007 02:58:02 6.9 C 6.39 g/m*3 6.9 C 0 km/h
541 19-10-2007 03:01:02 6.9 C 6.39 g/m*3 6.9 C 0 km/h
542 19-10-2007 03:04:02 6.9 C 6.39 g/m*3 6.9 C 0 km/h
543 19-10-2007 03:07:02 6.8 C 6.35 g/m*3 6.8 C 0 km/h
544 19-10-2007 03:10:02 6.8 C 6.35 g/m*3 6.8 C 0 km/h
545 19-10-2007 03:13:02 6.8 C 6.35 g/m*3 6.8 C 0 km/h
546 19-10-2007 03:16:02 6.8 C 6.35 g/m*3 6.8 C 0 km/h
547 19-10-2007 03:19:02 6.8 C 6.35 g/m*3 6.8 C 0 km/h
548 19-10-2007 03:22:02 6.8 C 6.35 g/m*3 6.8 C 0 km/h
549 19-10-2007 03:25:02 6.8 C 6.35 g/m*3 6.8 C 0 km/h
550 19-10-2007 03:28:02 6.8 C 6.35 g/m*3 6.8 C 0 km/h
Sensor: Nr:Datum:Temp:Abs-Feuchte:Windchill:Wind:
Aussen-T/F 551 19-10-2007 03:31:02 6.9 C 6.39 g/m*3 6.9 C 0 km/h
552 19-10-2007 03:34:02 6.9 C 6.39 g/m*3 6.9 C 0 km/h
553 19-10-2007 03:37:02 6.9 C 6.39 g/m*3 6.9 C 0 km/h
554 19-10-2007 03:40:02 6.9 C 6.39 g/m*3 6.9 C 0 km/h
555 19-10-2007 03:43:02 6.9 C 6.39 g/m*3 6.9 C 0 km/h
556 19-10-2007 03:46:02 6.9 C 6.39 g/m*3 6.9 C 0 km/h
557 19-10-2007 03:49:02 6.9 C 6.39 g/m*3 6.9 C 0 km/h
558 19-10-2007 03:52:02 6.9 C 6.39 g/m*3 6.9 C 0 km/h
559 19-10-2007 03:55:02 6.9 C 6.39 g/m*3 6.9 C 0 km/h
560 19-10-2007 03:58:02 6.9 C 6.39 g/m*3 6.9 C 0 km/h
561 19-10-2007 04:01:02 6.9 C 6.39 g/m*3 6.9 C 0 km/h
562 19-10-2007 04:04:02 6.9 C 6.39 g/m*3 6.9 C 0 km/h
563 19-10-2007 04:07:02 6.9 C 6.39 g/m*3 6.9 C 0 km/h
564 19-10-2007 04:10:02 6.9 C 6.39 g/m*3 6.9 C 0 km/h
565 19-10-2007 04:13:02 6.9 C 6.39 g/m*3 6.9 C 0 km/h
566 19-10-2007 04:16:02 6.9 C 6.39 g/m*3 6.9 C 0 km/h
567 19-10-2007 04:19:02 6.9 C 6.31 g/m*3 6.9 C 0 km/h
568 19-10-2007 04:22:02 6.9 C 6.31 g/m*3 6.9 C 0 km/h
569 19-10-2007 04:25:02 6.9 C 6.31 g/m*3 6.9 C 0 km/h
570 19-10-2007 04:28:02 6.9 C 6.31 g/m*3 6.9 C 0 km/h
571 19-10-2007 04:31:01 6.9 C 6.31 g/m*3 6.9 C 0 km/h
572 19-10-2007 04:34:01 6.9 C 6.31 g/m*3 6.9 C 0 km/h
573 19-10-2007 04:37:01 6.9 C 6.39 g/m*3 6.9 C 0 km/h
574 19-10-2007 04:40:02 6.8 C 6.35 g/m*3 6.8 C 0 km/h
575 19-10-2007 04:43:02 6.8 C 6.35 g/m*3 6.8 C 0 km/h
Sensor: Nr:Datum:Temp:Abs-Feuchte:Windchill:Wind:
Aussen-T/F 576 19-10-2007 04:46:01 6.8 C 6.35 g/m*3 6.8 C 0 km/h
577 19-10-2007 04:49:01 6.8 C 6.35 g/m*3 6.8 C 0 km/h
578 19-10-2007 04:52:01 6.8 C 6.35 g/m*3 6.8 C 0 km/h
579 19-10-2007 04:55:01 6.8 C 6.35 g/m*3 6.8 C 0 km/h
580 19-10-2007 04:58:01 6.8 C 6.35 g/m*3 6.8 C 0 km/h
581 19-10-2007 05:01:02 6.8 C 6.35 g/m*3 6.8 C 0 km/h
582 19-10-2007 05:04:02 6.7 C 6.31 g/m*3 6.7 C 0 km/h
583 19-10-2007 05:07:02 6.7 C 6.31 g/m*3 6.7 C 0 km/h
584 19-10-2007 05:10:02 6.7 C 6.31 g/m*3 6.7 C 0 km/h
585 19-10-2007 05:13:02 6.7 C 6.31 g/m*3 6.7 C 0 km/h
586 19-10-2007 05:16:01 6.7 C 6.31 g/m*3 6.7 C 0 km/h
587 19-10-2007 05:19:01 6.7 C 6.31 g/m*3 6.7 C 0 km/h
588 19-10-2007 05:22:02 6.7 C 6.31 g/m*3 6.7 C 0 km/h
589 19-10-2007 05:25:02 6.7 C 6.31 g/m*3 6.7 C 0 km/h
590 19-10-2007 05:28:02 6.7 C 6.31 g/m*3 6.7 C 0 km/h
591 19-10-2007 05:31:01 6.7 C 6.31 g/m*3 6.7 C 0 km/h
592 19-10-2007 05:34:01 6.7 C 6.31 g/m*3 6.7 C 0 km/h
593 19-10-2007 05:37:01 6.8 C 6.35 g/m*3 6.8 C 0 km/h
594 19-10-2007 05:40:01 6.8 C 6.35 g/m*3 6.8 C 0 km/h
595 19-10-2007 05:43:01 6.8 C 6.27 g/m*3 6.8 C 0 km/h
596 19-10-2007 05:46:01 6.8 C 6.27 g/m*3 6.8 C 0 km/h
597 19-10-2007 05:49:01 6.8 C 6.27 g/m*3 6.8 C 0 km/h
598 19-10-2007 05:52:01 6.8 C 6.27 g/m*3 6.8 C 0 km/h
599 19-10-2007 05:55:01 6.8 C 6.27 g/m*3 6.8 C 0 km/h
600 19-10-2007 05:58:02 6.9 C 6.31 g/m*3 6.9 C 0 km/h
Sensor: Nr:Datum:Temp:Abs-Feuchte:Windchill:Wind:
Aussen-T/F 601 19-10-2007 06:01:01 6.9 C 6.31 g/m*3 6.9 C 0 km/h
602 19-10-2007 06:04:01 6.9 C 6.31 g/m*3 6.9 C 0 km/h
603 19-10-2007 06:07:01 6.9 C 6.24 g/m*3 6.9 C 0 km/h
604 19-10-2007 06:10:01 6.9 C 6.24 g/m*3 6.9 C 0 km/h
605 19-10-2007 06:13:01 6.9 C 6.24 g/m*3 6.9 C 0 km/h
606 19-10-2007 06:16:02 6.9 C 6.16 g/m*3 6.9 C 0 km/h
607 19-10-2007 06:19:02 6.9 C 6.16 g/m*3 6.9 C 0 km/h
608 19-10-2007 06:22:02 6.9 C 6.16 g/m*3 6.9 C 0 km/h
609 19-10-2007 06:25:02 7 C 6.12 g/m*3 7 C 0 km/h
610 19-10-2007 06:28:02 7 C 6.12 g/m*3 7 C 0 km/h
611 19-10-2007 06:31:02 7 C 6.04 g/m*3 7 C 0 km/h
612 19-10-2007 06:34:02 7 C 6.04 g/m*3 7 C 0 km/h
613 19-10-2007 06:37:02 7.1 C 6.08 g/m*3 7.1 C 0 km/h
614 19-10-2007 06:40:02 7 C 6.04 g/m*3 7 C 0 km/h
615 19-10-2007 06:43:02 7 C 6.04 g/m*3 7 C 0 km/h
616 19-10-2007 06:46:02 7 C 6.04 g/m*3 7 C 0 km/h
617 19-10-2007 06:49:02 6.9 C 6.08 g/m*3 6.9 C 0 km/h
618 19-10-2007 06:52:02 6.9 C 6.08 g/m*3 6.9 C 0 km/h
619 19-10-2007 06:55:02 6.9 C 6.08 g/m*3 6.9 C 0 km/h
620 19-10-2007 06:58:02 6.9 C 6.08 g/m*3 6.9 C 0 km/h
621 19-10-2007 07:01:02 7 C 6.04 g/m*3 7 C 0 km/h
622 19-10-2007 07:04:02 7 C 6.04 g/m*3 7 C 0 km/h
623 19-10-2007 07:07:02 6.9 C 6.08 g/m*3 6.9 C 0 km/h
624 19-10-2007 07:10:02 6.9 C 6.08 g/m*3 6.9 C 0 km/h
625 19-10-2007 07:13:02 6.8 C 6.04 g/m*3 6.8 C 0 km/h
Sensor: Nr:Datum:Temp:Abs-Feuchte:Windchill:Wind:
Aussen-T/F 626 19-10-2007 07:16:01 6.8 C 6.12 g/m*3 6.8 C 0 km/h
627 19-10-2007 07:19:01 6.8 C 6.12 g/m*3 6.8 C 0 km/h
628 19-10-2007 07:22:01 6.7 C 6.08 g/m*3 6.7 C 0 km/h
629 19-10-2007 07:25:01 6.7 C 6.15 g/m*3 6.7 C 0 km/h
630 19-10-2007 07:28:01 6.7 C 6.15 g/m*3 6.7 C 0 km/h
631 19-10-2007 07:31:01 6.7 C 6.15 g/m*3 6.7 C 0 km/h
632 19-10-2007 07:34:01 6.7 C 6.23 g/m*3 6.7 C 0 km/h
633 19-10-2007 07:37:01 6.7 C 6.23 g/m*3 6.7 C 0 km/h
634 19-10-2007 07:40:01 6.7 C 6.23 g/m*3 6.7 C 0 km/h
635 19-10-2007 07:43:01 6.7 C 6.23 g/m*3 6.7 C 0 km/h
636 19-10-2007 07:46:01 6.7 C 6.23 g/m*3 6.7 C 0 km/h
637 19-10-2007 07:49:01 6.8 C 6.27 g/m*3 6.8 C 0 km/h
638 19-10-2007 07:52:01 6.8 C 6.27 g/m*3 6.8 C 0 km/h
639 19-10-2007 07:55:02 6.8 C 6.27 g/m*3 6.8 C 0 km/h
640 19-10-2007 07:58:02 6.7 C 6.23 g/m*3 6.7 C 0 km/h
641 19-10-2007 08:01:01 6.6 C 6.19 g/m*3 6.6 C 0 km/h
642 19-10-2007 08:04:01 6.6 C 6.19 g/m*3 6.6 C 0 km/h
643 19-10-2007 08:07:01 6.5 C 6.22 g/m*3 6.5 C 0 km/h
644 19-10-2007 08:10:01 6.5 C 6.22 g/m*3 6.5 C 0 km/h
645 19-10-2007 08:13:01 6.5 C 6.22 g/m*3 6.5 C 0 km/h
646 19-10-2007 08:16:01 6.5 C 6.22 g/m*3 6.5 C 0 km/h
647 19-10-2007 08:19:01 6.5 C 6.3 g/m*3 6.5 C 0 km/h
648 19-10-2007 08:22:01 6.5 C 6.3 g/m*3 6.5 C 0 km/h
649 19-10-2007 08:25:01 6.5 C 6.3 g/m*3 6.5 C 0 km/h
650 19-10-2007 08:28:01 6.5 C 6.3 g/m*3 6.5 C 0 km/h
Sensor: Nr:Datum:Temp:Abs-Feuchte:Windchill:Wind:
Aussen-T/F 651 19-10-2007 08:31:01 6.5 C 6.3 g/m*3 6.5 C 0 km/h
652 19-10-2007 08:34:01 6.4 C 6.33 g/m*3 6.4 C 0 km/h
653 19-10-2007 08:37:01 6.4 C 6.33 g/m*3 6.4 C 0 km/h
654 19-10-2007 08:40:01 6.4 C 6.33 g/m*3 6.4 C 0 km/h
655 19-10-2007 08:43:01 6.3 C 6.29 g/m*3 6.3 C 0 km/h
656 19-10-2007 08:46:02 6.3 C 6.29 g/m*3 6.3 C 0 km/h
657 19-10-2007 08:49:02 6.3 C 6.37 g/m*3 6.3 C 0 km/h
658 19-10-2007 08:52:02 6.3 C 6.37 g/m*3 6.3 C 0 km/h
659 19-10-2007 08:55:02 6.3 C 6.37 g/m*3 6.3 C 0 km/h
660 19-10-2007 08:58:02 6.5 C 6.52 g/m*3 6.5 C 0 km/h
661 19-10-2007 09:01:02 6.5 C 6.52 g/m*3 6.5 C 0 km/h
662 19-10-2007 09:04:02 6.6 C 6.49 g/m*3 6.6 C 0 km/h
663 19-10-2007 09:07:02 6.7 C 6.53 g/m*3 6.7 C 0 km/h
664 19-10-2007 09:10:02 6.8 C 6.58 g/m*3 6.8 C 0 km/h
665 19-10-2007 09:13:02 6.9 C 6.54 g/m*3 6.9 C 0 km/h
666 19-10-2007 09:16:01 6.9 C 6.54 g/m*3 6.9 C 0 km/h
667 19-10-2007 09:19:01 7 C 6.43 g/m*3 7 C 0 km/h
668 19-10-2007 09:22:01 7.1 C 6.47 g/m*3 7.1 C 0 km/h
669 19-10-2007 09:25:02 7.3 C 6.48 g/m*3 7.3 C 0 km/h
670 19-10-2007 09:28:02 7.3 C 6.4 g/m*3 7.3 C 0 km/h
671 19-10-2007 09:31:01 7.5 C 6.48 g/m*3 7.5 C 0 km/h
672 19-10-2007 09:34:01 7.4 C 6.36 g/m*3 7.4 C 0 km/h
673 19-10-2007 09:37:02 7.4 C 6.36 g/m*3 7.4 C 0 km/h
674 19-10-2007 09:40:02 7.4 C 6.36 g/m*3 7.4 C 0 km/h
675 19-10-2007 09:43:02 7.5 C 6.4 g/m*3 7.5 C 0 km/h
Sensor: Nr:Datum:Temp:Abs-Feuchte:Windchill:Wind:
Aussen-T/F 676 19-10-2007 09:46:01 7.6 C 6.36 g/m*3 7.6 C 0 km/h
677 19-10-2007 09:49:02 7.7 C 6.41 g/m*3 7.7 C 0 km/h
678 19-10-2007 09:52:02 7.8 C 6.37 g/m*3 7.8 C 0 km/h
679 19-10-2007 09:55:02 7.8 C 6.37 g/m*3 7.8 C 0 km/h
680 19-10-2007 09:58:02 7.9 C 6.41 g/m*3 7.9 C 0 km/h
681 19-10-2007 10:01:01 7.9 C 6.41 g/m*3 7.9 C 0 km/h
682 19-10-2007 10:04:01 7.8 C 6.28 g/m*3 7.8 C 0 km/h
683 19-10-2007 10:07:01 7.8 C 6.28 g/m*3 7.8 C 0 km/h
684 19-10-2007 10:10:01 7.7 C 6.24 g/m*3 7.7 C 0 km/h
685 19-10-2007 10:13:01 7.8 C 6.37 g/m*3 7.8 C 0 km/h
686 19-10-2007 10:16:01 8 C 6.28 g/m*3 8 C 0 km/h
687 19-10-2007 10:19:01 8 C 6.2 g/m*3 8 C 0 km/h
688 19-10-2007 10:22:01 8.1 C 6.24 g/m*3 8.1 C 0 km/h
689 19-10-2007 10:25:01 8.2 C 6.28 g/m*3 8.2 C 0 km/h
690 19-10-2007 10:28:01 8.3 C 6.24 g/m*3 8.3 C 0 km/h
691 19-10-2007 10:31:03 8.3 C 6.24 g/m*3 8.3 C 0 km/h
692 19-10-2007 10:34:03 8.4 C 6.28 g/m*3 8.4 C 0 km/h
693 19-10-2007 10:37:03 8.4 C 6.19 g/m*3 8.4 C 0 km/h
694 19-10-2007 10:40:03 8.5 C 6.15 g/m*3 8.5 C 0 km/h
695 19-10-2007 10:43:03 8.6 C 6.1 g/m*3 8.6 C 0 km/h
696 19-10-2007 10:46:01 8.8 C 6.18 g/m*3 8.8 C 0 km/h
697 19-10-2007 10:49:01 8.9 C 6.13 g/m*3 8.9 C 0 km/h
698 19-10-2007 10:52:01 9 C 6.08 g/m*3 9 C 0 km/h
699 19-10-2007 10:55:01 9.1 C 6.12 g/m*3 9.1 C 0 km/h
700 19-10-2007 10:58:01 9.4 C 6.24 g/m*3 9.4 C 0 km/h
Sensor: Nr:Datum:Temp:Abs-Feuchte:Windchill:Wind:
Aussen-T/F 701 19-10-2007 11:01:02 9.4 C 6.15 g/m*3 9.4 C 0 km/h
702 19-10-2007 11:04:02 9.3 C 5.93 g/m*3 9.3 C 0 km/h
703 19-10-2007 11:07:02 9.4 C 5.97 g/m*3 9.4 C 0 km/h
704 19-10-2007 11:10:02 9.5 C 6.01 g/m*3 9.5 C 0 km/h
705 19-10-2007 11:13:02 9.4 C 5.97 g/m*3 9.4 C 0 km/h
706 19-10-2007 11:16:02 9.4 C 5.88 g/m*3 9.4 C 0 km/h
707 19-10-2007 11:19:02 9.5 C 5.92 g/m*3 9.5 C 0 km/h
708 19-10-2007 11:22:02 9.5 C 5.83 g/m*3 9.5 C 0 km/h
709 19-10-2007 11:25:02 9.7 C 5.99 g/m*3 9.7 C 0 km/h
710 19-10-2007 11:28:02 9.6 C 5.95 g/m*3 9.6 C 0 km/h
711 19-10-2007 11:31:01 9.5 C 5.83 g/m*3 9.5 C 0 km/h
712 19-10-2007 11:34:01 9.4 C 5.79 g/m*3 9.4 C 0 km/h
713 19-10-2007 11:37:01 9.5 C 5.92 g/m*3 9.5 C 0 km/h
714 19-10-2007 11:40:01 9.6 C 5.95 g/m*3 9.6 C 0 km/h
715 19-10-2007 11:43:01 9.7 C 5.99 g/m*3 9.7 C 0 km/h
716 19-10-2007 11:46:01 9.8 C 6.03 g/m*3 9.8 C 0 km/h
717 19-10-2007 11:49:01 9.9 C 6.16 g/m*3 9.9 C 0 km/h
718 19-10-2007 11:52:01 10.1 C 6.15 g/m*3 10.1 C 0 km/h
719 19-10-2007 11:55:01 10.1 C 6.15 g/m*3 10.1 C 0 km/h
720 19-10-2007 11:58:01 10.2 C 6 g/m*3 10.2 C 0 km/h
721 19-10-2007 12:01:01 9.8 C 5.75 g/m*3 9.8 C 0 km/h
722 19-10-2007 12:04:01 10 C 5.83 g/m*3 10 C 0 km/h
723 19-10-2007 12:07:01 10 C 5.83 g/m*3 10 C 0 km/h
724 19-10-2007 12:10:01 10.1 C 5.86 g/m*3 10.1 C 0 km/h
725 19-10-2007 12:13:01 10.1 C 5.86 g/m*3 10.1 C 0 km/h
Sensor: Nr:Datum:Temp:Abs-Feuchte:Windchill:Wind:
Aussen-T/F 726 19-10-2007 12:16:02 10.1 C 5.86 g/m*3 10.1 C 0 km/h
727 19-10-2007 12:19:02 10.1 C 5.77 g/m*3 10.1 C 0 km/h
728 19-10-2007 12:22:02 10 C 5.73 g/m*3 10 C 0 km/h
729 19-10-2007 12:25:02 9.8 C 5.75 g/m*3 9.8 C 0 km/h
730 19-10-2007 12:28:02 9.7 C 5.81 g/m*3 9.7 C 0 km/h
731 19-10-2007 12:31:01 9.7 C 5.81 g/m*3 9.7 C 0 km/h
732 19-10-2007 12:34:02 9.7 C 5.9 g/m*3 9.7 C 0 km/h
733 19-10-2007 12:37:02 9.6 C 5.86 g/m*3 9.6 C 0 km/h
734 19-10-2007 12:40:02 9.5 C 5.83 g/m*3 9.5 C 0 km/h
735 19-10-2007 12:43:02 9.5 C 5.83 g/m*3 9.5 C 0 km/h
736 19-10-2007 12:46:02 9.5 C 5.83 g/m*3 9.5 C 0 km/h
737 19-10-2007 12:49:02 9.5 C 5.83 g/m*3 9.5 C 0 km/h
738 19-10-2007 12:52:02 9.5 C 5.83 g/m*3 9.5 C 0 km/h
739 19-10-2007 12:55:02 9.7 C 5.99 g/m*3 9.7 C 0 km/h
740 19-10-2007 12:58:02 9.9 C 5.98 g/m*3 9.9 C 0 km/h
741 19-10-2007 13:01:02 10.1 C 5.96 g/m*3 10.1 C 0 km/h
742 19-10-2007 13:04:02 10.4 C 6.07 g/m*3 10.4 C 0 km/h
743 19-10-2007 13:07:02 10.5 C 6.01 g/m*3 10.5 C 0 km/h
744 19-10-2007 13:10:02 10.5 C 5.82 g/m*3 10.5 C 0 km/h
745 19-10-2007 13:13:02 10.5 C 5.72 g/m*3 10.5 C 0 km/h
746 19-10-2007 13:16:02 10.7 C 5.89 g/m*3 10.7 C 0 km/h
747 19-10-2007 13:19:02 10.5 C 5.72 g/m*3 10.5 C 0 km/h
748 19-10-2007 13:22:02 10.6 C 5.76 g/m*3 10.6 C 0 km/h
749 19-10-2007 13:25:02 10.5 C 5.63 g/m*3 10.5 C 0 km/h
750 19-10-2007 13:28:02 10.5 C 5.53 g/m*3 10.5 C 0 km/h
Sensor: Nr:Datum:Temp:Abs-Feuchte:Windchill:Wind:
Aussen-T/F 751 19-10-2007 13:31:02 10.4 C 5.4 g/m*3 10.4 C 0 km/h
752 19-10-2007 13:34:02 10.3 C 5.36 g/m*3 10.3 C 0 km/h
753 19-10-2007 13:37:02 10.3 C 5.36 g/m*3 10.3 C 0 km/h
754 19-10-2007 13:40:02 10.3 C 5.36 g/m*3 10.3 C 0 km/h
755 19-10-2007 13:43:02 10.4 C 5.49 g/m*3 10.4 C 0 km/h
756 19-10-2007 13:46:01 10.5 C 5.53 g/m*3 10.5 C 0 km/h
757 19-10-2007 13:49:01 10.5 C 5.53 g/m*3 10.5 C 0 km/h
758 19-10-2007 13:52:01 10.7 C 5.7 g/m*3 10.7 C 0 km/h
759 19-10-2007 13:55:01 10.7 C 5.4 g/m*3 10.7 C 0 km/h
760 19-10-2007 13:58:01 10.7 C 5.3 g/m*3 10.7 C 0 km/h
761 19-10-2007 14:01:02 10.6 C 5.37 g/m*3 10.6 C 0 km/h
762 19-10-2007 14:04:02 10.6 C 5.37 g/m*3 10.6 C 0 km/h
763 19-10-2007 14:07:02 10.6 C 5.37 g/m*3 10.6 C 0 km/h
764 19-10-2007 14:10:02 10.4 C 5.49 g/m*3 10.4 C 0 km/h
765 19-10-2007 14:13:02 10 C 5.45 g/m*3 10 C 0 km/h
766 19-10-2007 14:16:01 10.1 C 5.58 g/m*3 10.1 C 0 km/h
767 19-10-2007 14:19:01 10.1 C 5.58 g/m*3 10.1 C 0 km/h
768 19-10-2007 14:22:02 10 C 5.64 g/m*3 10 C 0 km/h
769 19-10-2007 14:25:02 10.1 C 5.67 g/m*3 10.1 C 0 km/h
770 19-10-2007 14:28:02 10.2 C 5.71 g/m*3 10.2 C 0 km/h
771 19-10-2007 14:31:01 10.2 C 5.71 g/m*3 10.2 C 0 km/h
772 19-10-2007 14:34:01 10.2 C 5.71 g/m*3 10.2 C 0 km/h
773 19-10-2007 14:37:01 10.6 C 5.66 g/m*3 10.6 C 0 km/h
774 19-10-2007 14:40:01 10.5 C 5.53 g/m*3 10.5 C 0 km/h
775 19-10-2007 14:43:01 10.5 C 5.53 g/m*3 10.5 C 0 km/h
Sensor: Nr:Datum:Temp:Abs-Feuchte:Windchill:Wind:
Aussen-T/F 776 19-10-2007 14:46:01 10.6 C 5.66 g/m*3 10.6 C 0 km/h
777 19-10-2007 14:49:01 10.6 C 5.66 g/m*3 10.6 C 0 km/h
778 19-10-2007 14:52:01 10.5 C 5.53 g/m*3 10.5 C 0 km/h
779 19-10-2007 14:55:01 10.5 C 5.53 g/m*3 10.5 C 0 km/h
780 19-10-2007 14:58:01 10.5 C 5.43 g/m*3 10.5 C 0 km/h
781 19-10-2007 15:01:01 10.5 C 5.43 g/m*3 10.5 C 0 km/h
782 19-10-2007 15:04:01 10.5 C 5.43 g/m*3 10.5 C 0 km/h
783 19-10-2007 15:07:01 10.4 C 5.49 g/m*3 10.4 C 0 km/h
784 19-10-2007 15:10:01 10.4 C 5.49 g/m*3 10.4 C 0 km/h
785 19-10-2007 15:13:01 10.4 C 5.49 g/m*3 10.4 C 0 km/h
786 19-10-2007 15:16:02 10.3 C 5.36 g/m*3 10.3 C 0 km/h
787 19-10-2007 15:19:02 10.3 C 5.36 g/m*3 10.3 C 0 km/h
788 19-10-2007 15:22:02 10.2 C 5.52 g/m*3 10.2 C 0 km/h
789 19-10-2007 15:25:02 10.2 C 5.52 g/m*3 10.2 C 0 km/h
790 19-10-2007 15:28:02 10.2 C 5.52 g/m*3 10.2 C 0 km/h
791 19-10-2007 15:31:02 10.1 C 5.77 g/m*3 10.1 C 0 km/h
792 19-10-2007 15:34:02 10.2 C 6 g/m*3 10.2 C 0 km/h
793 19-10-2007 15:37:02 10.2 C 5.9 g/m*3 10.2 C 0 km/h
794 19-10-2007 15:40:02 10.4 C 5.98 g/m*3 10.4 C 0 km/h
795 19-10-2007 15:43:02 10.5 C 5.92 g/m*3 10.5 C 0 km/h
796 19-10-2007 15:46:02 10.5 C 5.92 g/m*3 10.5 C 0 km/h
797 19-10-2007 15:49:02 10.9 C 5.87 g/m*3 10.9 C 0 km/h
798 19-10-2007 15:52:02 11.1 C 5.64 g/m*3 11.1 C 0 km/h
799 19-10-2007 15:55:02 11.2 C 5.68 g/m*3 11.2 C 0 km/h
800 19-10-2007 15:58:02 11.2 C 5.68 g/m*3 11.2 C 0 km/h
Sensor: Nr:Datum:Temp:Abs-Feuchte:Windchill:Wind:
Aussen-T/F 801 19-10-2007 16:01:02 11.2 C 5.78 g/m*3 11.2 C 0 km/h
802 19-10-2007 16:04:02 11.2 C 5.68 g/m*3 11.2 C 0 km/h
803 19-10-2007 16:07:02 11.1 C 5.64 g/m*3 11.1 C 0 km/h
804 19-10-2007 16:10:02 11 C 5.71 g/m*3 11 C 0 km/h
805 19-10-2007 16:13:02 10.9 C 5.77 g/m*3 10.9 C 0 km/h
806 19-10-2007 16:16:02 10.7 C 5.6 g/m*3 10.7 C 0 km/h
807 19-10-2007 16:19:02 10.6 C 5.56 g/m*3 10.6 C 0 km/h
808 19-10-2007 16:22:02 10.4 C 5.59 g/m*3 10.4 C 0 km/h
809 19-10-2007 16:25:02 10.1 C 5.67 g/m*3 10.1 C 0 km/h
810 19-10-2007 16:28:02 9.6 C 5.68 g/m*3 9.6 C 0 km/h
811 19-10-2007 16:31:02 9.3 C 5.75 g/m*3 9.3 C 0 km/h
812 19-10-2007 16:34:02 9.1 C 6.03 g/m*3 9.1 C 0 km/h
813 19-10-2007 16:37:02 9 C 6.17 g/m*3 9 C 0 km/h
814 19-10-2007 16:40:02 9 C 6.26 g/m*3 9 C 0 km/h
815 19-10-2007 16:43:02 8.8 C 6.27 g/m*3 8.8 C 0 km/h
816 19-10-2007 16:46:02 8.8 C 6.35 g/m*3 8.8 C 0 km/h
817 19-10-2007 16:49:02 8.8 C 6.27 g/m*3 8.8 C 0 km/h
818 19-10-2007 16:52:02 8.6 C 6.27 g/m*3 8.6 C 0 km/h
819 19-10-2007 16:55:02 8.7 C 6.31 g/m*3 8.7 C 0 km/h
820 19-10-2007 16:58:02 8.7 C 6.23 g/m*3 8.7 C 0 km/h
821 19-10-2007 17:01:01 8.5 C 6.15 g/m*3 8.5 C 0 km/h
822 19-10-2007 17:04:01 8.5 C 6.15 g/m*3 8.5 C 0 km/h
823 19-10-2007 17:07:01 8.5 C 6.15 g/m*3 8.5 C 0 km/h
824 19-10-2007 17:10:01 8.4 C 6.11 g/m*3 8.4 C 0 km/h
825 19-10-2007 17:13:02 8.4 C 6.02 g/m*3 8.4 C 0 km/h
Sensor: Nr:Datum:Temp:Abs-Feuchte:Windchill:Wind:
Aussen-T/F 826 19-10-2007 17:16:01 8.3 C 6.07 g/m*3 8.3 C 0 km/h
827 19-10-2007 17:19:01 8.5 C 6.23 g/m*3 8.5 C 0 km/h
828 19-10-2007 17:22:01 8.7 C 6.31 g/m*3 8.7 C 0 km/h
829 19-10-2007 17:25:01 9 C 6.35 g/m*3 9 C 0 km/h
830 19-10-2007 17:28:01 9.3 C 6.38 g/m*3 9.3 C 0 km/h
831 19-10-2007 17:31:02 9.4 C 6.42 g/m*3 9.4 C 0 km/h
832 19-10-2007 17:34:02 9.5 C 6.46 g/m*3 9.5 C 0 km/h
833 19-10-2007 17:37:02 9.4 C 6.24 g/m*3 9.4 C 0 km/h
834 19-10-2007 17:40:02 9.2 C 6.07 g/m*3 9.2 C 0 km/h
835 19-10-2007 17:43:02 9.1 C 6.12 g/m*3 9.1 C 0 km/h
836 19-10-2007 17:46:02 9 C 6.08 g/m*3 9 C 0 km/h
837 19-10-2007 17:49:02 9 C 6.08 g/m*3 9 C 0 km/h
838 19-10-2007 17:52:02 8.9 C 6.04 g/m*3 8.9 C 0 km/h
839 19-10-2007 17:55:02 8.9 C 6.04 g/m*3 8.9 C 0 km/h
840 19-10-2007 17:58:02 8.9 C 5.96 g/m*3 8.9 C 0 km/h
841 19-10-2007 18:01:01 8.8 C 6.01 g/m*3 8.8 C 0 km/h
842 19-10-2007 18:04:01 8.7 C 5.97 g/m*3 8.7 C 0 km/h
843 19-10-2007 18:07:02 8.6 C 5.93 g/m*3 8.6 C 0 km/h
844 19-10-2007 18:10:02 8.5 C 5.81 g/m*3 8.5 C 0 km/h
845 19-10-2007 18:13:02 8.4 C 5.85 g/m*3 8.4 C 0 km/h
846 19-10-2007 18:16:01 8.3 C 5.82 g/m*3 8.3 C 0 km/h
847 19-10-2007 18:19:01 8.2 C 5.78 g/m*3 8.2 C 0 km/h
848 19-10-2007 18:22:01 8.2 C 5.78 g/m*3 8.2 C 0 km/h
849 19-10-2007 18:25:01 8.2 C 5.78 g/m*3 8.2 C 0 km/h
850 19-10-2007 18:28:01 8.1 C 5.74 g/m*3 8.1 C 0 km/h
Sensor: Nr:Datum:Temp:Abs-Feuchte:Windchill:Wind:
Aussen-T/F 851 19-10-2007 18:31:02 8.1 C 5.82 g/m*3 8.1 C 0 km/h
852 19-10-2007 18:34:02 8 C 5.87 g/m*3 8 C 0 km/h
853 19-10-2007 18:37:02 7.9 C 5.91 g/m*3 7.9 C 0 km/h
854 19-10-2007 18:40:02 7.8 C 5.88 g/m*3 7.8 C 0 km/h
855 19-10-2007 18:43:02 7.7 C 5.84 g/m*3 7.7 C 0 km/h
856 19-10-2007 18:46:01 7.7 C 5.84 g/m*3 7.7 C 0 km/h
857 19-10-2007 18:49:01 7.5 C 5.84 g/m*3 7.5 C 0 km/h
858 19-10-2007 18:52:01 7.5 C 5.92 g/m*3 7.5 C 0 km/h
859 19-10-2007 18:55:01 7.5 C 5.92 g/m*3 7.5 C 0 km/h
860 19-10-2007 18:58:01 7.5 C 5.92 g/m*3 7.5 C 0 km/h
861 19-10-2007 19:01:02 7.5 C 5.92 g/m*3 7.5 C 0 km/h
862 19-10-2007 19:04:02 7.5 C 6 g/m*3 7.5 C 0 km/h
863 19-10-2007 19:07:02 7.3 C 5.93 g/m*3 7.3 C 0 km/h
864 19-10-2007 19:10:02 7.2 C 5.97 g/m*3 7.2 C 0 km/h
865 19-10-2007 19:13:02 7.1 C 5.93 g/m*3 7.1 C 0 km/h
866 19-10-2007 19:16:01 7.1 C 5.93 g/m*3 7.1 C 0 km/h
867 19-10-2007 19:19:02 7.1 C 6.01 g/m*3 7.1 C 0 km/h
868 19-10-2007 19:22:02 7 C 5.97 g/m*3 7 C 0 km/h
869 19-10-2007 19:25:02 6.9 C 6 g/m*3 6.9 C 0 km/h
870 19-10-2007 19:28:02 6.9 C 6 g/m*3 6.9 C 0 km/h
871 19-10-2007 19:31:02 6.8 C 6.04 g/m*3 6.8 C 0 km/h
872 19-10-2007 19:34:02 6.8 C 6.04 g/m*3 6.8 C 0 km/h
873 19-10-2007 19:37:02 6.8 C 6.04 g/m*3 6.8 C 0 km/h
874 19-10-2007 19:40:02 6.7 C 6 g/m*3 6.7 C 0 km/h
875 19-10-2007 19:43:02 6.7 C 6 g/m*3 6.7 C 0 km/h
Sensor: Nr:Datum:Temp:Abs-Feuchte:Windchill:Wind:
Aussen-T/F 876 19-10-2007 19:46:02 6.6 C 5.96 g/m*3 6.6 C 0 km/h
877 19-10-2007 19:49:02 6.5 C 5.92 g/m*3 6.5 C 0 km/h
878 19-10-2007 19:52:02 6.4 C 5.96 g/m*3 6.4 C 0 km/h
879 19-10-2007 19:55:02 6.4 C 5.96 g/m*3 6.4 C 0 km/h
880 19-10-2007 19:58:02 6.3 C 5.92 g/m*3 6.3 C 0 km/h
881 19-10-2007 20:01:01 6.2 C 5.88 g/m*3 6.2 C 0 km/h
882 19-10-2007 20:04:01 6.1 C 5.84 g/m*3 6.1 C 0 km/h
883 19-10-2007 20:07:01 6 C 5.81 g/m*3 6 C 0 km/h
884 19-10-2007 20:10:01 6 C 5.81 g/m*3 6 C 0 km/h
885 19-10-2007 20:13:01 5.9 C 5.84 g/m*3 5.9 C 0 km/h
886 19-10-2007 20:16:01 5.9 C 5.84 g/m*3 5.9 C 0 km/h
887 19-10-2007 20:19:01 5.8 C 5.87 g/m*3 5.8 C 0 km/h
888 19-10-2007 20:22:01 5.8 C 5.87 g/m*3 5.8 C 0 km/h
889 19-10-2007 20:25:01 5.8 C 5.87 g/m*3 5.8 C 0 km/h
890 19-10-2007 20:28:01 5.8 C 5.87 g/m*3 5.8 C 0 km/h
891 19-10-2007 20:31:03 5.8 C 5.87 g/m*3 5.8 C 0 km/h
892 19-10-2007 20:34:03 5.7 C 5.84 g/m*3 5.7 C 0 km/h
893 19-10-2007 20:37:03 5.7 C 5.84 g/m*3 5.7 C 0 km/h
894 19-10-2007 20:40:03 5.6 C 5.87 g/m*3 5.6 C 0 km/h
895 19-10-2007 20:43:03 5.6 C 5.87 g/m*3 5.6 C 0 km/h
896 19-10-2007 20:46:02 5.6 C 5.87 g/m*3 5.6 C 0 km/h
897 19-10-2007 20:49:02 5.4 C 5.79 g/m*3 5.4 C 0 km/h
898 19-10-2007 20:52:02 5.4 C 5.79 g/m*3 5.4 C 0 km/h
899 19-10-2007 20:55:02 5.3 C 5.75 g/m*3 5.3 C 0 km/h
900 19-10-2007 20:58:02 5.3 C 5.75 g/m*3 5.3 C 0 km/h
Sensor: Nr:Datum:Temp:Abs-Feuchte:Windchill:Wind:
Aussen-T/F 901 19-10-2007 21:01:01 5.2 C 5.71 g/m*3 5.2 C 0 km/h
902 19-10-2007 21:04:02 5.2 C 5.71 g/m*3 5.2 C 0 km/h
903 19-10-2007 21:07:02 5.2 C 5.78 g/m*3 5.2 C 0 km/h
904 19-10-2007 21:10:02 5.2 C 5.78 g/m*3 5.2 C 0 km/h
905 19-10-2007 21:13:02 5.2 C 5.78 g/m*3 5.2 C 0 km/h
906 19-10-2007 21:16:02 5.2 C 5.85 g/m*3 5.2 C 0 km/h
907 19-10-2007 21:19:02 5.2 C 5.85 g/m*3 5.2 C 0 km/h
908 19-10-2007 21:22:02 5.2 C 5.85 g/m*3 5.2 C 0 km/h
909 19-10-2007 21:25:02 5.3 C 5.96 g/m*3 5.3 C 0 km/h
910 19-10-2007 21:28:02 5.3 C 5.96 g/m*3 5.3 C 0 km/h
911 19-10-2007 21:31:01 5.3 C 5.96 g/m*3 5.3 C 0 km/h
912 19-10-2007 21:34:01 5.3 C 5.96 g/m*3 5.3 C 0 km/h
913 19-10-2007 21:37:01 5.4 C 6.07 g/m*3 5.4 C 0 km/h
914 19-10-2007 21:40:02 5.4 C 6.07 g/m*3 5.4 C 0 km/h
915 19-10-2007 21:43:02 5.4 C 6.07 g/m*3 5.4 C 0 km/h
916 19-10-2007 21:46:01 5.4 C 6.07 g/m*3 5.4 C 0 km/h
917 19-10-2007 21:49:01 5.5 C 6.11 g/m*3 5.5 C 0 km/h
918 19-10-2007 21:52:01 5.6 C 6.15 g/m*3 5.6 C 0 km/h
919 19-10-2007 21:55:02 5.6 C 6.15 g/m*3 5.6 C 0 km/h
920 19-10-2007 21:58:02 5.7 C 6.19 g/m*3 5.7 C 0 km/h
921 19-10-2007 22:01:01 5.7 C 6.19 g/m*3 5.7 C 0 km/h
922 19-10-2007 22:04:01 5.8 C 6.23 g/m*3 5.8 C 0 km/h
923 19-10-2007 22:07:01 5.9 C 6.27 g/m*3 5.9 C 0 km/h
924 19-10-2007 22:10:02 5.9 C 6.27 g/m*3 5.9 C 0 km/h
925 19-10-2007 22:13:02 5.9 C 6.27 g/m*3 5.9 C 0 km/h
Sensor: Nr:Datum:Temp:Abs-Feuchte:Windchill:Wind:
Aussen-T/F 926 19-10-2007 22:16:01 5.9 C 6.27 g/m*3 5.9 C 0 km/h
927 19-10-2007 22:19:02 6 C 6.24 g/m*3 6 C 0 km/h
928 19-10-2007 22:22:02 6 C 6.24 g/m*3 6 C 0 km/h
929 19-10-2007 22:25:02 6 C 6.24 g/m*3 6 C 0 km/h
930 19-10-2007 22:28:02 6 C 6.24 g/m*3 6 C 0 km/h
931 19-10-2007 22:31:01 6 C 6.24 g/m*3 6 C 0 km/h
932 19-10-2007 22:34:01 6 C 6.24 g/m*3 6 C 0 km/h
933 19-10-2007 22:37:01 6 C 6.24 g/m*3 6 C 0 km/h
934 19-10-2007 22:40:01 6 C 6.24 g/m*3 6 C 0 km/h
935 19-10-2007 22:43:01 6.1 C 6.28 g/m*3 6.1 C 0 km/h
936 19-10-2007 22:46:02 6.1 C 6.28 g/m*3 6.1 C 0 km/h
937 19-10-2007 22:49:02 6.1 C 6.28 g/m*3 6.1 C 0 km/h
938 19-10-2007 22:52:02 6.1 C 6.28 g/m*3 6.1 C 0 km/h
939 19-10-2007 22:55:02 6.1 C 6.28 g/m*3 6.1 C 0 km/h
940 19-10-2007 22:58:02 6.1 C 6.28 g/m*3 6.1 C 0 km/h
941 19-10-2007 23:01:01 6.1 C 6.28 g/m*3 6.1 C 0 km/h
942 19-10-2007 23:04:01 6.1 C 6.28 g/m*3 6.1 C 0 km/h
943 19-10-2007 23:07:01 6.1 C 6.28 g/m*3 6.1 C 0 km/h
944 19-10-2007 23:10:01 6.1 C 6.28 g/m*3 6.1 C 0 km/h
945 19-10-2007 23:13:01 6.1 C 6.28 g/m*3 6.1 C 0 km/h
946 19-10-2007 23:16:01 6.1 C 6.28 g/m*3 6.1 C 0 km/h
947 19-10-2007 23:19:01 6.1 C 6.28 g/m*3 6.1 C 0 km/h
948 19-10-2007 23:22:01 6.1 C 6.28 g/m*3 6.1 C 0 km/h
949 19-10-2007 23:25:01 6.1 C 6.28 g/m*3 6.1 C 0 km/h
950 19-10-2007 23:28:01 6.2 C 6.32 g/m*3 6.2 C 0 km/h
Sensor: Nr:Datum:Temp:Abs-Feuchte:Windchill:Wind:
Aussen-T/F 951 19-10-2007 23:31:02 6.2 C 6.32 g/m*3 6.2 C 0 km/h
952 19-10-2007 23:34:02 6.2 C 6.32 g/m*3 6.2 C 0 km/h
953 19-10-2007 23:37:02 6.2 C 6.32 g/m*3 6.2 C 0 km/h
954 19-10-2007 23:40:02 6.2 C 6.32 g/m*3 6.2 C 0 km/h
955 19-10-2007 23:43:02 6.2 C 6.32 g/m*3 6.2 C 0 km/h
956 19-10-2007 23:46:02 6.2 C 6.32 g/m*3 6.2 C 0 km/h
957 19-10-2007 23:49:02 6.2 C 6.32 g/m*3 6.2 C 0 km/h
958 19-10-2007 23:52:02 6.1 C 6.28 g/m*3 6.1 C 0 km/h
959 19-10-2007 23:55:02 6.1 C 6.28 g/m*3 6.1 C 0 km/h
960 19-10-2007 23:58:02 6 C 6.24 g/m*3 6 C 0 km/h
961 20-10-2007 00:01:02 6 C 6.24 g/m*3 6 C 0 km/h
962 20-10-2007 00:04:02 5.9 C 6.27 g/m*3 5.9 C 0 km/h
963 20-10-2007 00:07:02 5.8 C 6.23 g/m*3 5.8 C 0 km/h
964 20-10-2007 00:10:02 5.7 C 6.19 g/m*3 5.7 C 0 km/h
965 20-10-2007 00:13:02 5.6 C 6.15 g/m*3 5.6 C 0 km/h
966 20-10-2007 00:16:02 5.5 C 6.11 g/m*3 5.5 C 0 km/h
967 20-10-2007 00:19:02 5.4 C 6.07 g/m*3 5.4 C 0 km/h
968 20-10-2007 00:22:02 5.4 C 6.07 g/m*3 5.4 C 0 km/h
969 20-10-2007 00:25:02 5.3 C 6.03 g/m*3 5.3 C 0 km/h
970 20-10-2007 00:28:02 5.2 C 5.99 g/m*3 5.2 C 0 km/h
971 20-10-2007 00:31:01 5.1 C 5.95 g/m*3 5.1 C 0 km/h
972 20-10-2007 00:34:01 5.1 C 5.95 g/m*3 5.1 C 0 km/h
973 20-10-2007 00:37:01 4.9 C 5.94 g/m*3 4.9 C 0 km/h
974 20-10-2007 00:40:01 4.8 C 5.9 g/m*3 4.8 C 0 km/h
975 20-10-2007 00:43:01 4.7 C 5.86 g/m*3 4.7 C 0 km/h
Sensor: Nr:Datum:Temp:Abs-Feuchte:Windchill:Wind:
Aussen-T/F 976 20-10-2007 00:46:01 4.6 C 5.82 g/m*3 4.6 C 0 km/h
977 20-10-2007 00:49:01 4.6 C 5.82 g/m*3 4.6 C 0 km/h
978 20-10-2007 00:52:01 4.6 C 5.82 g/m*3 4.6 C 0 km/h
979 20-10-2007 00:55:01 4.6 C 5.82 g/m*3 4.6 C 0 km/h
980 20-10-2007 00:58:01 4.6 C 5.82 g/m*3 4.6 C 0 km/h
981 20-10-2007 01:01:02 4.6 C 5.89 g/m*3 4.6 C 0 km/h
982 20-10-2007 01:04:02 4.6 C 5.89 g/m*3 4.6 C 0 km/h
983 20-10-2007 01:07:02 4.5 C 5.85 g/m*3 4.5 C 0 km/h
984 20-10-2007 01:10:02 4.5 C 5.85 g/m*3 4.5 C 0 km/h
985 20-10-2007 01:13:02 4.4 C 5.81 g/m*3 4.4 C 0 km/h
986 20-10-2007 01:16:02 4.4 C 5.81 g/m*3 4.4 C 0 km/h
987 20-10-2007 01:19:02 4.4 C 5.81 g/m*3 4.4 C 0 km/h
988 20-10-2007 01:22:02 4.4 C 5.81 g/m*3 4.4 C 0 km/h
989 20-10-2007 01:25:02 4.3 C 5.84 g/m*3 4.3 C 0 km/h
990 20-10-2007 01:28:02 4.3 C 5.84 g/m*3 4.3 C 0 km/h
991 20-10-2007 01:31:01 4.3 C 5.84 g/m*3 4.3 C 0 km/h
992 20-10-2007 01:34:01 4.3 C 5.84 g/m*3 4.3 C 0 km/h
993 20-10-2007 01:37:01 4.3 C 5.84 g/m*3 4.3 C 0 km/h
994 20-10-2007 01:40:01 4.2 C 5.8 g/m*3 4.2 C 0 km/h
995 20-10-2007 01:43:01 4.2 C 5.8 g/m*3 4.2 C 0 km/h
996 20-10-2007 01:46:01 4.2 C 5.8 g/m*3 4.2 C 0 km/h
997 20-10-2007 01:49:01 4.1 C 5.76 g/m*3 4.1 C 0 km/h
998 20-10-2007 01:52:01 4 C 5.72 g/m*3 4 C 0 km/h
999 20-10-2007 01:55:01 4 C 5.72 g/m*3 4 C 0 km/h
1000 20-10-2007 01:58:02 3.9 C 5.75 g/m*3 3.9 C 0 km/h
Sensor: Nr:Datum:Temp:Abs-Feuchte:Windchill:Wind:
Aussen-T/F 1001 20-10-2007 02:01:01 3.9 C 5.75 g/m*3 3.9 C 0 km/h
1002 20-10-2007 02:04:01 3.9 C 5.75 g/m*3 3.9 C 0 km/h
1003 20-10-2007 02:07:01 3.8 C 5.71 g/m*3 3.8 C 0 km/h
1004 20-10-2007 02:10:01 3.7 C 5.67 g/m*3 3.7 C 0 km/h
1005 20-10-2007 02:13:01 3.6 C 5.63 g/m*3 3.6 C 0 km/h
1006 20-10-2007 02:16:02 3.7 C 5.67 g/m*3 3.7 C 0 km/h
1007 20-10-2007 02:19:02 3.6 C 5.63 g/m*3 3.6 C 0 km/h
1008 20-10-2007 02:22:02 3.7 C 5.67 g/m*3 3.7 C 0 km/h
1009 20-10-2007 02:25:02 3.6 C 5.63 g/m*3 3.6 C 0 km/h
1010 20-10-2007 02:28:02 3.6 C 5.63 g/m*3 3.6 C 0 km/h
1011 20-10-2007 02:31:02 3.6 C 5.63 g/m*3 3.6 C 0 km/h
1012 20-10-2007 02:34:02 3.5 C 5.6 g/m*3 3.5 C 0 km/h
1013 20-10-2007 02:37:02 3.5 C 5.6 g/m*3 3.5 C 0 km/h
1014 20-10-2007 02:40:02 3.5 C 5.6 g/m*3 3.5 C 0 km/h
1015 20-10-2007 02:43:02 3.4 C 5.56 g/m*3 3.4 C 0 km/h
1016 20-10-2007 02:46:02 3.3 C 5.52 g/m*3 3.3 C 0 km/h
1017 20-10-2007 02:49:02 3.2 C 5.48 g/m*3 3.2 C 0 km/h
1018 20-10-2007 02:52:02 3.3 C 5.52 g/m*3 3.3 C 0 km/h
1019 20-10-2007 02:55:02 3.3 C 5.52 g/m*3 3.3 C 0 km/h
1020 20-10-2007 02:58:02 3.2 C 5.48 g/m*3 3.2 C 0 km/h
1021 20-10-2007 03:01:02 3.2 C 5.48 g/m*3 3.2 C 0 km/h
1022 20-10-2007 03:04:02 3.2 C 5.48 g/m*3 3.2 C 0 km/h
1023 20-10-2007 03:07:02 3.2 C 5.48 g/m*3 3.2 C 0 km/h
1024 20-10-2007 03:10:02 3.2 C 5.54 g/m*3 3.2 C 0 km/h
1025 20-10-2007 03:13:02 3.2 C 5.54 g/m*3 3.2 C 0 km/h
Sensor: Nr:Datum:Temp:Abs-Feuchte:Windchill:Wind:
Aussen-T/F 1026 20-10-2007 03:16:02 3.2 C 5.54 g/m*3 3.2 C 0 km/h
1027 20-10-2007 03:19:02 3.1 C 5.51 g/m*3 3.1 C 0 km/h
1028 20-10-2007 03:22:02 3.1 C 5.51 g/m*3 3.1 C 0 km/h
1029 20-10-2007 03:25:02 3.1 C 5.51 g/m*3 3.1 C 0 km/h
1030 20-10-2007 03:28:02 3.1 C 5.51 g/m*3 3.1 C 0 km/h
1031 20-10-2007 03:31:02 3.1 C 5.51 g/m*3 3.1 C 0 km/h
1032 20-10-2007 03:34:02 3 C 5.47 g/m*3 3 C 0 km/h
1033 20-10-2007 03:37:02 3 C 5.47 g/m*3 3 C 0 km/h
1034 20-10-2007 03:40:02 2.9 C 5.43 g/m*3 2.9 C 0 km/h
1035 20-10-2007 03:43:02 2.9 C 5.43 g/m*3 2.9 C 0 km/h
1036 20-10-2007 03:46:02 2.9 C 5.43 g/m*3 2.9 C 0 km/h
1037 20-10-2007 03:49:02 2.9 C 5.43 g/m*3 2.9 C 0 km/h
1038 20-10-2007 03:52:02 2.8 C 5.4 g/m*3 2.8 C 0 km/h
1039 20-10-2007 03:55:02 2.8 C 5.4 g/m*3 2.8 C 0 km/h
1040 20-10-2007 03:58:02 2.8 C 5.4 g/m*3 2.8 C 0 km/h
1041 20-10-2007 04:01:02 2.8 C 5.4 g/m*3 2.8 C 0 km/h
1042 20-10-2007 04:04:02 2.8 C 5.4 g/m*3 2.8 C 0 km/h
1043 20-10-2007 04:07:02 2.6 C 5.32 g/m*3 2.6 C 0 km/h
1044 20-10-2007 04:10:02 2.6 C 5.32 g/m*3 2.6 C 0 km/h
1045 20-10-2007 04:13:02 2.6 C 5.32 g/m*3 2.6 C 0 km/h
1046 20-10-2007 04:16:02 2.5 C 5.29 g/m*3 2.5 C 0 km/h
1047 20-10-2007 04:19:02 2.5 C 5.29 g/m*3 2.5 C 0 km/h
1048 20-10-2007 04:22:02 2.5 C 5.29 g/m*3 2.5 C 0 km/h
1049 20-10-2007 04:25:02 2.4 C 5.25 g/m*3 2.4 C 0 km/h
1050 20-10-2007 04:28:02 2.4 C 5.25 g/m*3 2.4 C 0 km/h
Sensor: Nr:Datum:Temp:Abs-Feuchte:Windchill:Wind:
Aussen-T/F 1051 20-10-2007 04:31:01 2.4 C 5.25 g/m*3 2.4 C 0 km/h
1052 20-10-2007 04:34:01 2.4 C 5.25 g/m*3 2.4 C 0 km/h
1053 20-10-2007 04:37:01 2.3 C 5.22 g/m*3 2.3 C 0 km/h
1054 20-10-2007 04:40:02 2.2 C 5.18 g/m*3 2.2 C 0 km/h
1055 20-10-2007 04:43:02 2.2 C 5.18 g/m*3 2.2 C 0 km/h
1056 20-10-2007 04:46:02 2.1 C 5.15 g/m*3 2.1 C 0 km/h
1057 20-10-2007 04:49:02 2.1 C 5.15 g/m*3 2.1 C 0 km/h
1058 20-10-2007 04:52:02 2.1 C 5.15 g/m*3 2.1 C 0 km/h
1059 20-10-2007 04:55:02 2 C 5.11 g/m*3 2 C 0 km/h
1060 20-10-2007 04:58:02 2 C 5.11 g/m*3 2 C 0 km/h
1061 20-10-2007 05:01:01 1.9 C 5.13 g/m*3 1.9 C 0 km/h
1062 20-10-2007 05:04:01 1.9 C 5.13 g/m*3 1.9 C 0 km/h
1063 20-10-2007 05:07:01 1.9 C 5.13 g/m*3 1.9 C 0 km/h
1064 20-10-2007 05:10:02 1.9 C 5.13 g/m*3 1.9 C 0 km/h
1065 20-10-2007 05:13:02 1.9 C 5.13 g/m*3 1.9 C 0 km/h
1066 20-10-2007 05:16:01 2 C 5.17 g/m*3 2 C 0 km/h
1067 20-10-2007 05:19:01 2 C 5.17 g/m*3 2 C 0 km/h
1068 20-10-2007 05:22:01 2 C 5.17 g/m*3 2 C 0 km/h
1069 20-10-2007 05:25:01 2 C 5.17 g/m*3 2 C 0 km/h
1070 20-10-2007 05:28:01 2 C 5.17 g/m*3 2 C 0 km/h
1071 20-10-2007 05:31:02 2 C 5.17 g/m*3 2 C 0 km/h
1072 20-10-2007 05:34:02 2 C 5.17 g/m*3 2 C 0 km/h
1073 20-10-2007 05:37:02 2 C 5.17 g/m*3 2 C 0 km/h
1074 20-10-2007 05:40:02 2 C 5.17 g/m*3 2 C 0 km/h
1075 20-10-2007 05:43:02 1.9 C 5.13 g/m*3 1.9 C 0 km/h
Sensor: Nr:Datum:Temp:Abs-Feuchte:Windchill:Wind:
Aussen-T/F 1076 20-10-2007 05:46:03 1.8 C 5.1 g/m*3 1.8 C 0 km/h
1077 20-10-2007 05:49:03 1.8 C 5.1 g/m*3 1.8 C 0 km/h
1078 20-10-2007 05:52:04 1.7 C 5.06 g/m*3 1.7 C 0 km/h
1079 20-10-2007 05:55:04 1.6 C 5.03 g/m*3 1.6 C 0 km/h
1080 20-10-2007 05:58:04 1.6 C 5.03 g/m*3 1.6 C 0 km/h
1081 24-10-2007 13:22:02 8 C 5.37 g/m*3 8 C 0 km/h
1082 24-10-2007 13:25:02 8 C 5.37 g/m*3 8 C 0 km/h
1083 24-10-2007 13:28:02 8 C 5.37 g/m*3 8 C 0 km/h
1084 24-10-2007 13:31:02 8 C 5.37 g/m*3 8 C 0 km/h
1085 24-10-2007 13:34:02 8 C 5.46 g/m*3 8 C 0 km/h
1086 24-10-2007 13:37:02 7.9 C 5.5 g/m*3 7.9 C 0 km/h
1087 24-10-2007 13:40:02 7.9 C 5.42 g/m*3 7.9 C 0 km/h
1088 24-10-2007 13:43:02 7.9 C 5.42 g/m*3 7.9 C 0 km/h
1089 24-10-2007 13:46:02 7.9 C 5.5 g/m*3 7.9 C 0 km/h
1090 24-10-2007 13:49:02 7.9 C 5.42 g/m*3 7.9 C 0 km/h
1091 24-10-2007 13:52:02 7.9 C 5.42 g/m*3 7.9 C 0 km/h
1092 24-10-2007 13:55:03 7.9 C 5.5 g/m*3 7.9 C 0 km/h
1093 24-10-2007 13:58:03 7.9 C 5.5 g/m*3 7.9 C 0 km/h
1094 24-10-2007 14:01:03 7.9 C 5.5 g/m*3 7.9 C 0 km/h
1095 24-10-2007 14:04:03 7.8 C 5.47 g/m*3 7.8 C 0 km/h
1096 24-10-2007 14:07:03 7.8 C 5.47 g/m*3 7.8 C 0 km/h
1097 24-10-2007 14:10:03 7.8 C 5.47 g/m*3 7.8 C 0 km/h
1098 24-10-2007 14:13:03 7.8 C 5.47 g/m*3 7.8 C 0 km/h
1099 24-10-2007 14:16:03 7.8 C 5.47 g/m*3 7.8 C 0 km/h
1100 24-10-2007 14:19:03 7.8 C 5.47 g/m*3 7.8 C 0 km/h
Sensor: Nr:Datum:Temp:Abs-Feuchte:Windchill:Wind:
Aussen-T/F 1101 24-10-2007 14:22:03 7.8 C 5.47 g/m*3 7.8 C 0 km/h
1102 24-10-2007 14:25:03 7.9 C 5.5 g/m*3 7.9 C 0 km/h
1103 24-10-2007 14:28:03 7.9 C 5.42 g/m*3 7.9 C 0 km/h
1104 24-10-2007 14:31:03 8 C 5.37 g/m*3 8 C 0 km/h
1105 24-10-2007 14:34:03 8 C 5.37 g/m*3 8 C 0 km/h
1106 24-10-2007 14:37:03 8.1 C 5.41 g/m*3 8.1 C 0 km/h
1107 24-10-2007 14:40:03 8.1 C 5.41 g/m*3 8.1 C 0 km/h
1108 24-10-2007 14:43:03 8.1 C 5.41 g/m*3 8.1 C 0 km/h
1109 24-10-2007 14:46:03 8.1 C 5.33 g/m*3 8.1 C 0 km/h
1110 24-10-2007 14:49:03 8.2 C 5.44 g/m*3 8.2 C 0 km/h
1111 24-10-2007 14:52:03 8.2 C 5.44 g/m*3 8.2 C 0 km/h
1112 24-10-2007 14:55:04 8.1 C 5.41 g/m*3 8.1 C 0 km/h
1113 24-10-2007 14:58:04 8.2 C 5.44 g/m*3 8.2 C 0 km/h
1114 24-10-2007 15:01:04 8.2 C 5.44 g/m*3 8.2 C 0 km/h
1115 24-10-2007 15:04:04 8.3 C 5.48 g/m*3 8.3 C 0 km/h
1116 24-10-2007 15:07:04 8.3 C 5.48 g/m*3 8.3 C 0 km/h
1117 24-10-2007 15:10:04 8.3 C 5.48 g/m*3 8.3 C 0 km/h
1118 24-10-2007 15:13:04 8.3 C 5.48 g/m*3 8.3 C 0 km/h
1119 24-10-2007 15:16:04 8.4 C 5.51 g/m*3 8.4 C 0 km/h
1120 24-10-2007 15:19:04 8.4 C 5.51 g/m*3 8.4 C 0 km/h
1121 24-10-2007 15:22:04 8.4 C 5.43 g/m*3 8.4 C 0 km/h
1122 24-10-2007 15:25:04 8.4 C 5.43 g/m*3 8.4 C 0 km/h
1123 24-10-2007 15:28:04 8.5 C 5.46 g/m*3 8.5 C 0 km/h
1124 24-10-2007 15:31:04 8.5 C 5.46 g/m*3 8.5 C 0 km/h
1125 24-10-2007 15:34:04 8.5 C 5.46 g/m*3 8.5 C 0 km/h
Sensor: Nr:Datum:Temp:Abs-Feuchte:Windchill:Wind:
Aussen-T/F 1126 24-10-2007 15:37:04 8.5 C 5.46 g/m*3 8.5 C 0 km/h
1127 24-10-2007 15:40:04 8.5 C 5.46 g/m*3 8.5 C 0 km/h
1128 24-10-2007 15:43:04 8.5 C 5.46 g/m*3 8.5 C 0 km/h
1129 24-10-2007 15:46:04 8.5 C 5.46 g/m*3 8.5 C 0 km/h
1130 24-10-2007 15:49:04 8.5 C 5.46 g/m*3 8.5 C 0 km/h
1131 24-10-2007 15:52:04 8.5 C 5.46 g/m*3 8.5 C 0 km/h
1132 24-10-2007 15:55:05 8.6 C 5.5 g/m*3 8.6 C 0 km/h
1133 24-10-2007 15:58:05 8.6 C 5.59 g/m*3 8.6 C 0 km/h
1134 24-10-2007 16:01:05 8.6 C 5.59 g/m*3 8.6 C 0 km/h
1135 24-10-2007 16:04:05 8.5 C 5.55 g/m*3 8.5 C 0 km/h
1136 24-10-2007 16:07:05 8.5 C 5.64 g/m*3 8.5 C 0 km/h
1137 24-10-2007 16:10:05 8.5 C 5.55 g/m*3 8.5 C 0 km/h
1138 24-10-2007 16:13:05 8.5 C 5.55 g/m*3 8.5 C 0 km/h
1139 24-10-2007 16:16:05 8.5 C 5.55 g/m*3 8.5 C 0 km/h
1140 24-10-2007 16:19:05 8.4 C 5.51 g/m*3 8.4 C 0 km/h
1141 24-10-2007 16:22:05 8.4 C 5.51 g/m*3 8.4 C 0 km/h
1142 24-10-2007 16:25:05 8.4 C 5.6 g/m*3 8.4 C 0 km/h
1143 24-10-2007 16:28:05 8.4 C 5.6 g/m*3 8.4 C 0 km/h
1144 24-10-2007 16:31:05 8.3 C 5.48 g/m*3 8.3 C 0 km/h
1145 24-10-2007 16:34:05 8.3 C 5.56 g/m*3 8.3 C 0 km/h
1146 24-10-2007 16:37:05 8.4 C 5.6 g/m*3 8.4 C 0 km/h
1147 24-10-2007 16:40:05 8.3 C 5.56 g/m*3 8.3 C 0 km/h
1148 24-10-2007 16:43:05 8.3 C 5.56 g/m*3 8.3 C 0 km/h
1149 24-10-2007 16:46:05 8.3 C 5.65 g/m*3 8.3 C 0 km/h
1150 24-10-2007 16:49:05 8.3 C 5.56 g/m*3 8.3 C 0 km/h
Sensor: Nr:Datum:Temp:Abs-Feuchte:Windchill:Wind:
Aussen-T/F 1151 24-10-2007 16:52:06 8.2 C 5.61 g/m*3 8.2 C 0 km/h
1152 24-10-2007 16:55:06 8.2 C 5.61 g/m*3 8.2 C 0 km/h
1153 24-10-2007 16:58:06 8.1 C 5.57 g/m*3 8.1 C 0 km/h
1154 24-10-2007 17:01:06 8.1 C 5.57 g/m*3 8.1 C 0 km/h
1155 24-10-2007 17:04:06 8.1 C 5.57 g/m*3 8.1 C 0 km/h
1156 24-10-2007 17:07:06 8 C 5.54 g/m*3 8 C 0 km/h
1157 24-10-2007 17:10:06 8 C 5.54 g/m*3 8 C 0 km/h
1158 24-10-2007 17:13:06 8 C 5.62 g/m*3 8 C 0 km/h
1159 24-10-2007 17:16:06 7.9 C 5.67 g/m*3 7.9 C 0 km/h
1160 24-10-2007 17:19:06 7.9 C 5.67 g/m*3 7.9 C 0 km/h
1161 24-10-2007 17:22:06 7.9 C 5.67 g/m*3 7.9 C 0 km/h
1162 24-10-2007 17:25:06 7.9 C 5.67 g/m*3 7.9 C 0 km/h
1163 24-10-2007 17:28:06 7.9 C 5.67 g/m*3 7.9 C 0 km/h
1164 24-10-2007 17:31:06 7.8 C 5.63 g/m*3 7.8 C 0 km/h
1165 24-10-2007 17:34:06 7.8 C 5.63 g/m*3 7.8 C 0 km/h
1166 24-10-2007 17:37:06 7.8 C 5.63 g/m*3 7.8 C 0 km/h
1167 24-10-2007 17:40:06 7.8 C 5.63 g/m*3 7.8 C 0 km/h
1168 24-10-2007 17:43:06 7.8 C 5.63 g/m*3 7.8 C 0 km/h
1169 24-10-2007 17:46:06 7.8 C 5.71 g/m*3 7.8 C 0 km/h
1170 24-10-2007 17:49:06 7.8 C 5.71 g/m*3 7.8 C 0 km/h
1171 24-10-2007 17:52:07 7.8 C 5.71 g/m*3 7.8 C 0 km/h
1172 24-10-2007 17:55:07 7.8 C 5.71 g/m*3 7.8 C 0 km/h
1173 24-10-2007 17:58:07 7.7 C 5.68 g/m*3 7.7 C 0 km/h
1174 24-10-2007 18:01:07 7.7 C 5.68 g/m*3 7.7 C 0 km/h
1175 24-10-2007 18:04:07 7.7 C 5.68 g/m*3 7.7 C 0 km/h
Sensor: Nr:Datum:Temp:Abs-Feuchte:Windchill:Wind:
Aussen-T/F 1176 24-10-2007 18:07:07 7.7 C 5.68 g/m*3 7.7 C 0 km/h
1177 24-10-2007 18:10:07 7.7 C 5.68 g/m*3 7.7 C 0 km/h
1178 24-10-2007 18:13:07 7.7 C 5.76 g/m*3 7.7 C 0 km/h
1179 24-10-2007 18:16:07 7.6 C 5.72 g/m*3 7.6 C 0 km/h
1180 24-10-2007 18:19:07 7.6 C 5.72 g/m*3 7.6 C 0 km/h
1181 24-10-2007 18:22:07 7.6 C 5.72 g/m*3 7.6 C 0 km/h
1182 24-10-2007 18:25:07 7.6 C 5.72 g/m*3 7.6 C 0 km/h
1183 24-10-2007 18:28:07 7.6 C 5.72 g/m*3 7.6 C 0 km/h
1184 24-10-2007 18:31:07 7.6 C 5.8 g/m*3 7.6 C 0 km/h
1185 24-10-2007 18:34:07 7.6 C 5.8 g/m*3 7.6 C 0 km/h
1186 24-10-2007 18:37:07 7.6 C 5.8 g/m*3 7.6 C 0 km/h
1187 24-10-2007 18:40:07 7.5 C 5.76 g/m*3 7.5 C 0 km/h
1188 24-10-2007 18:43:07 7.5 C 5.76 g/m*3 7.5 C 0 km/h
1189 24-10-2007 18:46:07 7.5 C 5.76 g/m*3 7.5 C 0 km/h
1190 24-10-2007 18:49:07 7.5 C 5.76 g/m*3 7.5 C 0 km/h
1191 24-10-2007 18:52:08 7.5 C 5.84 g/m*3 7.5 C 0 km/h
1192 24-10-2007 18:55:08 7.6 C 5.88 g/m*3 7.6 C 0 km/h
1193 24-10-2007 18:58:08 7.6 C 5.88 g/m*3 7.6 C 0 km/h
1194 24-10-2007 19:01:08 7.5 C 5.84 g/m*3 7.5 C 0 km/h
1195 24-10-2007 19:04:08 7.5 C 5.84 g/m*3 7.5 C 0 km/h
1196 24-10-2007 19:07:08 7.5 C 5.84 g/m*3 7.5 C 0 km/h
1197 24-10-2007 19:10:08 7.5 C 5.84 g/m*3 7.5 C 0 km/h
1198 24-10-2007 19:13:08 7.5 C 5.84 g/m*3 7.5 C 0 km/h
1199 24-10-2007 19:16:08 7.5 C 5.84 g/m*3 7.5 C 0 km/h
1200 24-10-2007 19:19:08 7.5 C 5.84 g/m*3 7.5 C 0 km/h
Sensor: Nr:Datum:Temp:Abs-Feuchte:Windchill:Wind:
Aussen-T/F 1201 24-10-2007 19:22:08 7.4 C 5.81 g/m*3 7.4 C 0 km/h
1202 24-10-2007 19:25:08 7.4 C 5.81 g/m*3 7.4 C 0 km/h
1203 24-10-2007 19:28:08 7.4 C 5.73 g/m*3 7.4 C 0 km/h
1204 24-10-2007 19:31:08 7.3 C 5.69 g/m*3 7.3 C 0 km/h
1205 24-10-2007 19:34:08 7.3 C 5.77 g/m*3 7.3 C 0 km/h
1206 24-10-2007 19:37:08 7.3 C 5.77 g/m*3 7.3 C 0 km/h
1207 24-10-2007 19:40:08 7.3 C 5.77 g/m*3 7.3 C 0 km/h
1208 24-10-2007 19:43:08 7.3 C 5.77 g/m*3 7.3 C 0 km/h
1209 24-10-2007 19:46:08 7.3 C 5.77 g/m*3 7.3 C 0 km/h
1210 24-10-2007 19:49:09 7.2 C 5.73 g/m*3 7.2 C 0 km/h
1211 24-10-2007 19:52:09 7.2 C 5.81 g/m*3 7.2 C 0 km/h
1212 24-10-2007 19:55:09 7.2 C 5.81 g/m*3 7.2 C 0 km/h
1213 24-10-2007 19:58:09 7.2 C 5.81 g/m*3 7.2 C 0 km/h
1214 24-10-2007 20:01:09 7 C 5.73 g/m*3 7 C 0 km/h
1215 24-10-2007 20:04:09 6.9 C 5.77 g/m*3 6.9 C 0 km/h
1216 24-10-2007 20:07:09 6.8 C 5.81 g/m*3 6.8 C 0 km/h
1217 24-10-2007 20:10:09 6.8 C 5.81 g/m*3 6.8 C 0 km/h
1218 24-10-2007 20:13:09 6.8 C 5.81 g/m*3 6.8 C 0 km/h
1219 24-10-2007 20:16:09 6.8 C 5.81 g/m*3 6.8 C 0 km/h
1220 24-10-2007 20:19:09 6.8 C 5.81 g/m*3 6.8 C 0 km/h
1221 24-10-2007 20:22:09 6.8 C 5.81 g/m*3 6.8 C 0 km/h
1222 24-10-2007 20:25:09 6.9 C 5.85 g/m*3 6.9 C 0 km/h
1223 24-10-2007 20:28:09 6.9 C 5.85 g/m*3 6.9 C 0 km/h
1224 24-10-2007 20:31:09 6.9 C 5.85 g/m*3 6.9 C 0 km/h
1225 24-10-2007 20:34:09 7 C 5.81 g/m*3 7 C 0 km/h
Sensor: Nr:Datum:Temp:Abs-Feuchte:Windchill:Wind:
Aussen-T/F 1226 24-10-2007 20:37:09 7 C 5.81 g/m*3 7 C 0 km/h
1227 24-10-2007 20:40:09 7 C 5.81 g/m*3 7 C 0 km/h
1228 24-10-2007 20:43:09 7 C 5.81 g/m*3 7 C 0 km/h
1229 24-10-2007 20:46:09 7.3 C 5.93 g/m*3 7.3 C 0 km/h
1230 24-10-2007 20:49:10 7.1 C 5.85 g/m*3 7.1 C 0 km/h
1231 24-10-2007 20:52:10 7.1 C 5.85 g/m*3 7.1 C 0 km/h
1232 24-10-2007 20:55:10 7.3 C 5.93 g/m*3 7.3 C 0 km/h
1233 24-10-2007 20:58:10 7.2 C 5.89 g/m*3 7.2 C 0 km/h
1234 24-10-2007 21:01:10 7.2 C 5.81 g/m*3 7.2 C 0 km/h
1235 24-10-2007 21:04:10 7.2 C 5.81 g/m*3 7.2 C 0 km/h
1236 24-10-2007 21:07:10 7.2 C 5.81 g/m*3 7.2 C 0 km/h
1237 24-10-2007 21:10:10 7.2 C 5.81 g/m*3 7.2 C 0 km/h
1238 24-10-2007 21:13:10 7.2 C 5.81 g/m*3 7.2 C 0 km/h
1239 24-10-2007 21:16:10 7.2 C 5.81 g/m*3 7.2 C 0 km/h
1240 24-10-2007 21:19:10 7.2 C 5.81 g/m*3 7.2 C 0 km/h
1241 24-10-2007 21:22:10 7.2 C 5.81 g/m*3 7.2 C 0 km/h
1242 24-10-2007 21:25:10 7.2 C 5.81 g/m*3 7.2 C 0 km/h
1243 24-10-2007 21:28:10 7.2 C 5.89 g/m*3 7.2 C 0 km/h
1244 24-10-2007 21:31:10 7.2 C 5.89 g/m*3 7.2 C 0 km/h
1245 24-10-2007 21:34:10 7.2 C 5.89 g/m*3 7.2 C 0 km/h
1246 24-10-2007 21:37:10 7.2 C 5.89 g/m*3 7.2 C 0 km/h
1247 24-10-2007 21:40:10 7.2 C 5.89 g/m*3 7.2 C 0 km/h
1248 24-10-2007 21:43:10 7.2 C 5.89 g/m*3 7.2 C 0 km/h
1249 24-10-2007 21:46:10 7.2 C 5.89 g/m*3 7.2 C 0 km/h
1250 24-10-2007 21:49:11 7.2 C 5.89 g/m*3 7.2 C 0 km/h
Sensor: Nr:Datum:Temp:Abs-Feuchte:Windchill:Wind:
Aussen-T/F 1251 24-10-2007 21:52:11 7.2 C 5.89 g/m*3 7.2 C 0 km/h
1252 24-10-2007 21:55:11 7.2 C 5.89 g/m*3 7.2 C 0 km/h
1253 24-10-2007 21:58:11 7.2 C 5.89 g/m*3 7.2 C 0 km/h
1254 24-10-2007 22:01:11 7.2 C 5.81 g/m*3 7.2 C 0 km/h
1255 24-10-2007 22:04:11 7.2 C 5.81 g/m*3 7.2 C 0 km/h
1256 24-10-2007 22:07:11 7.2 C 5.81 g/m*3 7.2 C 0 km/h
1257 24-10-2007 22:10:11 7.2 C 5.81 g/m*3 7.2 C 0 km/h
1258 24-10-2007 22:13:11 7.2 C 5.81 g/m*3 7.2 C 0 km/h
1259 24-10-2007 22:16:11 7.2 C 5.81 g/m*3 7.2 C 0 km/h
1260 24-10-2007 22:19:11 7.2 C 5.81 g/m*3 7.2 C 0 km/h
1261 24-10-2007 22:22:11 7.2 C 5.81 g/m*3 7.2 C 0 km/h
1262 24-10-2007 22:25:11 7.2 C 5.81 g/m*3 7.2 C 0 km/h
1263 24-10-2007 22:28:11 7.2 C 5.81 g/m*3 7.2 C 0 km/h
1264 24-10-2007 22:31:11 7.2 C 5.81 g/m*3 7.2 C 0 km/h
1265 24-10-2007 22:34:11 7.2 C 5.81 g/m*3 7.2 C 0 km/h
1266 24-10-2007 22:37:11 7.2 C 5.81 g/m*3 7.2 C 0 km/h
1267 24-10-2007 22:40:11 7.2 C 5.81 g/m*3 7.2 C 0 km/h
1268 24-10-2007 22:43:11 7.2 C 5.81 g/m*3 7.2 C 0 km/h
1269 24-10-2007 22:46:12 7.2 C 5.81 g/m*3 7.2 C 0 km/h
1270 24-10-2007 22:49:12 7.2 C 5.81 g/m*3 7.2 C 0 km/h
1271 24-10-2007 22:52:12 7.2 C 5.81 g/m*3 7.2 C 0 km/h
1272 24-10-2007 22:55:12 7.2 C 5.81 g/m*3 7.2 C 0 km/h
1273 24-10-2007 22:58:12 7.2 C 5.81 g/m*3 7.2 C 0 km/h
1274 24-10-2007 23:01:12 7.2 C 5.81 g/m*3 7.2 C 0 km/h
1275 24-10-2007 23:04:12 7.2 C 5.81 g/m*3 7.2 C 0 km/h
Sensor: Nr:Datum:Temp:Abs-Feuchte:Windchill:Wind:
Aussen-T/F 1276 24-10-2007 23:07:12 7.2 C 5.81 g/m*3 7.2 C 0 km/h
1277 24-10-2007 23:10:12 7.2 C 5.81 g/m*3 7.2 C 0 km/h
1278 24-10-2007 23:13:12 7.2 C 5.81 g/m*3 7.2 C 0 km/h
1279 24-10-2007 23:16:12 7.2 C 5.81 g/m*3 7.2 C 0 km/h
1280 24-10-2007 23:19:12 7.2 C 5.81 g/m*3 7.2 C 0 km/h
1281 24-10-2007 23:22:12 7.2 C 5.81 g/m*3 7.2 C 0 km/h
1282 24-10-2007 23:25:12 7.2 C 5.81 g/m*3 7.2 C 0 km/h
1283 24-10-2007 23:28:12 7.2 C 5.81 g/m*3 7.2 C 0 km/h
1284 24-10-2007 23:31:12 7.1 C 5.77 g/m*3 7.1 C 0 km/h
1285 24-10-2007 23:34:12 7.2 C 5.81 g/m*3 7.2 C 0 km/h
1286 24-10-2007 23:37:12 7.2 C 5.81 g/m*3 7.2 C 0 km/h
1287 24-10-2007 23:40:12 7.2 C 5.81 g/m*3 7.2 C 0 km/h
1288 24-10-2007 23:43:13 7.2 C 5.81 g/m*3 7.2 C 0 km/h
1289 24-10-2007 23:46:13 7.2 C 5.81 g/m*3 7.2 C 0 km/h
1290 24-10-2007 23:49:13 7.2 C 5.89 g/m*3 7.2 C 0 km/h
1291 24-10-2007 23:52:13 7.2 C 5.81 g/m*3 7.2 C 0 km/h
1292 24-10-2007 23:55:13 7.2 C 5.81 g/m*3 7.2 C 0 km/h
1293 24-10-2007 23:58:13 7.2 C 5.81 g/m*3 7.2 C 0 km/h
1294 25-10-2007 00:01:13 7.2 C 5.81 g/m*3 7.2 C 0 km/h
1295 25-10-2007 00:04:13 7.2 C 5.81 g/m*3 7.2 C 0 km/h
1296 25-10-2007 00:07:13 7.2 C 5.81 g/m*3 7.2 C 0 km/h
1297 25-10-2007 00:10:13 7.2 C 5.81 g/m*3 7.2 C 0 km/h
1298 25-10-2007 00:13:13 7.2 C 5.81 g/m*3 7.2 C 0 km/h
1299 25-10-2007 00:16:13 7.2 C 5.81 g/m*3 7.2 C 0 km/h
1300 25-10-2007 00:19:13 7.2 C 5.81 g/m*3 7.2 C 0 km/h
Sensor: Nr:Datum:Temp:Abs-Feuchte:Windchill:Wind:
Aussen-T/F 1301 25-10-2007 00:22:13 7.2 C 5.89 g/m*3 7.2 C 0 km/h
1302 25-10-2007 00:25:13 7.3 C 5.93 g/m*3 7.3 C 0 km/h
1303 25-10-2007 00:28:13 7.2 C 5.89 g/m*3 7.2 C 0 km/h
1304 25-10-2007 00:31:13 7.1 C 5.85 g/m*3 7.1 C 0 km/h
1305 25-10-2007 00:34:13 7 C 5.81 g/m*3 7 C 0 km/h
1306 25-10-2007 00:37:13 7 C 5.81 g/m*3 7 C 0 km/h
1307 25-10-2007 00:40:13 7 C 5.89 g/m*3 7 C 0 km/h
1308 25-10-2007 00:43:14 7.3 C 6 g/m*3 7.3 C 0 km/h
1309 25-10-2007 00:46:14 7 C 5.89 g/m*3 7 C 0 km/h
1310 25-10-2007 00:49:14 7 C 5.89 g/m*3 7 C 0 km/h
1311 25-10-2007 00:52:14 7 C 5.89 g/m*3 7 C 0 km/h
1312 25-10-2007 00:55:14 7 C 5.89 g/m*3 7 C 0 km/h
1313 25-10-2007 00:58:14 7 C 5.89 g/m*3 7 C 0 km/h
1314 25-10-2007 01:01:14 7 C 5.89 g/m*3 7 C 0 km/h
1315 25-10-2007 01:04:14 7 C 5.89 g/m*3 7 C 0 km/h
1316 25-10-2007 01:07:14 7 C 5.89 g/m*3 7 C 0 km/h
1317 25-10-2007 01:10:14 7 C 5.89 g/m*3 7 C 0 km/h
1318 25-10-2007 01:13:14 7 C 5.89 g/m*3 7 C 0 km/h
1319 25-10-2007 01:16:14 7 C 5.89 g/m*3 7 C 0 km/h
1320 25-10-2007 01:19:14 7 C 5.89 g/m*3 7 C 0 km/h
1321 25-10-2007 01:22:14 7 C 5.89 g/m*3 7 C 0 km/h
1322 25-10-2007 01:25:14 7 C 5.89 g/m*3 7 C 0 km/h
1323 25-10-2007 01:28:14 7 C 5.89 g/m*3 7 C 0 km/h
1324 25-10-2007 01:31:14 7 C 5.89 g/m*3 7 C 0 km/h
1325 25-10-2007 01:34:14 7 C 5.97 g/m*3 7 C 0 km/h
Sensor: Nr:Datum:Temp:Abs-Feuchte:Windchill:Wind:
Aussen-T/F 1326 25-10-2007 01:37:14 7 C 5.97 g/m*3 7 C 0 km/h
1327 25-10-2007 01:40:15 7 C 5.97 g/m*3 7 C 0 km/h
1328 25-10-2007 01:43:15 7 C 5.97 g/m*3 7 C 0 km/h
1329 25-10-2007 01:46:15 7 C 5.97 g/m*3 7 C 0 km/h
1330 25-10-2007 01:49:15 7 C 5.97 g/m*3 7 C 0 km/h
1331 25-10-2007 01:52:16 7 C 5.97 g/m*3 7 C 0 km/h
1332 25-10-2007 01:55:16 7 C 5.97 g/m*3 7 C 0 km/h
1333 25-10-2007 01:58:16 7 C 5.97 g/m*3 7 C 0 km/h
1334 25-10-2007 02:01:16 7 C 5.97 g/m*3 7 C 0 km/h
1335 25-10-2007 02:04:16 7 C 5.97 g/m*3 7 C 0 km/h
1336 25-10-2007 02:07:16 7 C 6.04 g/m*3 7 C 0 km/h
1337 25-10-2007 02:10:16 7 C 6.04 g/m*3 7 C 0 km/h
1338 25-10-2007 02:13:16 7 C 6.04 g/m*3 7 C 0 km/h
1339 25-10-2007 02:16:16 7 C 6.04 g/m*3 7 C 0 km/h
1340 25-10-2007 02:19:16 7 C 6.04 g/m*3 7 C 0 km/h
1341 25-10-2007 02:22:16 7 C 6.04 g/m*3 7 C 0 km/h
1342 25-10-2007 02:25:16 7 C 6.04 g/m*3 7 C 0 km/h
1343 25-10-2007 02:28:16 7 C 6.12 g/m*3 7 C 0 km/h
1344 25-10-2007 02:31:16 7 C 6.12 g/m*3 7 C 0 km/h
1345 25-10-2007 02:34:16 7 C 6.12 g/m*3 7 C 0 km/h
1346 25-10-2007 02:37:17 7 C 6.12 g/m*3 7 C 0 km/h
1347 25-10-2007 02:40:17 7 C 6.12 g/m*3 7 C 0 km/h
1348 25-10-2007 02:43:17 7 C 6.12 g/m*3 7 C 0 km/h
1349 25-10-2007 02:46:17 7 C 6.12 g/m*3 7 C 0 km/h
1350 25-10-2007 02:49:17 7 C 6.12 g/m*3 7 C 0 km/h
Sensor: Nr:Datum:Temp:Abs-Feuchte:Windchill:Wind:
Aussen-T/F 1351 25-10-2007 02:52:17 7 C 6.12 g/m*3 7 C 0 km/h
1352 25-10-2007 02:55:17 7 C 6.12 g/m*3 7 C 0 km/h
1353 25-10-2007 02:58:17 7 C 6.12 g/m*3 7 C 0 km/h
1354 25-10-2007 03:01:17 7 C 6.12 g/m*3 7 C 0 km/h
1355 25-10-2007 03:04:17 7 C 6.12 g/m*3 7 C 0 km/h
1356 25-10-2007 03:07:17 7 C 6.12 g/m*3 7 C 0 km/h
1357 25-10-2007 03:10:17 7 C 6.12 g/m*3 7 C 0 km/h
1358 25-10-2007 03:13:17 7 C 6.12 g/m*3 7 C 0 km/h
1359 25-10-2007 03:16:17 7 C 6.12 g/m*3 7 C 0 km/h
1360 25-10-2007 03:19:17 7 C 6.12 g/m*3 7 C 0 km/h
1361 25-10-2007 03:22:17 7 C 6.12 g/m*3 7 C 0 km/h
1362 25-10-2007 03:25:17 7 C 6.12 g/m*3 7 C 0 km/h
1363 25-10-2007 03:28:17 7 C 6.12 g/m*3 7 C 0 km/h
1364 25-10-2007 03:31:17 7.2 C 6.2 g/m*3 7.2 C 0 km/h
1365 25-10-2007 03:34:18 7 C 6.04 g/m*3 7 C 0 km/h
1366 25-10-2007 03:37:18 7.2 C 6.12 g/m*3 7.2 C 0 km/h
1367 25-10-2007 03:40:18 7.2 C 6.12 g/m*3 7.2 C 0 km/h
1368 25-10-2007 03:43:18 7 C 6.04 g/m*3 7 C 0 km/h
1369 25-10-2007 03:46:18 7.2 C 6.12 g/m*3 7.2 C 0 km/h
1370 25-10-2007 03:49:18 7.1 C 6.16 g/m*3 7.1 C 0 km/h
1371 25-10-2007 03:52:18 7.2 C 6.2 g/m*3 7.2 C 0 km/h
1372 25-10-2007 03:55:18 7 C 6.12 g/m*3 7 C 0 km/h
1373 25-10-2007 03:58:18 7 C 6.12 g/m*3 7 C 0 km/h
1374 25-10-2007 04:01:18 7.2 C 6.2 g/m*3 7.2 C 0 km/h
1375 25-10-2007 04:04:18 7.2 C 6.2 g/m*3 7.2 C 0 km/h
Sensor: Nr:Datum:Temp:Abs-Feuchte:Windchill:Wind:
Aussen-T/F 1376 25-10-2007 04:07:18 7 C 6.12 g/m*3 7 C 0 km/h
1377 25-10-2007 04:10:18 7 C 6.12 g/m*3 7 C 0 km/h
1378 25-10-2007 04:13:18 7 C 6.12 g/m*3 7 C 0 km/h
1379 25-10-2007 04:16:18 7 C 6.12 g/m*3 7 C 0 km/h
1380 25-10-2007 04:19:18 7 C 6.12 g/m*3 7 C 0 km/h
1381 25-10-2007 04:22:18 7 C 6.12 g/m*3 7 C 0 km/h
1382 25-10-2007 04:25:18 7 C 6.12 g/m*3 7 C 0 km/h
1383 25-10-2007 04:28:18 7 C 6.12 g/m*3 7 C 0 km/h
1384 25-10-2007 04:31:19 7 C 6.12 g/m*3 7 C 0 km/h
1385 25-10-2007 04:34:19 7 C 6.12 g/m*3 7 C 0 km/h
1386 25-10-2007 04:37:19 7 C 6.12 g/m*3 7 C 0 km/h
1387 25-10-2007 04:40:19 7 C 6.12 g/m*3 7 C 0 km/h
1388 25-10-2007 04:43:19 7 C 6.12 g/m*3 7 C 0 km/h
1389 25-10-2007 04:46:19 7 C 6.12 g/m*3 7 C 0 km/h
1390 25-10-2007 04:49:19 7 C 6.12 g/m*3 7 C 0 km/h
1391 25-10-2007 04:52:19 7 C 6.12 g/m*3 7 C 0 km/h
1392 25-10-2007 04:55:19 7.2 C 6.2 g/m*3 7.2 C 0 km/h
1393 25-10-2007 04:58:19 7 C 6.12 g/m*3 7 C 0 km/h
1394 25-10-2007 05:01:19 7 C 6.12 g/m*3 7 C 0 km/h
1395 25-10-2007 05:04:19 7 C 6.12 g/m*3 7 C 0 km/h
1396 25-10-2007 05:07:19 7.2 C 6.2 g/m*3 7.2 C 0 km/h
1397 25-10-2007 05:10:19 7.2 C 6.2 g/m*3 7.2 C 0 km/h
1398 25-10-2007 05:13:19 7.2 C 6.2 g/m*3 7.2 C 0 km/h
1399 25-10-2007 05:16:19 7.2 C 6.2 g/m*3 7.2 C 0 km/h
1400 25-10-2007 05:19:19 7 C 6.12 g/m*3 7 C 0 km/h
Sensor: Nr:Datum:Temp:Abs-Feuchte:Windchill:Wind:
Aussen-T/F 1401 25-10-2007 05:22:19 7 C 6.12 g/m*3 7 C 0 km/h
1402 25-10-2007 05:25:19 7 C 6.12 g/m*3 7 C 0 km/h
1403 25-10-2007 05:28:19 7 C 6.12 g/m*3 7 C 0 km/h
1404 25-10-2007 05:31:20 7 C 6.12 g/m*3 7 C 0 km/h
1405 25-10-2007 05:34:20 7 C 6.12 g/m*3 7 C 0 km/h
1406 25-10-2007 05:37:20 7 C 6.12 g/m*3 7 C 0 km/h
1407 25-10-2007 05:40:20 7 C 6.12 g/m*3 7 C 0 km/h
1408 25-10-2007 05:43:20 7 C 6.12 g/m*3 7 C 0 km/h
1409 25-10-2007 05:46:20 7 C 6.12 g/m*3 7 C 0 km/h
1410 25-10-2007 05:49:20 7 C 6.12 g/m*3 7 C 0 km/h
1411 25-10-2007 05:52:20 7 C 6.12 g/m*3 7 C 0 km/h
1412 25-10-2007 05:55:20 7 C 6.2 g/m*3 7 C 0 km/h
1413 25-10-2007 05:58:20 7 C 6.2 g/m*3 7 C 0 km/h
1414 25-10-2007 06:01:20 7 C 6.2 g/m*3 7 C 0 km/h
1415 25-10-2007 06:04:20 7 C 6.2 g/m*3 7 C 0 km/h
1416 25-10-2007 06:07:20 7 C 6.2 g/m*3 7 C 0 km/h
1417 25-10-2007 06:10:20 7.2 C 6.28 g/m*3 7.2 C 0 km/h
1418 25-10-2007 06:13:20 7.2 C 6.28 g/m*3 7.2 C 0 km/h
1419 25-10-2007 06:16:20 7.2 C 6.28 g/m*3 7.2 C 0 km/h
1420 25-10-2007 06:19:20 7.2 C 6.28 g/m*3 7.2 C 0 km/h
1421 25-10-2007 06:22:20 7.2 C 6.28 g/m*3 7.2 C 0 km/h
1422 25-10-2007 06:25:20 7.1 C 6.24 g/m*3 7.1 C 0 km/h
1423 25-10-2007 06:28:20 7.1 C 6.24 g/m*3 7.1 C 0 km/h
1424 25-10-2007 06:31:21 7.1 C 6.24 g/m*3 7.1 C 0 km/h
1425 25-10-2007 06:34:21 7.1 C 6.24 g/m*3 7.1 C 0 km/h
Sensor: Nr:Datum:Temp:Abs-Feuchte:Windchill:Wind:
Aussen-T/F 1426 25-10-2007 06:37:21 7.1 C 6.24 g/m*3 7.1 C 0 km/h
1427 25-10-2007 06:40:21 7.1 C 6.24 g/m*3 7.1 C 0 km/h
1428 25-10-2007 06:43:21 7.1 C 6.24 g/m*3 7.1 C 0 km/h
1429 25-10-2007 06:46:21 7.2 C 6.28 g/m*3 7.2 C 0 km/h
1430 25-10-2007 06:49:21 7.1 C 6.24 g/m*3 7.1 C 0 km/h
1431 25-10-2007 06:52:21 7.1 C 6.24 g/m*3 7.1 C 0 km/h
1432 25-10-2007 06:55:21 7.1 C 6.24 g/m*3 7.1 C 0 km/h
1433 25-10-2007 06:58:21 7.1 C 6.24 g/m*3 7.1 C 0 km/h
1434 25-10-2007 07:01:21 7.2 C 6.28 g/m*3 7.2 C 0 km/h
1435 25-10-2007 07:04:21 7.2 C 6.28 g/m*3 7.2 C 0 km/h
1436 25-10-2007 07:07:21 7.2 C 6.28 g/m*3 7.2 C 0 km/h
1437 25-10-2007 07:10:21 7.2 C 6.28 g/m*3 7.2 C 0 km/h
1438 25-10-2007 07:13:21 7.2 C 6.28 g/m*3 7.2 C 0 km/h
1439 25-10-2007 07:16:21 7.2 C 6.28 g/m*3 7.2 C 0 km/h
1440 25-10-2007 07:19:21 7.2 C 6.28 g/m*3 7.2 C 0 km/h
1441 25-10-2007 07:22:21 7.2 C 6.28 g/m*3 7.2 C 0 km/h
1442 25-10-2007 07:25:21 7.2 C 6.28 g/m*3 7.2 C 0 km/h
1443 25-10-2007 07:28:21 7.2 C 6.28 g/m*3 7.2 C 0 km/h
1444 25-10-2007 07:31:22 7.2 C 6.28 g/m*3 7.2 C 0 km/h
1445 25-10-2007 07:34:22 7.2 C 6.28 g/m*3 7.2 C 0 km/h
1446 25-10-2007 07:37:22 7.2 C 6.28 g/m*3 7.2 C 0 km/h
1447 25-10-2007 07:40:22 7.2 C 6.28 g/m*3 7.2 C 0 km/h
1448 25-10-2007 07:43:22 7.2 C 6.28 g/m*3 7.2 C 0 km/h
1449 25-10-2007 07:46:22 7.2 C 6.28 g/m*3 7.2 C 0 km/h
1450 25-10-2007 07:49:22 7.2 C 6.28 g/m*3 7.2 C 0 km/h
Sensor: Nr:Datum:Temp:Abs-Feuchte:Windchill:Wind:
Aussen-T/F 1451 25-10-2007 07:52:22 7.2 C 6.28 g/m*3 7.2 C 0 km/h
1452 25-10-2007 07:55:22 7.2 C 6.28 g/m*3 7.2 C 0 km/h
1453 25-10-2007 07:58:22 7.2 C 6.28 g/m*3 7.2 C 0 km/h
1454 25-10-2007 08:01:22 7.2 C 6.2 g/m*3 7.2 C 0 km/h
1455 25-10-2007 08:04:22 7.2 C 6.2 g/m*3 7.2 C 0 km/h
1456 25-10-2007 08:07:22 7.2 C 6.2 g/m*3 7.2 C 0 km/h
1457 25-10-2007 08:10:22 7.2 C 6.2 g/m*3 7.2 C 0 km/h
1458 25-10-2007 08:13:22 7.2 C 6.2 g/m*3 7.2 C 0 km/h
1459 25-10-2007 08:16:22 7.2 C 6.2 g/m*3 7.2 C 0 km/h
1460 25-10-2007 08:19:22 7.3 C 6.24 g/m*3 7.3 C 0 km/h
1461 25-10-2007 08:22:22 7.3 C 6.32 g/m*3 7.3 C 0 km/h
1462 25-10-2007 08:25:22 7.3 C 6.32 g/m*3 7.3 C 0 km/h
1463 25-10-2007 08:28:22 7.3 C 6.32 g/m*3 7.3 C 0 km/h
1464 25-10-2007 08:31:22 7.3 C 6.32 g/m*3 7.3 C 0 km/h
1465 25-10-2007 08:34:23 7.3 C 6.32 g/m*3 7.3 C 0 km/h
1466 25-10-2007 08:37:23 7.3 C 6.32 g/m*3 7.3 C 0 km/h
1467 25-10-2007 08:40:23 7.4 C 6.36 g/m*3 7.4 C 0 km/h
1468 25-10-2007 08:43:23 7.4 C 6.36 g/m*3 7.4 C 0 km/h
1469 25-10-2007 08:46:23 7.4 C 6.36 g/m*3 7.4 C 0 km/h
1470 25-10-2007 08:49:23 7.4 C 6.36 g/m*3 7.4 C 0 km/h
1471 25-10-2007 08:52:23 7.5 C 6.4 g/m*3 7.5 C 0 km/h
1472 25-10-2007 08:55:23 7.5 C 6.32 g/m*3 7.5 C 0 km/h
1473 25-10-2007 08:58:23 7.5 C 6.32 g/m*3 7.5 C 0 km/h
1474 25-10-2007 09:01:23 7.5 C 6.32 g/m*3 7.5 C 0 km/h
1475 25-10-2007 09:04:23 7.6 C 6.36 g/m*3 7.6 C 0 km/h
Sensor: Nr:Datum:Temp:Abs-Feuchte:Windchill:Wind:
Aussen-T/F 1476 25-10-2007 09:07:23 7.6 C 6.36 g/m*3 7.6 C 0 km/h
1477 25-10-2007 09:10:23 7.6 C 6.36 g/m*3 7.6 C 0 km/h
1478 25-10-2007 09:13:23 7.6 C 6.36 g/m*3 7.6 C 0 km/h
1479 25-10-2007 09:16:23 7.6 C 6.36 g/m*3 7.6 C 0 km/h
1480 25-10-2007 09:19:23 7.6 C 6.28 g/m*3 7.6 C 0 km/h
1481 25-10-2007 09:22:23 7.6 C 6.28 g/m*3 7.6 C 0 km/h
1482 25-10-2007 09:25:23 7.6 C 6.28 g/m*3 7.6 C 0 km/h
1483 25-10-2007 09:28:23 7.7 C 6.32 g/m*3 7.7 C 0 km/h
1484 25-10-2007 09:31:23 7.7 C 6.32 g/m*3 7.7 C 0 km/h
1485 25-10-2007 09:34:24 7.7 C 6.32 g/m*3 7.7 C 0 km/h
1486 25-10-2007 09:37:24 7.7 C 6.32 g/m*3 7.7 C 0 km/h
1487 25-10-2007 09:40:24 7.7 C 6.32 g/m*3 7.7 C 0 km/h
1488 25-10-2007 09:43:24 7.7 C 6.32 g/m*3 7.7 C 0 km/h
1489 25-10-2007 09:46:24 7.7 C 6.32 g/m*3 7.7 C 0 km/h
1490 25-10-2007 09:49:24 7.8 C 6.37 g/m*3 7.8 C 0 km/h
1491 25-10-2007 09:52:24 7.8 C 6.45 g/m*3 7.8 C 0 km/h
1492 25-10-2007 09:55:24 7.8 C 6.45 g/m*3 7.8 C 0 km/h
1493 25-10-2007 09:58:24 7.8 C 6.37 g/m*3 7.8 C 0 km/h
1494 25-10-2007 10:01:24 7.9 C 6.41 g/m*3 7.9 C 0 km/h
1495 25-10-2007 10:04:24 7.9 C 6.41 g/m*3 7.9 C 0 km/h
1496 25-10-2007 10:07:24 7.9 C 6.41 g/m*3 7.9 C 0 km/h
1497 25-10-2007 10:10:24 8 C 6.28 g/m*3 8 C 0 km/h
1498 25-10-2007 10:13:24 8 C 6.28 g/m*3 8 C 0 km/h
1499 25-10-2007 10:16:24 8 C 6.28 g/m*3 8 C 0 km/h
1500 25-10-2007 10:19:24 8.1 C 6.32 g/m*3 8.1 C 0 km/h
Sensor: Nr:Datum:Temp:Abs-Feuchte:Windchill:Wind:
Aussen-T/F 1501 25-10-2007 10:22:24 8.1 C 6.32 g/m*3 8.1 C 0 km/h
1502 25-10-2007 10:25:24 8.1 C 6.32 g/m*3 8.1 C 0 km/h
1503 25-10-2007 10:28:24 8.1 C 6.24 g/m*3 8.1 C 0 km/h
1504 25-10-2007 10:31:24 8.1 C 6.24 g/m*3 8.1 C 0 km/h
1505 25-10-2007 10:34:24 8.1 C 6.24 g/m*3 8.1 C 0 km/h
1506 25-10-2007 10:37:25 8.2 C 6.28 g/m*3 8.2 C 0 km/h
1507 25-10-2007 10:40:25 8.2 C 6.28 g/m*3 8.2 C 0 km/h
1508 25-10-2007 10:43:25 8.2 C 6.28 g/m*3 8.2 C 0 km/h
1509 25-10-2007 10:46:25 8.2 C 6.28 g/m*3 8.2 C 0 km/h
1510 25-10-2007 10:49:25 8.3 C 6.24 g/m*3 8.3 C 0 km/h
1511 25-10-2007 10:52:25 8.3 C 6.24 g/m*3 8.3 C 0 km/h
1512 25-10-2007 10:55:25 8.3 C 6.24 g/m*3 8.3 C 0 km/h
1513 25-10-2007 10:58:25 8.4 C 6.28 g/m*3 8.4 C 0 km/h
1514 25-10-2007 11:01:25 8.4 C 6.28 g/m*3 8.4 C 0 km/h
1515 25-10-2007 11:04:25 8.5 C 6.32 g/m*3 8.5 C 0 km/h
1516 25-10-2007 11:07:25 8.5 C 6.32 g/m*3 8.5 C 0 km/h
1517 25-10-2007 11:10:25 8.6 C 6.36 g/m*3 8.6 C 0 km/h
1518 25-10-2007 11:13:25 8.6 C 6.36 g/m*3 8.6 C 0 km/h
1519 25-10-2007 11:16:25 8.7 C 6.31 g/m*3 8.7 C 0 km/h
1520 25-10-2007 11:19:25 8.7 C 6.31 g/m*3 8.7 C 0 km/h
1521 25-10-2007 11:22:25 8.7 C 6.31 g/m*3 8.7 C 0 km/h
1522 25-10-2007 11:25:25 8.7 C 6.23 g/m*3 8.7 C 0 km/h
1523 25-10-2007 11:28:25 8.7 C 6.23 g/m*3 8.7 C 0 km/h
1524 25-10-2007 11:31:25 8.8 C 6.35 g/m*3 8.8 C 0 km/h
1525 25-10-2007 11:34:26 8.8 C 6.35 g/m*3 8.8 C 0 km/h
Sensor: Nr:Datum:Temp:Abs-Feuchte:Windchill:Wind:
Aussen-T/F 1526 25-10-2007 11:37:26 8.7 C 6.23 g/m*3 8.7 C 0 km/h
1527 25-10-2007 11:40:26 8.7 C 6.23 g/m*3 8.7 C 0 km/h
1528 25-10-2007 11:43:26 8.7 C 6.23 g/m*3 8.7 C 0 km/h
1529 25-10-2007 11:46:26 8.7 C 6.23 g/m*3 8.7 C 0 km/h
1530 25-10-2007 11:49:26 8.7 C 6.23 g/m*3 8.7 C 0 km/h
1531 25-10-2007 11:52:26 8.8 C 6.27 g/m*3 8.8 C 0 km/h
1532 25-10-2007 11:55:26 8.8 C 6.27 g/m*3 8.8 C 0 km/h
1533 25-10-2007 11:58:26 8.9 C 6.31 g/m*3 8.9 C 0 km/h
1534 25-10-2007 12:01:26 8.9 C 6.22 g/m*3 8.9 C 0 km/h
1535 25-10-2007 12:04:26 8.9 C 6.22 g/m*3 8.9 C 0 km/h
1536 25-10-2007 12:07:26 8.9 C 6.22 g/m*3 8.9 C 0 km/h
1537 25-10-2007 12:10:26 8.9 C 6.22 g/m*3 8.9 C 0 km/h
1538 25-10-2007 12:13:26 8.9 C 6.22 g/m*3 8.9 C 0 km/h
1539 25-10-2007 12:16:26 9 C 6.17 g/m*3 9 C 0 km/h
1540 25-10-2007 12:19:26 9 C 6.17 g/m*3 9 C 0 km/h
1541 25-10-2007 12:22:26 9 C 6.17 g/m*3 9 C 0 km/h
1542 25-10-2007 12:25:26 9 C 6.17 g/m*3 9 C 0 km/h
1543 25-10-2007 12:28:26 9.1 C 6.21 g/m*3 9.1 C 0 km/h
1544 25-10-2007 12:31:26 9.1 C 6.21 g/m*3 9.1 C 0 km/h
1545 25-10-2007 12:34:27 9.2 C 6.25 g/m*3 9.2 C 0 km/h
1546 25-10-2007 12:37:27 9.3 C 6.29 g/m*3 9.3 C 0 km/h
1547 25-10-2007 12:40:27 9.4 C 6.33 g/m*3 9.4 C 0 km/h
1548 25-10-2007 12:43:27 9.5 C 6.37 g/m*3 9.5 C 0 km/h
1549 25-10-2007 12:46:27 9.6 C 6.32 g/m*3 9.6 C 0 km/h
1550 25-10-2007 12:49:27 9.6 C 6.23 g/m*3 9.6 C 0 km/h
Sensor: Nr:Datum:Temp:Abs-Feuchte:Windchill:Wind:
Aussen-T/F 1551 25-10-2007 12:52:27 9.8 C 6.22 g/m*3 9.8 C 0 km/h
1552 25-10-2007 12:55:27 9.8 C 6.22 g/m*3 9.8 C 0 km/h
1553 25-10-2007 12:58:27 10 C 6.2 g/m*3 10 C 0 km/h
1554 25-10-2007 13:01:27 10.1 C 6.34 g/m*3 10.1 C 0 km/h
1555 25-10-2007 13:04:27 10.3 C 6.32 g/m*3 10.3 C 0 km/h
1556 25-10-2007 13:07:27 10.4 C 6.26 g/m*3 10.4 C 0 km/h
1557 25-10-2007 13:10:27 10.5 C 6.3 g/m*3 10.5 C 0 km/h
1558 25-10-2007 13:13:27 10.6 C 6.25 g/m*3 10.6 C 0 km/h
1559 25-10-2007 13:16:27 10.7 C 6.29 g/m*3 10.7 C 0 km/h
1560 25-10-2007 13:19:27 10.8 C 6.23 g/m*3 10.8 C 0 km/h
1561 25-10-2007 13:22:27 10.8 C 6.23 g/m*3 10.8 C 0 km/h
1562 25-10-2007 13:25:27 10.9 C 6.27 g/m*3 10.9 C 0 km/h
1563 25-10-2007 13:28:27 10.9 C 6.27 g/m*3 10.9 C 0 km/h
1564 25-10-2007 13:31:27 10.9 C 6.27 g/m*3 10.9 C 0 km/h
1565 25-10-2007 13:34:27 10.9 C 6.17 g/m*3 10.9 C 0 km/h
1566 25-10-2007 13:37:28 11 C 6.21 g/m*3 11 C 0 km/h
1567 25-10-2007 13:40:28 11 C 6.11 g/m*3 11 C 0 km/h
1568 25-10-2007 13:43:28 11 C 6.11 g/m*3 11 C 0 km/h
1569 25-10-2007 13:46:28 11 C 6.11 g/m*3 11 C 0 km/h
1570 25-10-2007 13:49:28 11.1 C 6.25 g/m*3 11.1 C 0 km/h
1571 25-10-2007 13:52:28 11.1 C 6.14 g/m*3 11.1 C 0 km/h
1572 25-10-2007 13:55:28 11.1 C 6.14 g/m*3 11.1 C 0 km/h
1573 25-10-2007 13:58:28 11.1 C 6.14 g/m*3 11.1 C 0 km/h
1574 25-10-2007 14:01:28 11.1 C 6.04 g/m*3 11.1 C 0 km/h
1575 25-10-2007 14:04:28 11.2 C 6.08 g/m*3 11.2 C 0 km/h
Sensor: Nr:Datum:Temp:Abs-Feuchte:Windchill:Wind:
Aussen-T/F 1576 25-10-2007 14:07:28 11.2 C 6.18 g/m*3 11.2 C 0 km/h
1577 25-10-2007 14:10:28 11.3 C 6.22 g/m*3 11.3 C 0 km/h
1578 25-10-2007 14:13:28 11.3 C 6.12 g/m*3 11.3 C 0 km/h
1579 25-10-2007 14:16:28 11.4 C 6.16 g/m*3 11.4 C 0 km/h
1580 25-10-2007 14:19:28 11.4 C 6.16 g/m*3 11.4 C 0 km/h
1581 25-10-2007 14:22:28 11.4 C 6.16 g/m*3 11.4 C 0 km/h
1582 25-10-2007 14:25:28 11.3 C 6.12 g/m*3 11.3 C 0 km/h
1583 25-10-2007 14:28:28 11.2 C 6.08 g/m*3 11.2 C 0 km/h
1584 25-10-2007 14:31:28 11.2 C 6.08 g/m*3 11.2 C 0 km/h
1585 25-10-2007 14:34:29 11.1 C 6.04 g/m*3 11.1 C 0 km/h
1586 25-10-2007 14:37:29 11 C 6.11 g/m*3 11 C 0 km/h
1587 25-10-2007 14:40:29 11 C 6.11 g/m*3 11 C 0 km/h
1588 25-10-2007 14:43:29 11 C 6.21 g/m*3 11 C 0 km/h
1589 25-10-2007 14:46:29 11.1 C 6.25 g/m*3 11.1 C 0 km/h
1590 25-10-2007 14:49:29 11.1 C 6.14 g/m*3 11.1 C 0 km/h
1591 25-10-2007 14:52:29 11 C 6.11 g/m*3 11 C 0 km/h
1592 25-10-2007 14:55:29 11 C 6.21 g/m*3 11 C 0 km/h
1593 25-10-2007 14:58:29 11 C 6.21 g/m*3 11 C 0 km/h
1594 25-10-2007 15:01:29 10.9 C 6.27 g/m*3 10.9 C 0 km/h
1595 25-10-2007 15:04:29 10.9 C 6.27 g/m*3 10.9 C 0 km/h
1596 25-10-2007 15:07:29 10.8 C 6.23 g/m*3 10.8 C 0 km/h
1597 25-10-2007 15:10:29 10.7 C 6.19 g/m*3 10.7 C 0 km/h
1598 25-10-2007 15:13:29 10.7 C 6.29 g/m*3 10.7 C 0 km/h
1599 25-10-2007 15:16:29 10.7 C 6.29 g/m*3 10.7 C 0 km/h
1600 25-10-2007 15:19:29 10.7 C 6.29 g/m*3 10.7 C 0 km/h
Sensor: Nr:Datum:Temp:Abs-Feuchte:Windchill:Wind:
Aussen-T/F 1601 25-10-2007 15:22:29 10.6 C 6.25 g/m*3 10.6 C 0 km/h
1602 25-10-2007 15:25:29 10.7 C 6.29 g/m*3 10.7 C 0 km/h
1603 25-10-2007 15:28:29 10.6 C 6.25 g/m*3 10.6 C 0 km/h
1604 25-10-2007 15:31:29 10.6 C 6.25 g/m*3 10.6 C 0 km/h
1605 25-10-2007 15:34:30 10.6 C 6.25 g/m*3 10.6 C 0 km/h
1606 25-10-2007 15:37:30 10.6 C 6.25 g/m*3 10.6 C 0 km/h
1607 25-10-2007 15:40:30 10.6 C 6.25 g/m*3 10.6 C 0 km/h
1608 25-10-2007 15:43:30 10.6 C 6.25 g/m*3 10.6 C 0 km/h
1609 25-10-2007 15:46:30 10.6 C 6.25 g/m*3 10.6 C 0 km/h
1610 25-10-2007 15:49:30 10.6 C 6.25 g/m*3 10.6 C 0 km/h
1611 25-10-2007 15:52:30 10.6 C 6.25 g/m*3 10.6 C 0 km/h
1612 25-10-2007 15:55:30 10.6 C 6.34 g/m*3 10.6 C 0 km/h
1613 25-10-2007 15:58:30 10.6 C 6.34 g/m*3 10.6 C 0 km/h
1614 25-10-2007 16:01:30 10.5 C 6.3 g/m*3 10.5 C 0 km/h
1615 25-10-2007 16:04:30 10.5 C 6.3 g/m*3 10.5 C 0 km/h
1616 25-10-2007 16:07:30 10.5 C 6.21 g/m*3 10.5 C 0 km/h
1617 25-10-2007 16:10:30 10.5 C 6.21 g/m*3 10.5 C 0 km/h
1618 25-10-2007 16:13:30 10.5 C 6.3 g/m*3 10.5 C 0 km/h
1619 25-10-2007 16:16:30 10.5 C 6.3 g/m*3 10.5 C 0 km/h
1620 25-10-2007 16:19:30 10.5 C 6.3 g/m*3 10.5 C 0 km/h
1621 25-10-2007 16:22:30 10.5 C 6.3 g/m*3 10.5 C 0 km/h
1622 25-10-2007 16:25:30 10.5 C 6.3 g/m*3 10.5 C 0 km/h
1623 25-10-2007 16:28:30 10.5 C 6.3 g/m*3 10.5 C 0 km/h
1624 25-10-2007 16:31:31 10.5 C 6.3 g/m*3 10.5 C 0 km/h
1625 25-10-2007 16:34:31 10.4 C 6.26 g/m*3 10.4 C 0 km/h
Sensor: Nr:Datum:Temp:Abs-Feuchte:Windchill:Wind:
Aussen-T/F 1626 25-10-2007 16:37:31 10.5 C 6.3 g/m*3 10.5 C 0 km/h
1627 25-10-2007 16:40:31 10.4 C 6.26 g/m*3 10.4 C 0 km/h
1628 25-10-2007 16:43:31 10.4 C 6.36 g/m*3 10.4 C 0 km/h
1629 25-10-2007 16:46:31 10.3 C 6.32 g/m*3 10.3 C 0 km/h
1630 25-10-2007 16:49:31 10.2 C 6.28 g/m*3 10.2 C 0 km/h
1631 25-10-2007 16:52:31 10.2 C 6.28 g/m*3 10.2 C 0 km/h
1632 25-10-2007 16:55:31 10.1 C 6.24 g/m*3 10.1 C 0 km/h
1633 25-10-2007 16:58:31 10.1 C 6.24 g/m*3 10.1 C 0 km/h
1634 25-10-2007 17:01:31 10.1 C 6.34 g/m*3 10.1 C 0 km/h
1635 25-10-2007 17:04:31 10 C 6.3 g/m*3 10 C 0 km/h
1636 25-10-2007 17:07:31 10 C 6.3 g/m*3 10 C 0 km/h
1637 25-10-2007 17:10:31 9.9 C 6.35 g/m*3 9.9 C 0 km/h
1638 25-10-2007 17:13:31 9.9 C 6.35 g/m*3 9.9 C 0 km/h
1639 25-10-2007 17:16:31 9.9 C 6.44 g/m*3 9.9 C 0 km/h
1640 25-10-2007 17:19:31 10 C 6.39 g/m*3 10 C 0 km/h
1641 25-10-2007 17:22:31 9.9 C 6.44 g/m*3 9.9 C 0 km/h
1642 25-10-2007 17:25:32 9.9 C 6.44 g/m*3 9.9 C 0 km/h
1643 25-10-2007 17:28:32 9.8 C 6.4 g/m*3 9.8 C 0 km/h
1644 25-10-2007 17:31:32 9.8 C 6.4 g/m*3 9.8 C 0 km/h
1645 25-10-2007 17:34:32 9.8 C 6.49 g/m*3 9.8 C 0 km/h
1646 25-10-2007 17:37:32 9.7 C 6.45 g/m*3 9.7 C 0 km/h
1647 25-10-2007 17:40:32 9.7 C 6.45 g/m*3 9.7 C 0 km/h
1648 25-10-2007 17:43:32 9.7 C 6.45 g/m*3 9.7 C 0 km/h
1649 25-10-2007 17:46:32 9.7 C 6.45 g/m*3 9.7 C 0 km/h
1650 25-10-2007 17:49:32 9.7 C 6.45 g/m*3 9.7 C 0 km/h
Sensor: Nr:Datum:Temp:Abs-Feuchte:Windchill:Wind:
Aussen-T/F 1651 25-10-2007 17:52:32 9.7 C 6.45 g/m*3 9.7 C 0 km/h
1652 25-10-2007 17:55:32 9.6 C 6.41 g/m*3 9.6 C 0 km/h
1653 25-10-2007 17:58:32 9.6 C 6.41 g/m*3 9.6 C 0 km/h
1654 25-10-2007 18:01:32 9.6 C 6.41 g/m*3 9.6 C 0 km/h
1655 25-10-2007 18:04:32 9.6 C 6.41 g/m*3 9.6 C 0 km/h
1656 25-10-2007 18:07:32 9.6 C 6.41 g/m*3 9.6 C 0 km/h
1657 25-10-2007 18:10:32 9.6 C 6.41 g/m*3 9.6 C 0 km/h
1658 25-10-2007 18:13:32 9.6 C 6.41 g/m*3 9.6 C 0 km/h
1659 25-10-2007 18:16:32 9.6 C 6.41 g/m*3 9.6 C 0 km/h
1660 25-10-2007 18:19:32 9.6 C 6.41 g/m*3 9.6 C 0 km/h
1661 25-10-2007 18:22:33 9.5 C 6.37 g/m*3 9.5 C 0 km/h
1662 25-10-2007 18:25:33 9.5 C 6.37 g/m*3 9.5 C 0 km/h
1663 25-10-2007 18:28:33 9.5 C 6.37 g/m*3 9.5 C 0 km/h
1664 25-10-2007 18:31:33 9.5 C 6.46 g/m*3 9.5 C 0 km/h
1665 25-10-2007 18:34:33 9.5 C 6.46 g/m*3 9.5 C 0 km/h
1666 25-10-2007 18:37:33 9.5 C 6.46 g/m*3 9.5 C 0 km/h
1667 25-10-2007 18:40:33 9.5 C 6.46 g/m*3 9.5 C 0 km/h
1668 25-10-2007 18:43:33 9.5 C 6.46 g/m*3 9.5 C 0 km/h
1669 25-10-2007 18:46:33 9.4 C 6.51 g/m*3 9.4 C 0 km/h
1670 25-10-2007 18:49:33 9.3 C 6.47 g/m*3 9.3 C 0 km/h
1671 25-10-2007 18:52:33 9.3 C 6.47 g/m*3 9.3 C 0 km/h
1672 25-10-2007 18:55:33 9.3 C 6.47 g/m*3 9.3 C 0 km/h
1673 25-10-2007 18:58:33 9.3 C 6.47 g/m*3 9.3 C 0 km/h
1674 25-10-2007 19:01:33 9.3 C 6.47 g/m*3 9.3 C 0 km/h
1675 25-10-2007 19:04:33 9.3 C 6.47 g/m*3 9.3 C 0 km/h
Sensor: Nr:Datum:Temp:Abs-Feuchte:Windchill:Wind:
Aussen-T/F 1676 25-10-2007 19:07:33 9.2 C 6.43 g/m*3 9.2 C 0 km/h
1677 25-10-2007 19:10:33 9.2 C 6.52 g/m*3 9.2 C 0 km/h
1678 25-10-2007 19:13:33 9.2 C 6.52 g/m*3 9.2 C 0 km/h
1679 25-10-2007 19:16:33 9.2 C 6.52 g/m*3 9.2 C 0 km/h
1680 25-10-2007 19:19:34 9.2 C 6.52 g/m*3 9.2 C 0 km/h
1681 25-10-2007 19:22:34 9.2 C 6.52 g/m*3 9.2 C 0 km/h
1682 25-10-2007 19:25:34 9.2 C 6.52 g/m*3 9.2 C 0 km/h
1683 25-10-2007 19:28:34 9.1 C 6.48 g/m*3 9.1 C 0 km/h
1684 25-10-2007 19:31:34 9.1 C 6.48 g/m*3 9.1 C 0 km/h
1685 25-10-2007 19:34:34 9.1 C 6.48 g/m*3 9.1 C 0 km/h
1686 25-10-2007 19:37:34 9.1 C 6.48 g/m*3 9.1 C 0 km/h
1687 25-10-2007 19:40:34 9.1 C 6.57 g/m*3 9.1 C 0 km/h
1688 25-10-2007 19:43:34 9.1 C 6.57 g/m*3 9.1 C 0 km/h
1689 25-10-2007 19:46:34 9.1 C 6.57 g/m*3 9.1 C 0 km/h
1690 25-10-2007 19:49:34 9.1 C 6.48 g/m*3 9.1 C 0 km/h
1691 25-10-2007 19:52:34 9.1 C 6.57 g/m*3 9.1 C 0 km/h
1692 25-10-2007 19:55:34 9.1 C 6.57 g/m*3 9.1 C 0 km/h
1693 25-10-2007 19:58:34 9.1 C 6.57 g/m*3 9.1 C 0 km/h
1694 25-10-2007 20:01:34 9.1 C 6.57 g/m*3 9.1 C 0 km/h
1695 25-10-2007 20:04:34 9.1 C 6.48 g/m*3 9.1 C 0 km/h
1696 25-10-2007 20:07:34 9.1 C 6.48 g/m*3 9.1 C 0 km/h
1697 25-10-2007 20:10:34 9.1 C 6.48 g/m*3 9.1 C 0 km/h
1698 25-10-2007 20:13:34 9.1 C 6.48 g/m*3 9.1 C 0 km/h
1699 25-10-2007 20:16:34 9.1 C 6.48 g/m*3 9.1 C 0 km/h
1700 25-10-2007 20:19:35 9.1 C 6.48 g/m*3 9.1 C 0 km/h
Sensor: Nr:Datum:Temp:Abs-Feuchte:Windchill:Wind:
Aussen-T/F 1701 25-10-2007 20:22:35 9.1 C 6.48 g/m*3 9.1 C 0 km/h
1702 25-10-2007 20:25:35 9.1 C 6.39 g/m*3 9.1 C 0 km/h
1703 25-10-2007 20:28:35 9.1 C 6.39 g/m*3 9.1 C 0 km/h
1704 25-10-2007 20:31:35 9.1 C 6.39 g/m*3 9.1 C 0 km/h
1705 25-10-2007 20:34:35 9.1 C 6.39 g/m*3 9.1 C 0 km/h
1706 25-10-2007 20:37:35 9.1 C 6.39 g/m*3 9.1 C 0 km/h
1707 25-10-2007 20:40:35 9.1 C 6.39 g/m*3 9.1 C 0 km/h
1708 25-10-2007 20:43:35 9.1 C 6.48 g/m*3 9.1 C 0 km/h
1709 25-10-2007 20:46:35 9.1 C 6.48 g/m*3 9.1 C 0 km/h
1710 25-10-2007 20:49:35 9 C 6.44 g/m*3 9 C 0 km/h
1711 25-10-2007 20:52:35 9 C 6.44 g/m*3 9 C 0 km/h
1712 25-10-2007 20:55:35 9 C 6.44 g/m*3 9 C 0 km/h
1713 25-10-2007 20:58:35 9 C 6.44 g/m*3 9 C 0 km/h
1714 25-10-2007 21:01:35 9 C 6.44 g/m*3 9 C 0 km/h
1715 25-10-2007 21:04:35 9 C 6.44 g/m*3 9 C 0 km/h
1716 25-10-2007 21:07:35 9 C 6.44 g/m*3 9 C 0 km/h
1717 25-10-2007 21:10:35 9 C 6.35 g/m*3 9 C 0 km/h
1718 25-10-2007 21:13:35 9 C 6.35 g/m*3 9 C 0 km/h
1719 25-10-2007 21:16:35 9 C 6.35 g/m*3 9 C 0 km/h
1720 25-10-2007 21:19:36 9 C 6.35 g/m*3 9 C 0 km/h
1721 25-10-2007 21:22:36 9 C 6.35 g/m*3 9 C 0 km/h
1722 25-10-2007 21:25:36 8.9 C 6.48 g/m*3 8.9 C 0 km/h
1723 25-10-2007 21:28:36 8.9 C 6.48 g/m*3 8.9 C 0 km/h
1724 25-10-2007 21:31:36 8.9 C 6.48 g/m*3 8.9 C 0 km/h
1725 25-10-2007 21:34:36 8.9 C 6.48 g/m*3 8.9 C 0 km/h
Sensor: Nr:Datum:Temp:Abs-Feuchte:Windchill:Wind:
Aussen-T/F 1726 25-10-2007 21:37:36 8.9 C 6.48 g/m*3 8.9 C 0 km/h
1727 25-10-2007 21:40:36 8.9 C 6.39 g/m*3 8.9 C 0 km/h
1728 25-10-2007 21:43:36 8.9 C 6.39 g/m*3 8.9 C 0 km/h
1729 25-10-2007 21:46:36 8.9 C 6.39 g/m*3 8.9 C 0 km/h
1730 25-10-2007 21:49:36 8.8 C 6.35 g/m*3 8.8 C 0 km/h
1731 25-10-2007 21:52:36 8.8 C 6.35 g/m*3 8.8 C 0 km/h
1732 25-10-2007 21:55:36 8.8 C 6.35 g/m*3 8.8 C 0 km/h
1733 25-10-2007 21:58:36 8.8 C 6.35 g/m*3 8.8 C 0 km/h
1734 25-10-2007 22:01:36 8.7 C 6.4 g/m*3 8.7 C 0 km/h
1735 25-10-2007 22:04:36 8.7 C 6.31 g/m*3 8.7 C 0 km/h
1736 25-10-2007 22:07:36 8.7 C 6.31 g/m*3 8.7 C 0 km/h
1737 25-10-2007 22:10:36 8.7 C 6.31 g/m*3 8.7 C 0 km/h
1738 25-10-2007 22:13:36 8.7 C 6.31 g/m*3 8.7 C 0 km/h
1739 25-10-2007 22:16:36 8.7 C 6.31 g/m*3 8.7 C 0 km/h
1740 25-10-2007 22:19:37 8.7 C 6.31 g/m*3 8.7 C 0 km/h
1741 25-10-2007 22:22:37 8.7 C 6.31 g/m*3 8.7 C 0 km/h
1742 25-10-2007 22:25:37 8.7 C 6.31 g/m*3 8.7 C 0 km/h
1743 25-10-2007 22:28:37 8.7 C 6.31 g/m*3 8.7 C 0 km/h
1744 25-10-2007 22:31:37 8.7 C 6.31 g/m*3 8.7 C 0 km/h
1745 25-10-2007 22:34:37 8.7 C 6.31 g/m*3 8.7 C 0 km/h
1746 25-10-2007 22:37:37 8.6 C 6.27 g/m*3 8.6 C 0 km/h
1747 25-10-2007 22:40:37 8.6 C 6.27 g/m*3 8.6 C 0 km/h
1748 25-10-2007 22:43:37 8.6 C 6.27 g/m*3 8.6 C 0 km/h
1749 25-10-2007 22:46:37 8.6 C 6.27 g/m*3 8.6 C 0 km/h
1750 25-10-2007 22:49:37 8.6 C 6.27 g/m*3 8.6 C 0 km/h
Sensor: Nr:Datum:Temp:Abs-Feuchte:Windchill:Wind:
Aussen-T/F 1751 25-10-2007 22:52:37 8.6 C 6.27 g/m*3 8.6 C 0 km/h
1752 25-10-2007 22:55:37 8.6 C 6.27 g/m*3 8.6 C 0 km/h
1753 25-10-2007 22:58:37 8.6 C 6.27 g/m*3 8.6 C 0 km/h
1754 25-10-2007 23:01:37 8.5 C 6.23 g/m*3 8.5 C 0 km/h
1755 25-10-2007 23:04:37 8.5 C 6.15 g/m*3 8.5 C 0 km/h
1756 25-10-2007 23:07:37 8.5 C 6.15 g/m*3 8.5 C 0 km/h
1757 25-10-2007 23:10:37 8.5 C 6.15 g/m*3 8.5 C 0 km/h
1758 25-10-2007 23:13:37 8.5 C 6.15 g/m*3 8.5 C 0 km/h
1759 25-10-2007 23:16:37 8.5 C 6.15 g/m*3 8.5 C 0 km/h
1760 25-10-2007 23:19:38 8.5 C 6.15 g/m*3 8.5 C 0 km/h
1761 25-10-2007 23:22:38 8.5 C 6.15 g/m*3 8.5 C 0 km/h
1762 25-10-2007 23:25:38 8.5 C 6.15 g/m*3 8.5 C 0 km/h
1763 25-10-2007 23:28:38 8.5 C 6.15 g/m*3 8.5 C 0 km/h
1764 25-10-2007 23:31:38 8.5 C 6.15 g/m*3 8.5 C 0 km/h
1765 25-10-2007 23:34:38 8.5 C 6.15 g/m*3 8.5 C 0 km/h
1766 25-10-2007 23:37:38 8.5 C 6.15 g/m*3 8.5 C 0 km/h
1767 25-10-2007 23:40:38 8.5 C 6.15 g/m*3 8.5 C 0 km/h
1768 25-10-2007 23:43:38 8.5 C 6.15 g/m*3 8.5 C 0 km/h
1769 25-10-2007 23:46:38 8.4 C 6.11 g/m*3 8.4 C 0 km/h
1770 25-10-2007 23:49:38 8.4 C 6.11 g/m*3 8.4 C 0 km/h
1771 25-10-2007 23:52:38 8.4 C 6.11 g/m*3 8.4 C 0 km/h
1772 25-10-2007 23:55:38 8.4 C 6.11 g/m*3 8.4 C 0 km/h
1773 25-10-2007 23:58:38 8.4 C 6.19 g/m*3 8.4 C 0 km/h
1774 26-10-2007 00:01:38 8.4 C 6.19 g/m*3 8.4 C 0 km/h
1775 26-10-2007 00:04:38 8.4 C 6.19 g/m*3 8.4 C 0 km/h
Sensor: Nr:Datum:Temp:Abs-Feuchte:Windchill:Wind:
Aussen-T/F 1776 26-10-2007 00:07:38 8.4 C 6.19 g/m*3 8.4 C 0 km/h
1777 26-10-2007 00:10:38 8.4 C 6.11 g/m*3 8.4 C 0 km/h
1778 26-10-2007 00:13:38 8.4 C 6.19 g/m*3 8.4 C 0 km/h
1779 26-10-2007 00:16:39 8.4 C 6.19 g/m*3 8.4 C 0 km/h
1780 26-10-2007 00:19:39 8.3 C 6.07 g/m*3 8.3 C 0 km/h
1781 26-10-2007 00:22:39 8.3 C 6.07 g/m*3 8.3 C 0 km/h
1782 26-10-2007 00:25:39 8.4 C 6.19 g/m*3 8.4 C 0 km/h
1783 26-10-2007 00:28:39 8.3 C 6.15 g/m*3 8.3 C 0 km/h
1784 26-10-2007 00:31:39 8.3 C 6.15 g/m*3 8.3 C 0 km/h
1785 26-10-2007 00:34:39 8.3 C 6.15 g/m*3 8.3 C 0 km/h
1786 26-10-2007 00:37:39 8.3 C 6.15 g/m*3 8.3 C 0 km/h
1787 26-10-2007 00:40:39 8.2 C 6.11 g/m*3 8.2 C 0 km/h
1788 26-10-2007 00:43:39 8.2 C 6.11 g/m*3 8.2 C 0 km/h
1789 26-10-2007 00:46:39 8.2 C 6.11 g/m*3 8.2 C 0 km/h
1790 26-10-2007 00:49:39 8.2 C 6.11 g/m*3 8.2 C 0 km/h
1791 26-10-2007 00:52:39 8.2 C 6.11 g/m*3 8.2 C 0 km/h
1792 26-10-2007 00:55:39 8.2 C 6.11 g/m*3 8.2 C 0 km/h
1793 26-10-2007 00:58:39 8.2 C 6.11 g/m*3 8.2 C 0 km/h
1794 26-10-2007 01:01:39 8.2 C 6.11 g/m*3 8.2 C 0 km/h
1795 26-10-2007 01:04:39 8.2 C 6.11 g/m*3 8.2 C 0 km/h
1796 26-10-2007 01:07:39 8.2 C 6.11 g/m*3 8.2 C 0 km/h
1797 26-10-2007 01:10:39 8.2 C 6.11 g/m*3 8.2 C 0 km/h
1798 26-10-2007 01:13:40 8.2 C 6.11 g/m*3 8.2 C 0 km/h
1799 26-10-2007 01:16:40 8.2 C 6.2 g/m*3 8.2 C 0 km/h
1800 26-10-2007 01:19:40 8.2 C 6.2 g/m*3 8.2 C 0 km/h
Sensor: Nr:Datum:Temp:Abs-Feuchte:Windchill:Wind:
Aussen-T/F 1801 26-10-2007 01:22:40 8.2 C 6.2 g/m*3 8.2 C 0 km/h
1802 26-10-2007 01:25:40 8.2 C 6.2 g/m*3 8.2 C 0 km/h
1803 26-10-2007 01:28:40 8.1 C 6.16 g/m*3 8.1 C 0 km/h
1804 26-10-2007 01:31:40 8.1 C 6.16 g/m*3 8.1 C 0 km/h
1805 26-10-2007 01:34:40 8.1 C 6.16 g/m*3 8.1 C 0 km/h
1806 26-10-2007 01:37:40 8.1 C 6.16 g/m*3 8.1 C 0 km/h
1807 26-10-2007 01:40:40 8.1 C 6.16 g/m*3 8.1 C 0 km/h
1808 26-10-2007 01:43:40 8.1 C 6.07 g/m*3 8.1 C 0 km/h
1809 26-10-2007 01:46:40 8.1 C 6.07 g/m*3 8.1 C 0 km/h
1810 26-10-2007 01:49:40 8.1 C 6.07 g/m*3 8.1 C 0 km/h
1811 26-10-2007 01:52:40 8.1 C 6.16 g/m*3 8.1 C 0 km/h
1812 26-10-2007 01:55:40 8.1 C 6.16 g/m*3 8.1 C 0 km/h
1813 26-10-2007 01:58:40 8.1 C 6.16 g/m*3 8.1 C 0 km/h
1814 26-10-2007 02:01:40 8.1 C 6.16 g/m*3 8.1 C 0 km/h
1815 26-10-2007 02:04:40 8.1 C 6.16 g/m*3 8.1 C 0 km/h
1816 26-10-2007 02:07:40 8.1 C 6.16 g/m*3 8.1 C 0 km/h
1817 26-10-2007 02:10:41 8.1 C 6.16 g/m*3 8.1 C 0 km/h
1818 26-10-2007 02:13:41 8.1 C 6.16 g/m*3 8.1 C 0 km/h
1819 26-10-2007 02:16:41 8.1 C 6.16 g/m*3 8.1 C 0 km/h
1820 26-10-2007 02:19:41 8 C 6.12 g/m*3 8 C 0 km/h
1821 26-10-2007 02:22:41 8 C 6.12 g/m*3 8 C 0 km/h
1822 26-10-2007 02:25:41 8.1 C 6.16 g/m*3 8.1 C 0 km/h
1823 26-10-2007 02:28:41 8.1 C 6.16 g/m*3 8.1 C 0 km/h
1824 26-10-2007 02:31:41 8.1 C 6.16 g/m*3 8.1 C 0 km/h
1825 26-10-2007 02:34:41 8.1 C 6.16 g/m*3 8.1 C 0 km/h
Sensor: Nr:Datum:Temp:Abs-Feuchte:Windchill:Wind:
Aussen-T/F 1826 26-10-2007 02:37:41 8.1 C 6.16 g/m*3 8.1 C 0 km/h
1827 26-10-2007 02:40:41 8 C 6.12 g/m*3 8 C 0 km/h
1828 26-10-2007 02:43:41 8 C 6.12 g/m*3 8 C 0 km/h
1829 26-10-2007 02:46:41 8 C 6.12 g/m*3 8 C 0 km/h
1830 26-10-2007 02:49:41 8 C 6.12 g/m*3 8 C 0 km/h
1831 26-10-2007 02:52:41 8 C 6.12 g/m*3 8 C 0 km/h
1832 26-10-2007 02:55:41 8 C 6.12 g/m*3 8 C 0 km/h
1833 26-10-2007 02:58:41 8 C 6.12 g/m*3 8 C 0 km/h
1834 26-10-2007 03:01:41 8 C 6.12 g/m*3 8 C 0 km/h
1835 26-10-2007 03:04:41 8 C 6.2 g/m*3 8 C 0 km/h
1836 26-10-2007 03:07:42 8 C 6.2 g/m*3 8 C 0 km/h
1837 26-10-2007 03:10:42 8 C 6.2 g/m*3 8 C 0 km/h
1838 26-10-2007 03:13:42 8 C 6.2 g/m*3 8 C 0 km/h
1839 26-10-2007 03:16:42 8 C 6.12 g/m*3 8 C 0 km/h
1840 26-10-2007 03:19:42 8 C 6.12 g/m*3 8 C 0 km/h
1841 26-10-2007 03:22:42 8 C 6.12 g/m*3 8 C 0 km/h
1842 26-10-2007 03:25:42 8 C 6.12 g/m*3 8 C 0 km/h
1843 26-10-2007 03:28:42 8 C 6.12 g/m*3 8 C 0 km/h
1844 26-10-2007 03:31:42 8 C 6.12 g/m*3 8 C 0 km/h
1845 26-10-2007 03:34:42 8 C 6.12 g/m*3 8 C 0 km/h
1846 26-10-2007 03:37:42 8 C 6.12 g/m*3 8 C 0 km/h
1847 26-10-2007 03:40:42 7.9 C 6.16 g/m*3 7.9 C 0 km/h
1848 26-10-2007 03:43:42 7.9 C 6.16 g/m*3 7.9 C 0 km/h
1849 26-10-2007 03:46:42 7.9 C 6.24 g/m*3 7.9 C 0 km/h
1850 26-10-2007 03:49:42 7.9 C 6.24 g/m*3 7.9 C 0 km/h
Sensor: Nr:Datum:Temp:Abs-Feuchte:Windchill:Wind:
Aussen-T/F 1851 26-10-2007 03:52:42 7.9 C 6.24 g/m*3 7.9 C 0 km/h
1852 26-10-2007 03:55:42 7.9 C 6.24 g/m*3 7.9 C 0 km/h
1853 26-10-2007 03:58:42 7.9 C 6.24 g/m*3 7.9 C 0 km/h
1854 26-10-2007 04:01:42 7.9 C 6.24 g/m*3 7.9 C 0 km/h
1855 26-10-2007 04:04:42 7.9 C 6.24 g/m*3 7.9 C 0 km/h
1856 26-10-2007 04:07:43 7.9 C 6.24 g/m*3 7.9 C 0 km/h
1857 26-10-2007 04:10:43 7.9 C 6.24 g/m*3 7.9 C 0 km/h
1858 26-10-2007 04:13:43 7.9 C 6.24 g/m*3 7.9 C 0 km/h
1859 26-10-2007 04:16:43 7.9 C 6.32 g/m*3 7.9 C 0 km/h
1860 26-10-2007 04:19:43 7.9 C 6.32 g/m*3 7.9 C 0 km/h
1861 26-10-2007 04:22:43 7.9 C 6.32 g/m*3 7.9 C 0 km/h
1862 26-10-2007 04:25:43 7.9 C 6.32 g/m*3 7.9 C 0 km/h
1863 26-10-2007 04:28:43 7.9 C 6.32 g/m*3 7.9 C 0 km/h
1864 26-10-2007 04:31:43 7.9 C 6.32 g/m*3 7.9 C 0 km/h
1865 26-10-2007 04:34:43 7.9 C 6.32 g/m*3 7.9 C 0 km/h
1866 26-10-2007 04:37:43 7.9 C 6.24 g/m*3 7.9 C 0 km/h
1867 26-10-2007 04:40:43 7.9 C 6.24 g/m*3 7.9 C 0 km/h
1868 26-10-2007 04:43:43 7.9 C 6.24 g/m*3 7.9 C 0 km/h
1869 26-10-2007 04:46:43 7.9 C 6.24 g/m*3 7.9 C 0 km/h
1870 26-10-2007 04:49:43 7.9 C 6.24 g/m*3 7.9 C 0 km/h
1871 26-10-2007 04:52:43 7.9 C 6.24 g/m*3 7.9 C 0 km/h
1872 26-10-2007 04:55:43 7.9 C 6.24 g/m*3 7.9 C 0 km/h
1873 26-10-2007 04:58:43 7.9 C 6.24 g/m*3 7.9 C 0 km/h
1874 26-10-2007 05:01:43 7.9 C 6.24 g/m*3 7.9 C 0 km/h
1875 26-10-2007 05:04:44 7.9 C 6.24 g/m*3 7.9 C 0 km/h
Sensor: Nr:Datum:Temp:Abs-Feuchte:Windchill:Wind:
Aussen-T/F 1876 26-10-2007 05:07:44 7.9 C 6.24 g/m*3 7.9 C 0 km/h
1877 26-10-2007 05:10:44 7.9 C 6.24 g/m*3 7.9 C 0 km/h
1878 26-10-2007 05:13:44 7.9 C 6.24 g/m*3 7.9 C 0 km/h
1879 26-10-2007 05:16:44 7.9 C 6.24 g/m*3 7.9 C 0 km/h
1880 26-10-2007 05:19:44 7.9 C 6.24 g/m*3 7.9 C 0 km/h
1881 26-10-2007 05:22:44 7.9 C 6.24 g/m*3 7.9 C 0 km/h
1882 26-10-2007 05:25:44 7.9 C 6.24 g/m*3 7.9 C 0 km/h
1883 26-10-2007 05:28:44 7.9 C 6.24 g/m*3 7.9 C 0 km/h
1884 26-10-2007 05:31:44 7.9 C 6.16 g/m*3 7.9 C 0 km/h
1885 26-10-2007 05:34:44 7.9 C 6.24 g/m*3 7.9 C 0 km/h
1886 26-10-2007 05:37:44 7.9 C 6.24 g/m*3 7.9 C 0 km/h
1887 26-10-2007 05:40:44 7.9 C 6.24 g/m*3 7.9 C 0 km/h
1888 26-10-2007 05:43:44 7.9 C 6.24 g/m*3 7.9 C 0 km/h
1889 26-10-2007 05:46:44 7.9 C 6.24 g/m*3 7.9 C 0 km/h
1890 26-10-2007 05:49:44 7.8 C 6.2 g/m*3 7.8 C 0 km/h
1891 26-10-2007 05:52:44 7.8 C 6.2 g/m*3 7.8 C 0 km/h
1892 26-10-2007 05:55:44 7.8 C 6.2 g/m*3 7.8 C 0 km/h
1893 26-10-2007 05:58:44 7.8 C 6.2 g/m*3 7.8 C 0 km/h
1894 26-10-2007 06:01:45 7.8 C 6.28 g/m*3 7.8 C 0 km/h
1895 26-10-2007 06:04:45 7.8 C 6.28 g/m*3 7.8 C 0 km/h
1896 26-10-2007 06:07:45 7.9 C 6.32 g/m*3 7.9 C 0 km/h
1897 26-10-2007 06:10:45 7.9 C 6.32 g/m*3 7.9 C 0 km/h
1898 26-10-2007 06:13:45 7.9 C 6.24 g/m*3 7.9 C 0 km/h
1899 26-10-2007 06:16:45 7.9 C 6.24 g/m*3 7.9 C 0 km/h
1900 26-10-2007 06:19:45 7.9 C 6.24 g/m*3 7.9 C 0 km/h
Sensor: Nr:Datum:Temp:Abs-Feuchte:Windchill:Wind:
Aussen-T/F 1901 26-10-2007 06:22:45 7.9 C 6.24 g/m*3 7.9 C 0 km/h
1902 26-10-2007 06:25:45 7.9 C 6.24 g/m*3 7.9 C 0 km/h
1903 26-10-2007 06:28:45 7.9 C 6.24 g/m*3 7.9 C 0 km/h
1904 26-10-2007 06:31:45 7.9 C 6.24 g/m*3 7.9 C 0 km/h
1905 26-10-2007 06:34:45 7.9 C 6.32 g/m*3 7.9 C 0 km/h
1906 26-10-2007 06:37:45 7.8 C 6.28 g/m*3 7.8 C 0 km/h
1907 26-10-2007 06:40:45 7.8 C 6.28 g/m*3 7.8 C 0 km/h
1908 26-10-2007 06:43:45 7.8 C 6.2 g/m*3 7.8 C 0 km/h
1909 26-10-2007 06:46:45 7.8 C 6.2 g/m*3 7.8 C 0 km/h
1910 26-10-2007 06:49:45 7.8 C 6.2 g/m*3 7.8 C 0 km/h
1911 26-10-2007 06:52:45 7.8 C 6.2 g/m*3 7.8 C 0 km/h
1912 26-10-2007 06:55:46 7.8 C 6.2 g/m*3 7.8 C 0 km/h
1913 26-10-2007 06:58:46 7.8 C 6.2 g/m*3 7.8 C 0 km/h
1914 26-10-2007 07:01:46 7.8 C 6.2 g/m*3 7.8 C 0 km/h
1915 26-10-2007 07:04:46 7.8 C 6.2 g/m*3 7.8 C 0 km/h
1916 26-10-2007 07:07:46 7.8 C 6.2 g/m*3 7.8 C 0 km/h
1917 26-10-2007 07:10:46 7.8 C 6.2 g/m*3 7.8 C 0 km/h
1918 26-10-2007 07:13:46 7.8 C 6.2 g/m*3 7.8 C 0 km/h
1919 26-10-2007 07:16:46 7.8 C 6.2 g/m*3 7.8 C 0 km/h
1920 26-10-2007 07:19:46 7.8 C 6.2 g/m*3 7.8 C 0 km/h
1921 26-10-2007 07:22:46 7.8 C 6.2 g/m*3 7.8 C 0 km/h
1922 26-10-2007 07:25:46 7.8 C 6.2 g/m*3 7.8 C 0 km/h
1923 26-10-2007 07:28:46 7.7 C 6.16 g/m*3 7.7 C 0 km/h
1924 26-10-2007 07:31:46 7.8 C 6.28 g/m*3 7.8 C 0 km/h
1925 26-10-2007 07:34:46 7.7 C 6.24 g/m*3 7.7 C 0 km/h
Sensor: Nr:Datum:Temp:Abs-Feuchte:Windchill:Wind:
Aussen-T/F 1926 26-10-2007 07:37:46 7.7 C 6.24 g/m*3 7.7 C 0 km/h
1927 26-10-2007 07:40:46 7.7 C 6.24 g/m*3 7.7 C 0 km/h
1928 26-10-2007 07:43:46 7.7 C 6.24 g/m*3 7.7 C 0 km/h
1929 26-10-2007 07:46:46 7.7 C 6.24 g/m*3 7.7 C 0 km/h
1930 26-10-2007 07:49:47 7.8 C 6.28 g/m*3 7.8 C 0 km/h
1931 26-10-2007 07:52:47 7.8 C 6.28 g/m*3 7.8 C 0 km/h
1932 26-10-2007 07:55:47 7.7 C 6.24 g/m*3 7.7 C 0 km/h
1933 26-10-2007 07:58:47 7.7 C 6.24 g/m*3 7.7 C 0 km/h
1934 26-10-2007 08:01:47 7.7 C 6.24 g/m*3 7.7 C 0 km/h
1935 26-10-2007 08:04:47 7.7 C 6.24 g/m*3 7.7 C 0 km/h
1936 26-10-2007 08:07:47 7.7 C 6.24 g/m*3 7.7 C 0 km/h
1937 26-10-2007 08:10:47 7.7 C 6.24 g/m*3 7.7 C 0 km/h
1938 26-10-2007 08:13:47 7.8 C 6.28 g/m*3 7.8 C 0 km/h
1939 26-10-2007 08:16:47 7.7 C 6.32 g/m*3 7.7 C 0 km/h
1940 26-10-2007 08:19:47 7.7 C 6.32 g/m*3 7.7 C 0 km/h
1941 26-10-2007 08:22:47 7.8 C 6.37 g/m*3 7.8 C 0 km/h
1942 26-10-2007 08:25:47 7.8 C 6.28 g/m*3 7.8 C 0 km/h
1943 26-10-2007 08:28:47 7.8 C 6.28 g/m*3 7.8 C 0 km/h
1944 26-10-2007 08:31:47 7.8 C 6.28 g/m*3 7.8 C 0 km/h
1945 26-10-2007 08:34:47 7.8 C 6.28 g/m*3 7.8 C 0 km/h
1946 26-10-2007 08:37:47 7.8 C 6.28 g/m*3 7.8 C 0 km/h
1947 26-10-2007 08:40:47 7.8 C 6.28 g/m*3 7.8 C 0 km/h
1948 26-10-2007 08:43:47 7.8 C 6.28 g/m*3 7.8 C 0 km/h
1949 26-10-2007 08:46:48 7.9 C 6.32 g/m*3 7.9 C 0 km/h
1950 26-10-2007 08:49:48 7.9 C 6.32 g/m*3 7.9 C 0 km/h
Sensor: Nr:Datum:Temp:Abs-Feuchte:Windchill:Wind:
Aussen-T/F 1951 26-10-2007 08:52:48 7.9 C 6.32 g/m*3 7.9 C 0 km/h
1952 26-10-2007 08:55:48 7.9 C 6.32 g/m*3 7.9 C 0 km/h
1953 26-10-2007 08:58:48 7.9 C 6.32 g/m*3 7.9 C 0 km/h
1954 26-10-2007 09:01:48 8 C 6.2 g/m*3 8 C 0 km/h
1955 26-10-2007 09:04:48 8 C 6.2 g/m*3 8 C 0 km/h
1956 26-10-2007 09:07:48 8.1 C 6.16 g/m*3 8.1 C 0 km/h
1957 26-10-2007 09:10:48 8.1 C 6.16 g/m*3 8.1 C 0 km/h
1958 26-10-2007 09:13:48 8.1 C 6.16 g/m*3 8.1 C 0 km/h
1959 26-10-2007 09:16:48 8.2 C 6.11 g/m*3 8.2 C 0 km/h
1960 26-10-2007 09:19:48 8.2 C 6.11 g/m*3 8.2 C 0 km/h
1961 26-10-2007 09:22:48 8.3 C 6.15 g/m*3 8.3 C 0 km/h
1962 26-10-2007 09:25:48 8.3 C 6.15 g/m*3 8.3 C 0 km/h
1963 26-10-2007 09:28:48 8.3 C 6.15 g/m*3 8.3 C 0 km/h
1964 26-10-2007 09:31:48 8.4 C 6.19 g/m*3 8.4 C 0 km/h
1965 26-10-2007 09:34:48 8.4 C 6.11 g/m*3 8.4 C 0 km/h
1966 26-10-2007 09:37:48 8.4 C 6.11 g/m*3 8.4 C 0 km/h
1967 26-10-2007 09:40:49 8.5 C 6.15 g/m*3 8.5 C 0 km/h
1968 26-10-2007 09:43:49 8.5 C 6.15 g/m*3 8.5 C 0 km/h
1969 26-10-2007 09:46:49 8.5 C 6.15 g/m*3 8.5 C 0 km/h
1970 26-10-2007 09:49:49 8.6 C 6.19 g/m*3 8.6 C 0 km/h
1971 26-10-2007 09:52:49 8.6 C 6.1 g/m*3 8.6 C 0 km/h
1972 26-10-2007 09:55:49 8.6 C 6.1 g/m*3 8.6 C 0 km/h
1973 26-10-2007 09:58:49 8.6 C 6.02 g/m*3 8.6 C 0 km/h
1974 26-10-2007 10:01:49 8.6 C 6.02 g/m*3 8.6 C 0 km/h
1975 26-10-2007 10:04:49 8.7 C 6.05 g/m*3 8.7 C 0 km/h
Sensor: Nr:Datum:Temp:Abs-Feuchte:Windchill:Wind:
Aussen-T/F 1976 26-10-2007 10:07:49 8.7 C 6.05 g/m*3 8.7 C 0 km/h
1977 26-10-2007 10:10:49 8.7 C 5.97 g/m*3 8.7 C 0 km/h
1978 26-10-2007 10:13:49 8.8 C 6.01 g/m*3 8.8 C 0 km/h
1979 26-10-2007 10:16:49 8.8 C 6.01 g/m*3 8.8 C 0 km/h
1980 26-10-2007 10:19:49 8.8 C 6.01 g/m*3 8.8 C 0 km/h
1981 26-10-2007 10:22:49 8.9 C 5.96 g/m*3 8.9 C 0 km/h
1982 26-10-2007 10:25:49 8.9 C 5.96 g/m*3 8.9 C 0 km/h
1983 26-10-2007 10:28:49 8.9 C 5.96 g/m*3 8.9 C 0 km/h
1984 26-10-2007 10:31:49 9 C 5.91 g/m*3 9 C 0 km/h
1985 26-10-2007 10:34:49 9 C 5.91 g/m*3 9 C 0 km/h
1986 26-10-2007 10:37:49 9 C 5.91 g/m*3 9 C 0 km/h
1987 26-10-2007 10:40:50 9.1 C 5.94 g/m*3 9.1 C 0 km/h
1988 26-10-2007 10:43:50 9.1 C 5.86 g/m*3 9.1 C 0 km/h
1989 26-10-2007 10:46:50 9.2 C 5.89 g/m*3 9.2 C 0 km/h
1990 26-10-2007 10:49:50 9.2 C 5.8 g/m*3 9.2 C 0 km/h
1991 26-10-2007 10:52:50 9.2 C 5.71 g/m*3 9.2 C 0 km/h
1992 26-10-2007 10:55:50 9.3 C 5.75 g/m*3 9.3 C 0 km/h
1993 26-10-2007 10:58:50 9.3 C 5.84 g/m*3 9.3 C 0 km/h
1994 26-10-2007 11:01:50 9.3 C 5.75 g/m*3 9.3 C 0 km/h
1995 26-10-2007 11:04:50 9.3 C 5.75 g/m*3 9.3 C 0 km/h
1996 26-10-2007 11:07:50 9.3 C 5.84 g/m*3 9.3 C 0 km/h
1997 26-10-2007 11:10:50 9.5 C 5.83 g/m*3 9.5 C 0 km/h
1998 26-10-2007 11:13:50 9.5 C 5.73 g/m*3 9.5 C 0 km/h
1999 26-10-2007 11:16:50 9.5 C 5.73 g/m*3 9.5 C 0 km/h
2000 26-10-2007 11:19:50 9.4 C 5.7 g/m*3 9.4 C 0 km/h
Sensor: Nr:Datum:Temp:Abs-Feuchte:Windchill:Wind:
Aussen-T/F 2001 26-10-2007 11:22:50 9.4 C 5.61 g/m*3 9.4 C 0 km/h
2002 26-10-2007 11:25:50 9.4 C 5.7 g/m*3 9.4 C 0 km/h
2003 26-10-2007 11:28:50 9.4 C 5.7 g/m*3 9.4 C 0 km/h
2004 26-10-2007 11:31:50 9.5 C 5.73 g/m*3 9.5 C 0 km/h
2005 26-10-2007 11:34:50 9.6 C 5.86 g/m*3 9.6 C 0 km/h
2006 26-10-2007 11:37:51 9.7 C 5.81 g/m*3 9.7 C 0 km/h
2007 26-10-2007 11:40:51 9.7 C 5.81 g/m*3 9.7 C 0 km/h
2008 26-10-2007 11:43:51 9.7 C 5.72 g/m*3 9.7 C 0 km/h
2009 26-10-2007 11:46:51 9.8 C 5.75 g/m*3 9.8 C 0 km/h
2010 26-10-2007 11:49:51 9.8 C 5.75 g/m*3 9.8 C 0 km/h
2011 26-10-2007 11:52:51 9.8 C 5.75 g/m*3 9.8 C 0 km/h
2012 26-10-2007 11:55:51 9.8 C 5.75 g/m*3 9.8 C 0 km/h
2013 26-10-2007 11:58:51 9.9 C 5.79 g/m*3 9.9 C 0 km/h
2014 26-10-2007 12:01:51 9.9 C 5.7 g/m*3 9.9 C 0 km/h
2015 26-10-2007 12:04:51 9.9 C 5.7 g/m*3 9.9 C 0 km/h
2016 26-10-2007 12:07:51 10 C 5.64 g/m*3 10 C 0 km/h
2017 26-10-2007 12:10:51 10 C 5.64 g/m*3 10 C 0 km/h
2018 26-10-2007 12:13:51 10.1 C 5.67 g/m*3 10.1 C 0 km/h
2019 26-10-2007 12:16:51 10.1 C 5.67 g/m*3 10.1 C 0 km/h
2020 26-10-2007 12:19:51 10.1 C 5.58 g/m*3 10.1 C 0 km/h
2021 26-10-2007 12:22:51 10.2 C 5.71 g/m*3 10.2 C 0 km/h
2022 26-10-2007 12:25:51 10.1 C 5.58 g/m*3 10.1 C 0 km/h
2023 26-10-2007 12:28:51 10.1 C 5.48 g/m*3 10.1 C 0 km/h
2024 26-10-2007 12:31:52 10.2 C 5.61 g/m*3 10.2 C 0 km/h
2025 26-10-2007 12:34:52 10.2 C 5.71 g/m*3 10.2 C 0 km/h
Sensor: Nr:Datum:Temp:Abs-Feuchte:Windchill:Wind:
Aussen-T/F 2026 26-10-2007 12:37:52 10.2 C 5.61 g/m*3 10.2 C 0 km/h
2027 26-10-2007 12:40:52 10.3 C 5.75 g/m*3 10.3 C 0 km/h
2028 26-10-2007 12:43:52 10.4 C 5.69 g/m*3 10.4 C 0 km/h
2029 26-10-2007 12:46:52 10.3 C 5.65 g/m*3 10.3 C 0 km/h
2030 26-10-2007 12:49:52 10.3 C 5.65 g/m*3 10.3 C 0 km/h
2031 26-10-2007 12:52:52 10.3 C 5.65 g/m*3 10.3 C 0 km/h
2032 26-10-2007 12:55:52 10.3 C 5.65 g/m*3 10.3 C 0 km/h
2033 26-10-2007 12:58:52 10.3 C 5.75 g/m*3 10.3 C 0 km/h
2034 26-10-2007 13:01:52 10.3 C 5.65 g/m*3 10.3 C 0 km/h
2035 26-10-2007 13:04:52 10.3 C 5.65 g/m*3 10.3 C 0 km/h
2036 26-10-2007 13:07:52 10.2 C 5.52 g/m*3 10.2 C 0 km/h
2037 26-10-2007 13:10:52 10.2 C 5.52 g/m*3 10.2 C 0 km/h
2038 26-10-2007 13:13:52 10.3 C 5.65 g/m*3 10.3 C 0 km/h
2039 26-10-2007 13:16:52 10.3 C 5.55 g/m*3 10.3 C 0 km/h
2040 26-10-2007 13:19:52 10.3 C 5.55 g/m*3 10.3 C 0 km/h
2041 26-10-2007 13:22:52 10.3 C 5.55 g/m*3 10.3 C 0 km/h
2042 26-10-2007 13:25:52 10.3 C 5.55 g/m*3 10.3 C 0 km/h
2043 26-10-2007 13:28:53 10.3 C 5.55 g/m*3 10.3 C 0 km/h
2044 26-10-2007 13:31:53 10.3 C 5.55 g/m*3 10.3 C 0 km/h
2045 26-10-2007 13:34:53 10.4 C 5.59 g/m*3 10.4 C 0 km/h
2046 26-10-2007 13:37:53 10.3 C 5.55 g/m*3 10.3 C 0 km/h
2047 26-10-2007 13:40:53 10.3 C 5.46 g/m*3 10.3 C 0 km/h
2048 26-10-2007 13:43:53 10.3 C 5.46 g/m*3 10.3 C 0 km/h
2049 26-10-2007 13:46:53 10.3 C 5.55 g/m*3 10.3 C 0 km/h
2050 26-10-2007 13:49:53 10.3 C 5.55 g/m*3 10.3 C 0 km/h
Sensor: Nr:Datum:Temp:Abs-Feuchte:Windchill:Wind:
Aussen-T/F 2051 26-10-2007 13:52:53 10.4 C 5.49 g/m*3 10.4 C 0 km/h
2052 26-10-2007 13:55:53 10.3 C 5.46 g/m*3 10.3 C 0 km/h
2053 26-10-2007 13:58:53 10.3 C 5.46 g/m*3 10.3 C 0 km/h
2054 26-10-2007 14:01:53 10.4 C 5.49 g/m*3 10.4 C 0 km/h
2055 26-10-2007 14:04:53 10.4 C 5.59 g/m*3 10.4 C 0 km/h
2056 26-10-2007 14:07:53 10.4 C 5.49 g/m*3 10.4 C 0 km/h
2057 26-10-2007 14:10:53 10.4 C 5.49 g/m*3 10.4 C 0 km/h
2058 26-10-2007 14:13:53 10.5 C 5.53 g/m*3 10.5 C 0 km/h
2059 26-10-2007 14:16:53 10.5 C 5.63 g/m*3 10.5 C 0 km/h
2060 26-10-2007 14:19:53 10.5 C 5.63 g/m*3 10.5 C 0 km/h
2061 26-10-2007 14:22:53 10.6 C 5.66 g/m*3 10.6 C 0 km/h
2062 26-10-2007 14:25:54 10.7 C 5.6 g/m*3 10.7 C 0 km/h
2063 26-10-2007 14:28:54 10.8 C 5.63 g/m*3 10.8 C 0 km/h
2064 26-10-2007 14:31:54 10.8 C 5.54 g/m*3 10.8 C 0 km/h
2065 26-10-2007 14:34:54 10.8 C 5.54 g/m*3 10.8 C 0 km/h
2066 26-10-2007 14:37:54 10.8 C 5.54 g/m*3 10.8 C 0 km/h
2067 26-10-2007 14:40:54 10.8 C 5.54 g/m*3 10.8 C 0 km/h
2068 26-10-2007 14:43:54 10.8 C 5.54 g/m*3 10.8 C 0 km/h
2069 26-10-2007 14:46:54 10.8 C 5.54 g/m*3 10.8 C 0 km/h
2070 26-10-2007 14:49:54 10.9 C 5.57 g/m*3 10.9 C 0 km/h
2071 26-10-2007 14:52:54 10.8 C 5.54 g/m*3 10.8 C 0 km/h
2072 26-10-2007 14:55:54 10.8 C 5.54 g/m*3 10.8 C 0 km/h
2073 26-10-2007 14:58:54 10.8 C 5.54 g/m*3 10.8 C 0 km/h
2074 26-10-2007 15:01:54 10.8 C 5.54 g/m*3 10.8 C 0 km/h
2075 26-10-2007 15:04:54 10.8 C 5.54 g/m*3 10.8 C 0 km/h
Sensor: Nr:Datum:Temp:Abs-Feuchte:Windchill:Wind:
Aussen-T/F 2076 26-10-2007 15:07:54 10.8 C 5.63 g/m*3 10.8 C 0 km/h
2077 26-10-2007 15:10:54 10.8 C 5.63 g/m*3 10.8 C 0 km/h
2078 26-10-2007 15:13:54 10.8 C 5.63 g/m*3 10.8 C 0 km/h
2079 26-10-2007 15:16:54 10.8 C 5.63 g/m*3 10.8 C 0 km/h
2080 26-10-2007 15:19:54 10.8 C 5.73 g/m*3 10.8 C 0 km/h
2081 26-10-2007 15:22:55 10.7 C 5.6 g/m*3 10.7 C 0 km/h
2082 26-10-2007 15:25:55 10.7 C 5.7 g/m*3 10.7 C 0 km/h
2083 26-10-2007 15:28:55 10.7 C 5.6 g/m*3 10.7 C 0 km/h
2084 26-10-2007 15:31:55 10.7 C 5.5 g/m*3 10.7 C 0 km/h
2085 26-10-2007 15:34:55 10.6 C 5.56 g/m*3 10.6 C 0 km/h
2086 26-10-2007 15:37:55 10.7 C 5.6 g/m*3 10.7 C 0 km/h
2087 26-10-2007 15:40:55 10.6 C 5.47 g/m*3 10.6 C 0 km/h
2088 26-10-2007 15:43:55 10.5 C 5.43 g/m*3 10.5 C 0 km/h
2089 26-10-2007 15:46:55 10.5 C 5.53 g/m*3 10.5 C 0 km/h
2090 26-10-2007 15:49:55 10.6 C 5.56 g/m*3 10.6 C 0 km/h
2091 26-10-2007 15:52:55 10.5 C 5.53 g/m*3 10.5 C 0 km/h
2092 26-10-2007 15:55:55 10.6 C 5.56 g/m*3 10.6 C 0 km/h
2093 26-10-2007 15:58:55 10.6 C 5.66 g/m*3 10.6 C 0 km/h
2094 26-10-2007 16:01:55 10.6 C 5.66 g/m*3 10.6 C 0 km/h
2095 26-10-2007 16:04:55 10.6 C 5.66 g/m*3 10.6 C 0 km/h
2096 26-10-2007 16:07:55 10.6 C 5.56 g/m*3 10.6 C 0 km/h
2097 26-10-2007 16:10:55 10.6 C 5.66 g/m*3 10.6 C 0 km/h
2098 26-10-2007 16:13:55 10.6 C 5.76 g/m*3 10.6 C 0 km/h
2099 26-10-2007 16:16:55 10.6 C 5.76 g/m*3 10.6 C 0 km/h
2100 26-10-2007 16:19:56 10.6 C 5.76 g/m*3 10.6 C 0 km/h
Sensor: Nr:Datum:Temp:Abs-Feuchte:Windchill:Wind:
Aussen-T/F 2101 26-10-2007 16:22:56 10.6 C 5.76 g/m*3 10.6 C 0 km/h
2102 26-10-2007 16:25:56 10.6 C 5.76 g/m*3 10.6 C 0 km/h
2103 26-10-2007 16:28:56 10.5 C 5.82 g/m*3 10.5 C 0 km/h
2104 26-10-2007 16:31:02 10.5 C 5.72 g/m*3 10.5 C 0 km/h
2105 26-10-2007 16:34:02 10.5 C 5.72 g/m*3 10.5 C 0 km/h
2106 26-10-2007 16:37:02 10.5 C 5.82 g/m*3 10.5 C 0 km/h
2107 26-10-2007 16:40:02 10.5 C 5.82 g/m*3 10.5 C 0 km/h
2108 26-10-2007 16:43:02 10.4 C 5.88 g/m*3 10.4 C 0 km/h
2109 26-10-2007 16:46:02 10.4 C 5.88 g/m*3 10.4 C 0 km/h
2110 26-10-2007 16:49:02 10.4 C 5.98 g/m*3 10.4 C 0 km/h
2111 26-10-2007 16:52:02 10.3 C 5.94 g/m*3 10.3 C 0 km/h
2112 26-10-2007 16:55:02 10.3 C 5.94 g/m*3 10.3 C 0 km/h
2113 26-10-2007 16:58:02 10.3 C 5.94 g/m*3 10.3 C 0 km/h
2114 26-10-2007 17:08:02 10.1 C 5.86 g/m*3 10.1 C 0 km/h
2115 26-10-2007 17:20:02 10 C 5.73 g/m*3 10 C 0 km/h
2116 26-10-2007 17:32:02 9.9 C 5.88 g/m*3 9.9 C 0 km/h
2117 26-10-2007 17:44:02 9.8 C 5.94 g/m*3 9.8 C 0 km/h
2118 26-10-2007 17:56:02 9.7 C 5.9 g/m*3 9.7 C 0 km/h
2119 26-10-2007 18:08:02 9.6 C 5.95 g/m*3 9.6 C 0 km/h
2120 26-10-2007 18:20:02 9.6 C 6.05 g/m*3 9.6 C 0 km/h
2121 26-10-2007 18:32:03 9.5 C 5.92 g/m*3 9.5 C 0 km/h
2122 26-10-2007 18:44:03 9.4 C 5.97 g/m*3 9.4 C 0 km/h
2123 26-10-2007 18:56:05 9.3 C 6.02 g/m*3 9.3 C 0 km/h
2124 26-10-2007 19:08:03 9.2 C 5.98 g/m*3 9.2 C 0 km/h
2125 26-10-2007 19:20:02 9.1 C 5.94 g/m*3 9.1 C 0 km/h
Sensor: Nr:Datum:Temp:Abs-Feuchte:Windchill:Wind:
Aussen-T/F 2126 26-10-2007 19:32:02 9 C 5.99 g/m*3 9 C 0 km/h
2127 26-10-2007 19:44:02 8.9 C 6.04 g/m*3 8.9 C 0 km/h
2128 26-10-2007 19:56:02 8.9 C 6.13 g/m*3 8.9 C 0 km/h
2129 26-10-2007 20:08:02 8.8 C 6.09 g/m*3 8.8 C 0 km/h
2130 26-10-2007 20:20:01 8.7 C 6.05 g/m*3 8.7 C 0 km/h
2131 26-10-2007 20:32:01 8.7 C 6.14 g/m*3 8.7 C 0 km/h
2132 26-10-2007 20:44:02 8.7 C 6.14 g/m*3 8.7 C 0 km/h
2133 26-10-2007 20:56:02 8.7 C 6.14 g/m*3 8.7 C 0 km/h
2134 26-10-2007 21:08:02 8.6 C 6.19 g/m*3 8.6 C 0 km/h
2135 26-10-2007 21:20:02 8.6 C 6.19 g/m*3 8.6 C 0 km/h
2136 26-10-2007 21:32:01 8.5 C 6.15 g/m*3 8.5 C 0 km/h
2137 26-10-2007 21:44:01 8.5 C 6.06 g/m*3 8.5 C 0 km/h
2138 26-10-2007 21:56:02 8.5 C 6.15 g/m*3 8.5 C 0 km/h
2139 26-10-2007 22:08:01 8.4 C 6.11 g/m*3 8.4 C 0 km/h
2140 26-10-2007 22:20:02 8.4 C 6.11 g/m*3 8.4 C 0 km/h
2141 26-10-2007 22:32:01 8.3 C 6.07 g/m*3 8.3 C 0 km/h
2142 26-10-2007 22:44:01 8.2 C 6.03 g/m*3 8.2 C 0 km/h
2143 26-10-2007 22:56:02 8.2 C 6.11 g/m*3 8.2 C 0 km/h
2144 26-10-2007 23:08:02 8.2 C 6.11 g/m*3 8.2 C 0 km/h
2145 26-10-2007 23:20:02 8.1 C 6.07 g/m*3 8.1 C 0 km/h
2146 26-10-2007 23:32:02 8.1 C 6.07 g/m*3 8.1 C 0 km/h
2147 26-10-2007 23:44:02 8.1 C 6.07 g/m*3 8.1 C 0 km/h
2148 26-10-2007 23:56:02 8 C 6.04 g/m*3 8 C 0 km/h
2149 27-10-2007 00:08:01 8.1 C 6.16 g/m*3 8.1 C 0 km/h
2150 27-10-2007 00:20:02 8 C 6.12 g/m*3 8 C 0 km/h
Sensor: Nr:Datum:Temp:Abs-Feuchte:Windchill:Wind:
Aussen-T/F 2151 27-10-2007 00:32:02 8 C 6.12 g/m*3 8 C 0 km/h
2152 27-10-2007 00:44:02 8 C 6.12 g/m*3 8 C 0 km/h
2153 27-10-2007 00:56:02 8 C 6.2 g/m*3 8 C 0 km/h
2154 27-10-2007 01:08:02 8 C 6.2 g/m*3 8 C 0 km/h
2155 27-10-2007 01:20:02 7.9 C 6.24 g/m*3 7.9 C 0 km/h
2156 27-10-2007 01:32:02 7.9 C 6.24 g/m*3 7.9 C 0 km/h
2157 27-10-2007 01:44:02 7.9 C 6.24 g/m*3 7.9 C 0 km/h
2158 27-10-2007 01:56:02 7.9 C 6.24 g/m*3 7.9 C 0 km/h
2159 27-10-2007 02:08:03 7.9 C 6.32 g/m*3 7.9 C 0 km/h
2160 27-10-2007 02:20:02 7.9 C 6.41 g/m*3 7.9 C 0 km/h
2161 27-10-2007 02:32:03 7.9 C 6.41 g/m*3 7.9 C 0 km/h
2162 27-10-2007 02:44:03 7.9 C 6.32 g/m*3 7.9 C 0 km/h
2163 27-10-2007 02:56:02 7.9 C 6.32 g/m*3 7.9 C 0 km/h
2164 27-10-2007 03:08:02 7.8 C 6.28 g/m*3 7.8 C 0 km/h
2165 27-10-2007 03:20:01 7.8 C 6.28 g/m*3 7.8 C 0 km/h
2166 27-10-2007 03:32:01 7.9 C 6.32 g/m*3 7.9 C 0 km/h
2167 27-10-2007 03:44:01 7.8 C 6.37 g/m*3 7.8 C 0 km/h
2168 27-10-2007 03:56:01 7.8 C 6.37 g/m*3 7.8 C 0 km/h
2169 27-10-2007 04:08:02 7.8 C 6.37 g/m*3 7.8 C 0 km/h
2170 27-10-2007 04:20:01 7.8 C 6.37 g/m*3 7.8 C 0 km/h
2171 27-10-2007 04:32:02 7.8 C 6.45 g/m*3 7.8 C 0 km/h
2172 27-10-2007 04:44:02 7.8 C 6.45 g/m*3 7.8 C 0 km/h
2173 27-10-2007 04:56:01 7.8 C 6.45 g/m*3 7.8 C 0 km/h
2174 27-10-2007 05:08:02 7.8 C 6.45 g/m*3 7.8 C 0 km/h
2175 27-10-2007 05:20:01 7.8 C 6.45 g/m*3 7.8 C 0 km/h
Sensor: Nr:Datum:Temp:Abs-Feuchte:Windchill:Wind:
Aussen-T/F 2176 27-10-2007 05:32:02 7.7 C 6.41 g/m*3 7.7 C 0 km/h
2177 27-10-2007 05:44:02 7.7 C 6.32 g/m*3 7.7 C 0 km/h
2178 27-10-2007 05:56:02 7.7 C 6.24 g/m*3 7.7 C 0 km/h
2179 27-10-2007 06:08:01 7.7 C 6.32 g/m*3 7.7 C 0 km/h
2180 27-10-2007 06:20:02 7.7 C 6.24 g/m*3 7.7 C 0 km/h
2181 27-10-2007 06:32:01 7.7 C 6 g/m*3 7.7 C 0 km/h
2182 27-10-2007 06:44:01 7.8 C 5.96 g/m*3 7.8 C 0 km/h
2183 27-10-2007 06:56:01 7.9 C 5.91 g/m*3 7.9 C 0 km/h
2184 27-10-2007 07:08:01 7.9 C 5.91 g/m*3 7.9 C 0 km/h
2185 27-10-2007 07:20:01 7.9 C 5.91 g/m*3 7.9 C 0 km/h
2186 27-10-2007 07:32:02 7.8 C 6.04 g/m*3 7.8 C 0 km/h
2187 27-10-2007 07:44:02 7.8 C 6.12 g/m*3 7.8 C 0 km/h
2188 27-10-2007 07:56:02 7.7 C 6.16 g/m*3 7.7 C 0 km/h
2189 27-10-2007 08:08:02 7.7 C 6.16 g/m*3 7.7 C 0 km/h
2190 27-10-2007 08:20:02 7.7 C 6 g/m*3 7.7 C 0 km/h
2191 27-10-2007 08:32:01 7.7 C 5.84 g/m*3 7.7 C 0 km/h
2192 27-10-2007 08:44:01 7.8 C 5.79 g/m*3 7.8 C 0 km/h
2193 27-10-2007 08:56:01 7.8 C 5.79 g/m*3 7.8 C 0 km/h
2194 27-10-2007 09:08:02 7.9 C 5.67 g/m*3 7.9 C 0 km/h
2195 27-10-2007 09:20:01 7.9 C 5.67 g/m*3 7.9 C 0 km/h
2196 27-10-2007 09:32:02 8 C 5.54 g/m*3 8 C 0 km/h
2197 27-10-2007 09:44:02 8.2 C 5.53 g/m*3 8.2 C 0 km/h
2198 27-10-2007 09:56:02 8.4 C 5.51 g/m*3 8.4 C 0 km/h
2199 27-10-2007 10:08:02 8.9 C 5.52 g/m*3 8.9 C 0 km/h
2200 27-10-2007 10:20:01 9 C 5.47 g/m*3 9 C 0 km/h
Sensor: Nr:Datum:Temp:Abs-Feuchte:Windchill:Wind:
Aussen-T/F 2201 27-10-2007 10:32:01 8.8 C 5.57 g/m*3 8.8 C 0 km/h
2202 27-10-2007 10:44:01 8.7 C 5.53 g/m*3 8.7 C 0 km/h
2203 27-10-2007 10:56:01 8.8 C 5.57 g/m*3 8.8 C 0 km/h
2204 27-10-2007 11:08:02 9 C 5.47 g/m*3 9 C 0 km/h
2205 27-10-2007 11:20:03 9 C 5.47 g/m*3 9 C 0 km/h
2206 27-10-2007 11:32:04 9.1 C 5.41 g/m*3 9.1 C 0 km/h
2207 27-10-2007 11:44:04 9.2 C 5.36 g/m*3 9.2 C 0 km/h
2208 27-10-2007 11:56:02 9.1 C 5.32 g/m*3 9.1 C 0 km/h
2209 27-10-2007 12:08:02 9.5 C 5.46 g/m*3 9.5 C 0 km/h
2210 27-10-2007 12:20:01 9.4 C 5.43 g/m*3 9.4 C 0 km/h
2211 27-10-2007 12:32:01 9.4 C 5.43 g/m*3 9.4 C 0 km/h
2212 27-10-2007 12:44:01 9.4 C 5.43 g/m*3 9.4 C 0 km/h
2213 27-10-2007 12:56:01 9.6 C 5.4 g/m*3 9.6 C 0 km/h
2214 27-10-2007 13:08:01 9.8 C 5.29 g/m*3 9.8 C 0 km/h
2215 27-10-2007 13:20:01 9.5 C 5.28 g/m*3 9.5 C 0 km/h
2216 27-10-2007 13:32:01 9.5 C 5.37 g/m*3 9.5 C 0 km/h
2217 27-10-2007 13:44:01 9.5 C 5.28 g/m*3 9.5 C 0 km/h
2218 27-10-2007 13:56:01 9.4 C 5.25 g/m*3 9.4 C 0 km/h
2219 27-10-2007 14:08:01 9.8 C 5.29 g/m*3 9.8 C 0 km/h
2220 27-10-2007 14:20:01 10.1 C 5.3 g/m*3 10.1 C 0 km/h
2221 27-10-2007 14:32:02 10 C 5.26 g/m*3 10 C 0 km/h
2222 27-10-2007 14:44:02 10 C 5.26 g/m*3 10 C 0 km/h
2223 27-10-2007 14:56:01 10 C 5.26 g/m*3 10 C 0 km/h
2224 27-10-2007 15:08:03 9.8 C 5.38 g/m*3 9.8 C 0 km/h
2225 27-10-2007 15:20:02 9.8 C 5.38 g/m*3 9.8 C 0 km/h
Sensor: Nr:Datum:Temp:Abs-Feuchte:Windchill:Wind:
Aussen-T/F 2226 27-10-2007 15:32:01 9.8 C 5.47 g/m*3 9.8 C 0 km/h
2227 27-10-2007 15:44:01 9.7 C 5.44 g/m*3 9.7 C 0 km/h
2228 27-10-2007 15:56:01 9.6 C 5.4 g/m*3 9.6 C 0 km/h
2229 27-10-2007 16:08:02 9.6 C 5.4 g/m*3 9.6 C 0 km/h
2230 27-10-2007 16:20:02 9.6 C 5.5 g/m*3 9.6 C 0 km/h
2231 27-10-2007 16:32:02 9.6 C 5.5 g/m*3 9.6 C 0 km/h
2232 27-10-2007 16:44:02 9.6 C 5.5 g/m*3 9.6 C 0 km/h
2233 27-10-2007 16:56:01 9.6 C 5.59 g/m*3 9.6 C 0 km/h
2234 27-10-2007 17:08:02 9.5 C 5.64 g/m*3 9.5 C 0 km/h
2235 27-10-2007 17:20:02 9.4 C 5.7 g/m*3 9.4 C 0 km/h
2236 27-10-2007 17:32:01 9.3 C 5.57 g/m*3 9.3 C 0 km/h
2237 27-10-2007 17:44:01 9.2 C 5.63 g/m*3 9.2 C 0 km/h
2238 27-10-2007 17:56:01 9.1 C 5.59 g/m*3 9.1 C 0 km/h
2239 27-10-2007 18:08:02 9 C 5.55 g/m*3 9 C 0 km/h
2240 27-10-2007 18:20:01 9 C 5.55 g/m*3 9 C 0 km/h
2241 27-10-2007 18:32:02 8.9 C 5.61 g/m*3 8.9 C 0 km/h
2242 27-10-2007 18:44:02 8.8 C 5.66 g/m*3 8.8 C 0 km/h
2243 27-10-2007 18:56:02 8.8 C 5.74 g/m*3 8.8 C 0 km/h
2244 27-10-2007 19:08:01 8.7 C 5.79 g/m*3 8.7 C 0 km/h
2245 27-10-2007 19:20:02 8.7 C 5.88 g/m*3 8.7 C 0 km/h
2246 27-10-2007 19:32:01 8.7 C 5.88 g/m*3 8.7 C 0 km/h
2247 27-10-2007 19:44:01 8.6 C 5.84 g/m*3 8.6 C 0 km/h
2248 27-10-2007 19:56:01 8.6 C 5.84 g/m*3 8.6 C 0 km/h
2249 27-10-2007 20:08:02 8.7 C 5.97 g/m*3 8.7 C 0 km/h
2250 27-10-2007 20:20:01 8.7 C 5.97 g/m*3 8.7 C 0 km/h
Sensor: Nr:Datum:Temp:Abs-Feuchte:Windchill:Wind:
Aussen-T/F 2251 27-10-2007 20:32:02 8.6 C 5.93 g/m*3 8.6 C 0 km/h
2252 27-10-2007 20:44:02 8.6 C 5.93 g/m*3 8.6 C 0 km/h
2253 27-10-2007 20:56:01 8.6 C 5.84 g/m*3 8.6 C 0 km/h
2254 27-10-2007 21:08:01 8.6 C 5.76 g/m*3 8.6 C 0 km/h
2255 27-10-2007 21:20:01 8.7 C 5.88 g/m*3 8.7 C 0 km/h
2256 27-10-2007 21:32:01 8.6 C 5.84 g/m*3 8.6 C 0 km/h
2257 27-10-2007 21:44:01 8.6 C 5.84 g/m*3 8.6 C 0 km/h
2258 27-10-2007 21:56:02 8.5 C 5.89 g/m*3 8.5 C 0 km/h
2259 27-10-2007 22:08:01 8.5 C 5.81 g/m*3 8.5 C 0 km/h
2260 27-10-2007 22:20:02 8.6 C 5.76 g/m*3 8.6 C 0 km/h
2261 27-10-2007 22:32:01 8.5 C 5.89 g/m*3 8.5 C 0 km/h
2262 27-10-2007 22:44:01 8.5 C 5.89 g/m*3 8.5 C 0 km/h
2263 27-10-2007 22:56:01 8.4 C 5.85 g/m*3 8.4 C 0 km/h
2264 27-10-2007 23:08:02 8.4 C 5.85 g/m*3 8.4 C 0 km/h
2265 27-10-2007 23:20:01 8.3 C 5.9 g/m*3 8.3 C 0 km/h
2266 27-10-2007 23:32:02 8.3 C 5.9 g/m*3 8.3 C 0 km/h
2267 27-10-2007 23:44:02 8.3 C 5.98 g/m*3 8.3 C 0 km/h
2268 27-10-2007 23:56:02 8.2 C 5.95 g/m*3 8.2 C 0 km/h
2269 28-10-2007 00:08:01 8.2 C 5.95 g/m*3 8.2 C 0 km/h
2270 28-10-2007 00:20:02 8.1 C 5.99 g/m*3 8.1 C 0 km/h
2271 28-10-2007 00:32:02 8.1 C 5.99 g/m*3 8.1 C 0 km/h
2272 28-10-2007 00:44:02 8.1 C 5.99 g/m*3 8.1 C 0 km/h
2273 28-10-2007 00:56:02 8.2 C 6.03 g/m*3 8.2 C 0 km/h
2274 28-10-2007 01:08:01 8.1 C 6.07 g/m*3 8.1 C 0 km/h
2275 28-10-2007 01:20:02 8.1 C 6.07 g/m*3 8.1 C 0 km/h
Sensor: Nr:Datum:Temp:Abs-Feuchte:Windchill:Wind:
Aussen-T/F 2276 28-10-2007 01:32:01 8.1 C 6.07 g/m*3 8.1 C 0 km/h
2277 28-10-2007 01:44:01 8.1 C 6.07 g/m*3 8.1 C 0 km/h
2278 28-10-2007 01:56:01 8.1 C 5.99 g/m*3 8.1 C 0 km/h
2279 28-10-2007 02:08:02 8.1 C 5.99 g/m*3 8.1 C 0 km/h
2280 28-10-2007 02:20:01 8.1 C 5.99 g/m*3 8.1 C 0 km/h
2281 28-10-2007 02:32:02 8.1 C 5.99 g/m*3 8.1 C 0 km/h
2282 28-10-2007 02:44:02 8 C 5.87 g/m*3 8 C 0 km/h
2283 28-10-2007 02:57:01 8 C 5.95 g/m*3 8 C 0 km/h
2284 28-10-2007 03:09:01 8 C 5.95 g/m*3 8 C 0 km/h
2285 28-10-2007 03:21:01 7.9 C 6 g/m*3 7.9 C 0 km/h
2286 28-10-2007 03:33:01 7.9 C 6.08 g/m*3 7.9 C 0 km/h
2287 28-10-2007 03:45:01 7.9 C 6.08 g/m*3 7.9 C 0 km/h
2288 28-10-2007 03:57:01 7.9 C 6.08 g/m*3 7.9 C 0 km/h
2289 28-10-2007 04:09:02 7.9 C 6 g/m*3 7.9 C 0 km/h
2290 28-10-2007 04:09:03 7.9 C 6.08 g/m*3 7.9 C 0 km/h
2291 28-10-2007 04:21:01 7.9 C 6 g/m*3 7.9 C 0 km/h
2292 28-10-2007 04:21:02 7.8 C 6.12 g/m*3 7.8 C 0 km/h
2293 28-10-2007 04:33:02 7.8 C 6.12 g/m*3 7.8 C 0 km/h
2294 28-10-2007 04:33:02 7.9 C 6 g/m*3 7.9 C 0 km/h
2295 28-10-2007 04:45:02 7.8 C 6.12 g/m*3 7.8 C 0 km/h
2296 28-10-2007 04:45:02 8 C 5.95 g/m*3 8 C 0 km/h
2297 28-10-2007 04:57:02 7.8 C 6.12 g/m*3 7.8 C 0 km/h
2298 28-10-2007 04:57:02 7.9 C 6.08 g/m*3 7.9 C 0 km/h
2299 28-10-2007 05:09:01 7.8 C 6.12 g/m*3 7.8 C 0 km/h
2300 28-10-2007 05:21:02 7.8 C 6.12 g/m*3 7.8 C 0 km/h
Sensor: Nr:Datum:Temp:Abs-Feuchte:Windchill:Wind:
Aussen-T/F 2301 28-10-2007 05:33:02 7.7 C 6.08 g/m*3 7.7 C 0 km/h
2302 28-10-2007 05:45:02 7.7 C 6.16 g/m*3 7.7 C 0 km/h
2303 28-10-2007 05:57:02 7.7 C 6.16 g/m*3 7.7 C 0 km/h
2304 28-10-2007 06:09:02 7.7 C 6.24 g/m*3 7.7 C 0 km/h
2305 28-10-2007 06:21:02 7.7 C 6.16 g/m*3 7.7 C 0 km/h
2306 28-10-2007 06:33:02 7.7 C 6.24 g/m*3 7.7 C 0 km/h
2307 28-10-2007 06:45:02 7.7 C 6.24 g/m*3 7.7 C 0 km/h
2308 28-10-2007 06:57:02 7.7 C 6.24 g/m*3 7.7 C 0 km/h
2309 28-10-2007 07:09:01 7.7 C 6.24 g/m*3 7.7 C 0 km/h
2310 28-10-2007 07:21:02 7.8 C 6.2 g/m*3 7.8 C 0 km/h
2311 28-10-2007 07:33:01 7.9 C 6.08 g/m*3 7.9 C 0 km/h
2312 28-10-2007 07:45:01 8.1 C 5.91 g/m*3 8.1 C 0 km/h
2313 28-10-2007 07:57:01 8.1 C 5.91 g/m*3 8.1 C 0 km/h
2314 28-10-2007 08:09:02 8.2 C 5.86 g/m*3 8.2 C 0 km/h
2315 28-10-2007 08:21:01 8.4 C 5.94 g/m*3 8.4 C 0 km/h
2316 28-10-2007 08:33:02 8.6 C 5.84 g/m*3 8.6 C 0 km/h
2317 28-10-2007 08:45:02 8.9 C 5.87 g/m*3 8.9 C 0 km/h
2318 28-10-2007 08:57:02 9 C 5.82 g/m*3 9 C 0 km/h
2319 28-10-2007 09:09:02 9.1 C 5.86 g/m*3 9.1 C 0 km/h
2320 28-10-2007 09:21:02 9.3 C 5.93 g/m*3 9.3 C 0 km/h
2321 28-10-2007 09:33:02 9.4 C 5.88 g/m*3 9.4 C 0 km/h
2322 28-10-2007 09:45:02 9.5 C 5.92 g/m*3 9.5 C 0 km/h
2323 28-10-2007 09:57:02 9.5 C 6.01 g/m*3 9.5 C 0 km/h
2324 28-10-2007 10:09:02 9.6 C 6.05 g/m*3 9.6 C 0 km/h
2325 28-10-2007 10:21:01 9.8 C 5.94 g/m*3 9.8 C 0 km/h
Sensor: Nr:Datum:Temp:Abs-Feuchte:Windchill:Wind:
Aussen-T/F 2326 28-10-2007 10:33:03 9.8 C 6.03 g/m*3 9.8 C 0 km/h
2327 28-10-2007 10:45:03 10.1 C 5.86 g/m*3 10.1 C 0 km/h
2328 28-10-2007 10:57:03 10.4 C 5.78 g/m*3 10.4 C 0 km/h
2329 28-10-2007 11:09:02 10.6 C 5.95 g/m*3 10.6 C 0 km/h
2330 28-10-2007 11:21:02 10.5 C 5.63 g/m*3 10.5 C 0 km/h
2331 28-10-2007 11:33:02 10.5 C 5.63 g/m*3 10.5 C 0 km/h
2332 28-10-2007 11:45:02 10.4 C 5.69 g/m*3 10.4 C 0 km/h
2333 28-10-2007 11:57:02 10.4 C 5.78 g/m*3 10.4 C 0 km/h
2334 28-10-2007 12:09:02 10.5 C 5.72 g/m*3 10.5 C 0 km/h
2335 28-10-2007 12:21:01 10.7 C 5.7 g/m*3 10.7 C 0 km/h
2336 28-10-2007 12:33:03 10.7 C 5.6 g/m*3 10.7 C 0 km/h
2337 28-10-2007 12:45:01 10.8 C 5.63 g/m*3 10.8 C 0 km/h
2338 28-10-2007 12:57:01 10.7 C 5.6 g/m*3 10.7 C 0 km/h
2339 28-10-2007 13:09:01 10.8 C 5.73 g/m*3 10.8 C 0 km/h
2340 28-10-2007 13:21:02 11 C 5.61 g/m*3 11 C 0 km/h
2341 28-10-2007 13:33:01 11.3 C 5.51 g/m*3 11.3 C 0 km/h
2342 28-10-2007 13:45:01 11.4 C 5.54 g/m*3 11.4 C 0 km/h
2343 28-10-2007 13:57:01 11.5 C 5.47 g/m*3 11.5 C 0 km/h
2344 28-10-2007 14:09:03 11.4 C 5.54 g/m*3 11.4 C 0 km/h
2345 28-10-2007 14:21:02 11.4 C 5.65 g/m*3 11.4 C 0 km/h
2346 28-10-2007 14:33:02 11.5 C 5.58 g/m*3 11.5 C 0 km/h
2347 28-10-2007 14:45:02 11.4 C 5.65 g/m*3 11.4 C 0 km/h
2348 28-10-2007 14:57:02 11.4 C 5.75 g/m*3 11.4 C 0 km/h
2349 28-10-2007 15:09:02 11.2 C 5.68 g/m*3 11.2 C 0 km/h
2350 28-10-2007 15:21:02 11.1 C 5.64 g/m*3 11.1 C 0 km/h
Sensor: Nr:Datum:Temp:Abs-Feuchte:Windchill:Wind:
Aussen-T/F 2351 28-10-2007 15:33:02 11 C 5.71 g/m*3 11 C 0 km/h
2352 28-10-2007 15:45:02 11 C 5.41 g/m*3 11 C 0 km/h
2353 28-10-2007 15:57:02 10.9 C 5.47 g/m*3 10.9 C 0 km/h
2354 28-10-2007 16:09:02 11.1 C 5.54 g/m*3 11.1 C 0 km/h
2355 28-10-2007 16:21:01 11.2 C 5.47 g/m*3 11.2 C 0 km/h
2356 28-10-2007 16:33:02 11 C 5.51 g/m*3 11 C 0 km/h
2357 28-10-2007 16:45:02 10.8 C 5.63 g/m*3 10.8 C 0 km/h
2358 28-10-2007 16:57:02 10.7 C 5.6 g/m*3 10.7 C 0 km/h
2359 28-10-2007 17:09:03 10.4 C 5.69 g/m*3 10.4 C 0 km/h
2360 28-10-2007 17:21:02 10.3 C 5.75 g/m*3 10.3 C 0 km/h
2361 28-10-2007 17:33:03 10.2 C 5.61 g/m*3 10.2 C 0 km/h
2362 28-10-2007 17:45:02 10.1 C 5.67 g/m*3 10.1 C 0 km/h
2363 28-10-2007 17:57:02 10.1 C 5.67 g/m*3 10.1 C 0 km/h
2364 28-10-2007 18:09:02 10 C 5.73 g/m*3 10 C 0 km/h
2365 28-10-2007 18:21:02 9.8 C 5.85 g/m*3 9.8 C 0 km/h
2366 28-10-2007 18:33:02 9.7 C 5.81 g/m*3 9.7 C 0 km/h
2367 28-10-2007 18:45:01 9.6 C 5.86 g/m*3 9.6 C 0 km/h
2368 28-10-2007 18:57:01 9.5 C 5.92 g/m*3 9.5 C 0 km/h
2369 28-10-2007 19:09:02 9.4 C 5.88 g/m*3 9.4 C 0 km/h
2370 28-10-2007 19:21:01 9.4 C 5.88 g/m*3 9.4 C 0 km/h
2371 28-10-2007 19:33:01 9.4 C 5.88 g/m*3 9.4 C 0 km/h
2372 28-10-2007 19:45:02 9.5 C 5.83 g/m*3 9.5 C 0 km/h
2373 28-10-2007 19:57:02 9.3 C 5.75 g/m*3 9.3 C 0 km/h
2374 28-10-2007 20:09:02 9.2 C 5.8 g/m*3 9.2 C 0 km/h
2375 28-10-2007 20:21:03 9.1 C 5.77 g/m*3 9.1 C 0 km/h
Sensor: Nr:Datum:Temp:Abs-Feuchte:Windchill:Wind:
Aussen-T/F 2376 28-10-2007 20:33:02 9 C 5.82 g/m*3 9 C 0 km/h
2377 28-10-2007 20:45:02 8.8 C 5.83 g/m*3 8.8 C 0 km/h
2378 28-10-2007 20:57:02 8.8 C 5.83 g/m*3 8.8 C 0 km/h
2379 28-10-2007 21:09:03 8.9 C 5.87 g/m*3 8.9 C 0 km/h
2380 28-10-2007 21:21:02 8.9 C 5.87 g/m*3 8.9 C 0 km/h
2381 28-10-2007 21:33:03 8.7 C 5.79 g/m*3 8.7 C 0 km/h
2382 28-10-2007 21:45:02 8.7 C 5.79 g/m*3 8.7 C 0 km/h
2383 28-10-2007 21:57:03 8.7 C 5.79 g/m*3 8.7 C 0 km/h
2384 28-10-2007 22:09:02 8.7 C 5.88 g/m*3 8.7 C 0 km/h
2385 28-10-2007 22:21:02 8.6 C 5.84 g/m*3 8.6 C 0 km/h
2386 28-10-2007 22:33:02 8.6 C 5.84 g/m*3 8.6 C 0 km/h
2387 28-10-2007 22:45:02 8.7 C 5.88 g/m*3 8.7 C 0 km/h
2388 28-10-2007 22:57:02 8.7 C 5.79 g/m*3 8.7 C 0 km/h
2389 28-10-2007 23:09:02 8.7 C 5.79 g/m*3 8.7 C 0 km/h
2390 28-10-2007 23:21:02 8.6 C 5.76 g/m*3 8.6 C 0 km/h
2391 28-10-2007 23:33:02 8.3 C 5.73 g/m*3 8.3 C 0 km/h
2392 28-10-2007 23:45:02 8.1 C 5.74 g/m*3 8.1 C 0 km/h
2393 28-10-2007 23:57:02 7.8 C 5.79 g/m*3 7.8 C 0 km/h
2394 29-10-2007 00:09:01 7.6 C 5.8 g/m*3 7.6 C 0 km/h
2395 29-10-2007 00:21:02 7.4 C 5.73 g/m*3 7.4 C 0 km/h
2396 29-10-2007 00:33:01 7.3 C 5.77 g/m*3 7.3 C 0 km/h
2397 29-10-2007 00:45:02 7.4 C 5.81 g/m*3 7.4 C 0 km/h
2398 29-10-2007 00:57:02 7.4 C 5.73 g/m*3 7.4 C 0 km/h
2399 29-10-2007 01:09:02 7.1 C 5.62 g/m*3 7.1 C 0 km/h
2400 29-10-2007 01:21:02 7 C 5.66 g/m*3 7 C 0 km/h
Sensor: Nr:Datum:Temp:Abs-Feuchte:Windchill:Wind:
Aussen-T/F 2401 29-10-2007 01:33:02 7 C 5.73 g/m*3 7 C 0 km/h
2402 29-10-2007 01:45:02 6.9 C 5.77 g/m*3 6.9 C 0 km/h
2403 29-10-2007 01:57:02 7 C 5.81 g/m*3 7 C 0 km/h
2404 29-10-2007 02:09:01 7 C 5.89 g/m*3 7 C 0 km/h
2405 29-10-2007 02:21:02 7.1 C 5.93 g/m*3 7.1 C 0 km/h
2406 29-10-2007 02:33:01 7.2 C 5.89 g/m*3 7.2 C 0 km/h
2407 29-10-2007 02:45:01 7.3 C 6 g/m*3 7.3 C 0 km/h
2408 29-10-2007 02:57:01 7.4 C 5.96 g/m*3 7.4 C 0 km/h
2409 29-10-2007 03:09:01 7.4 C 5.96 g/m*3 7.4 C 0 km/h
2410 29-10-2007 03:21:02 7.4 C 5.96 g/m*3 7.4 C 0 km/h
2411 29-10-2007 03:33:02 7.5 C 6 g/m*3 7.5 C 0 km/h
2412 29-10-2007 03:45:02 7.4 C 5.96 g/m*3 7.4 C 0 km/h
2413 29-10-2007 03:57:02 7.5 C 6.08 g/m*3 7.5 C 0 km/h
2414 29-10-2007 04:09:01 7.6 C 6.04 g/m*3 7.6 C 0 km/h
2415 29-10-2007 04:21:02 7.8 C 6.04 g/m*3 7.8 C 0 km/h
2416 29-10-2007 04:33:01 8 C 5.95 g/m*3 8 C 0 km/h
2417 29-10-2007 04:45:02 8 C 5.95 g/m*3 8 C 0 km/h
2418 29-10-2007 04:57:02 7.9 C 6 g/m*3 7.9 C 0 km/h
2419 29-10-2007 05:09:01 7.8 C 6.04 g/m*3 7.8 C 0 km/h
2420 29-10-2007 05:21:01 7.8 C 6.04 g/m*3 7.8 C 0 km/h
2421 29-10-2007 05:33:01 7.6 C 6.04 g/m*3 7.6 C 0 km/h
2422 29-10-2007 05:45:01 7.6 C 6.04 g/m*3 7.6 C 0 km/h
2423 29-10-2007 05:57:01 7.6 C 6.12 g/m*3 7.6 C 0 km/h
2424 29-10-2007 06:09:02 7.7 C 6.16 g/m*3 7.7 C 0 km/h
2425 29-10-2007 06:21:01 7.7 C 6.16 g/m*3 7.7 C 0 km/h
Sensor: Nr:Datum:Temp:Abs-Feuchte:Windchill:Wind:
Aussen-T/F 2426 29-10-2007 06:33:01 7.8 C 6.28 g/m*3 7.8 C 0 km/h
2427 29-10-2007 06:45:02 7.9 C 6.24 g/m*3 7.9 C 0 km/h
2428 29-10-2007 06:57:02 7.9 C 6.24 g/m*3 7.9 C 0 km/h
2429 29-10-2007 07:09:01 7.9 C 6.24 g/m*3 7.9 C 0 km/h
2430 29-10-2007 07:21:02 7.8 C 6.28 g/m*3 7.8 C 0 km/h
2431 29-10-2007 07:33:01 7.8 C 6.2 g/m*3 7.8 C 0 km/h
2432 29-10-2007 07:45:01 7.8 C 6.2 g/m*3 7.8 C 0 km/h
2433 29-10-2007 07:57:01 8 C 6.2 g/m*3 8 C 0 km/h
2434 29-10-2007 08:09:02 8.1 C 6.16 g/m*3 8.1 C 0 km/h
2435 29-10-2007 08:21:01 8.4 C 6.28 g/m*3 8.4 C 0 km/h
2436 29-10-2007 08:33:02 8.6 C 6.27 g/m*3 8.6 C 0 km/h
2437 29-10-2007 08:45:01 8.7 C 6.23 g/m*3 8.7 C 0 km/h
2438 29-10-2007 08:57:02 9 C 6.17 g/m*3 9 C 0 km/h
2439 29-10-2007 09:09:01 9.4 C 6.24 g/m*3 9.4 C 0 km/h
2440 29-10-2007 09:21:02 9.6 C 6.23 g/m*3 9.6 C 0 km/h
2441 29-10-2007 09:33:01 9.8 C 6.22 g/m*3 9.8 C 0 km/h
2442 29-10-2007 09:45:01 10 C 6.2 g/m*3 10 C 0 km/h
2443 29-10-2007 09:57:01 10.2 C 6.19 g/m*3 10.2 C 0 km/h
2444 29-10-2007 10:09:01 10.5 C 6.3 g/m*3 10.5 C 0 km/h
2445 29-10-2007 10:21:01 10.6 C 6.25 g/m*3 10.6 C 0 km/h
2446 29-10-2007 10:33:02 10.5 C 6.21 g/m*3 10.5 C 0 km/h
2447 29-10-2007 10:45:01 10.5 C 6.21 g/m*3 10.5 C 0 km/h
2448 29-10-2007 10:57:01 10.7 C 6.38 g/m*3 10.7 C 0 km/h
2449 29-10-2007 11:09:01 11 C 6.41 g/m*3 11 C 0 km/h
2450 29-10-2007 11:21:01 10.8 C 6.62 g/m*3 10.8 C 0 km/h
Sensor: Nr:Datum:Temp:Abs-Feuchte:Windchill:Wind:
Aussen-T/F 2451 29-10-2007 11:33:01 10.6 C 6.64 g/m*3 10.6 C 0 km/h
2452 29-10-2007 11:45:02 10.7 C 6.68 g/m*3 10.7 C 0 km/h
2453 29-10-2007 11:57:02 10.5 C 6.79 g/m*3 10.5 C 0 km/h
2454 29-10-2007 12:09:01 10.2 C 6.85 g/m*3 10.2 C 0 km/h
2455 29-10-2007 12:21:02 10 C 7.05 g/m*3 10 C 0 km/h
2456 29-10-2007 12:33:01 9.8 C 7.42 g/m*3 9.8 C 0 km/h
2457 29-10-2007 12:45:01 10.2 C 7.71 g/m*3 10.2 C 0 km/h
2458 29-10-2007 12:57:01 10.5 C 7.86 g/m*3 10.5 C 0 km/h
2459 29-10-2007 13:09:02 10.4 C 7.9 g/m*3 10.4 C 0 km/h
2460 29-10-2007 13:21:01 10 C 7.71 g/m*3 10 C 0 km/h
2461 29-10-2007 13:33:02 10 C 7.8 g/m*3 10 C 0 km/h
2462 29-10-2007 13:45:02 10 C 7.89 g/m*3 10 C 0 km/h
2463 29-10-2007 13:57:02 10 C 7.89 g/m*3 10 C 0 km/h
2464 29-10-2007 14:09:01 9.8 C 7.98 g/m*3 9.8 C 0 km/h
2465 29-10-2007 14:21:02 9.7 C 8.02 g/m*3 9.7 C 0 km/h
2466 29-10-2007 14:33:01 9.6 C 7.97 g/m*3 9.6 C 0 km/h
2467 29-10-2007 14:45:01 9.6 C 8.06 g/m*3 9.6 C 0 km/h
2468 29-10-2007 14:57:01 9.5 C 8.01 g/m*3 9.5 C 0 km/h
2469 29-10-2007 15:09:02 9.5 C 8.01 g/m*3 9.5 C 0 km/h
2470 29-10-2007 15:21:01 9.5 C 8.01 g/m*3 9.5 C 0 km/h
2471 29-10-2007 15:33:02 9.6 C 8.15 g/m*3 9.6 C 0 km/h
2472 29-10-2007 15:45:02 9.4 C 8.05 g/m*3 9.4 C 0 km/h
2473 29-10-2007 15:57:02 9.6 C 8.15 g/m*3 9.6 C 0 km/h
2474 29-10-2007 16:09:01 9.6 C 8.15 g/m*3 9.6 C 0 km/h
2475 29-10-2007 16:21:01 9.5 C 8.19 g/m*3 9.5 C 0 km/h
Sensor: Nr:Datum:Temp:Abs-Feuchte:Windchill:Wind:
Aussen-T/F 2476 29-10-2007 16:33:02 9.5 C 8.19 g/m*3 9.5 C 0 km/h
2477 29-10-2007 16:45:01 9.4 C 8.14 g/m*3 9.4 C 0 km/h
2478 29-10-2007 16:57:01 9.5 C 8.19 g/m*3 9.5 C 0 km/h
2479 29-10-2007 17:09:01 9.4 C 8.14 g/m*3 9.4 C 0 km/h
2480 29-10-2007 17:21:01 9.4 C 8.23 g/m*3 9.4 C 0 km/h
2481 29-10-2007 17:33:01 9.3 C 8.18 g/m*3 9.3 C 0 km/h
2482 29-10-2007 17:45:01 9.3 C 8.18 g/m*3 9.3 C 0 km/h
2483 29-10-2007 17:57:02 9.3 C 8.27 g/m*3 9.3 C 0 km/h
2484 29-10-2007 18:09:01 9.1 C 8.16 g/m*3 9.1 C 0 km/h
2485 29-10-2007 18:21:01 9 C 8.11 g/m*3 9 C 0 km/h
2486 29-10-2007 18:33:01 9 C 8.11 g/m*3 9 C 0 km/h
2487 29-10-2007 18:45:01 9 C 8.2 g/m*3 9 C 0 km/h
2488 29-10-2007 18:57:01 9 C 8.2 g/m*3 9 C 0 km/h
2489 29-10-2007 19:09:02 9 C 8.2 g/m*3 9 C 0 km/h
2490 29-10-2007 19:21:02 8.9 C 8.23 g/m*3 8.9 C 0 km/h
2491 29-10-2007 19:33:01 9 C 8.2 g/m*3 9 C 0 km/h
2492 29-10-2007 19:45:01 8.9 C 8.23 g/m*3 8.9 C 0 km/h
2493 29-10-2007 19:57:01 8.9 C 8.23 g/m*3 8.9 C 0 km/h
2494 29-10-2007 20:09:02 8.9 C 8.23 g/m*3 8.9 C 0 km/h
2495 29-10-2007 20:21:01 8.8 C 8.18 g/m*3 8.8 C 0 km/h
2496 29-10-2007 20:33:02 8.7 C 8.22 g/m*3 8.7 C 0 km/h
2497 29-10-2007 20:45:01 8.7 C 8.22 g/m*3 8.7 C 0 km/h
2498 29-10-2007 20:57:01 8.7 C 8.22 g/m*3 8.7 C 0 km/h
2499 29-10-2007 21:09:01 8.6 C 8.16 g/m*3 8.6 C 0 km/h
2500 29-10-2007 21:21:01 8.7 C 8.22 g/m*3 8.7 C 0 km/h
Sensor: Nr:Datum:Temp:Abs-Feuchte:Windchill:Wind:
Aussen-T/F 2501 29-10-2007 21:33:01 8.6 C 8.16 g/m*3 8.6 C 0 km/h
2502 29-10-2007 21:45:02 8.5 C 8.11 g/m*3 8.5 C 0 km/h
2503 29-10-2007 21:57:02 8.5 C 8.11 g/m*3 8.5 C 0 km/h
2504 29-10-2007 22:09:01 8.5 C 8.11 g/m*3 8.5 C 0 km/h
2505 29-10-2007 22:21:01 8.6 C 8.16 g/m*3 8.6 C 0 km/h
2506 29-10-2007 22:33:01 8.6 C 8.16 g/m*3 8.6 C 0 km/h
2507 29-10-2007 22:45:01 8.6 C 8.16 g/m*3 8.6 C 0 km/h
2508 29-10-2007 22:57:01 8.6 C 8.16 g/m*3 8.6 C 0 km/h
2509 29-10-2007 23:09:02 8.7 C 8.22 g/m*3 8.7 C 0 km/h
2510 29-10-2007 23:21:01 8.7 C 8.22 g/m*3 8.7 C 0 km/h
2511 29-10-2007 23:33:02 8.7 C 8.22 g/m*3 8.7 C 0 km/h
2512 29-10-2007 23:45:02 8.7 C 8.22 g/m*3 8.7 C 0 km/h
2513 29-10-2007 23:57:02 8.6 C 8.16 g/m*3 8.6 C 0 km/h
2514 30-10-2007 00:09:01 8.6 C 8.16 g/m*3 8.6 C 0 km/h
2515 30-10-2007 00:21:02 8.6 C 8.16 g/m*3 8.6 C 0 km/h
2516 30-10-2007 00:33:02 8.6 C 8.16 g/m*3 8.6 C 0 km/h
2517 30-10-2007 00:45:02 8.6 C 8.16 g/m*3 8.6 C 0 km/h
2518 30-10-2007 00:57:02 8.6 C 8.16 g/m*3 8.6 C 0 km/h
2519 30-10-2007 01:09:01 8.6 C 8.16 g/m*3 8.6 C 0 km/h
2520 30-10-2007 01:21:02 8.6 C 8.16 g/m*3 8.6 C 0 km/h
2521 30-10-2007 01:33:01 8.6 C 8.16 g/m*3 8.6 C 0 km/h
2522 30-10-2007 01:45:01 8.6 C 8.16 g/m*3 8.6 C 0 km/h
2523 30-10-2007 01:57:01 8.6 C 8.16 g/m*3 8.6 C 0 km/h
2524 30-10-2007 02:09:02 8.6 C 8.16 g/m*3 8.6 C 0 km/h
2525 30-10-2007 02:21:01 8.6 C 8.16 g/m*3 8.6 C 0 km/h
Sensor: Nr:Datum:Temp:Abs-Feuchte:Windchill:Wind:
Aussen-T/F 2526 30-10-2007 02:33:02 8.6 C 8.16 g/m*3 8.6 C 0 km/h
2527 30-10-2007 02:46:04 8.6 C 8.16 g/m*3 8.6 C 0 km/h
2528 30-10-2007 02:58:04 8.6 C 8.16 g/m*3 8.6 C 0 km/h
2529 30-10-2007 03:10:04 8.6 C 8.16 g/m*3 8.6 C 0 km/h
2530 30-10-2007 03:22:04 8.6 C 8.16 g/m*3 8.6 C 0 km/h
2531 30-10-2007 03:34:02 8.7 C 8.22 g/m*3 8.7 C 0 km/h
2532 30-10-2007 03:46:02 8.5 C 8.11 g/m*3 8.5 C 0 km/h
2533 30-10-2007 03:58:02 8.3 C 8.01 g/m*3 8.3 C 0 km/h
2534 30-10-2007 04:10:02 8 C 7.85 g/m*3 8 C 0 km/h
2535 30-10-2007 04:22:02 7.9 C 7.8 g/m*3 7.9 C 0 km/h
2536 30-10-2007 04:34:02 7.9 C 7.8 g/m*3 7.9 C 0 km/h
2537 30-10-2007 04:46:01 7.8 C 7.75 g/m*3 7.8 C 0 km/h
2538 30-10-2007 04:58:01 7.8 C 7.75 g/m*3 7.8 C 0 km/h
2539 30-10-2007 05:10:02 7.7 C 7.7 g/m*3 7.7 C 0 km/h
2540 30-10-2007 05:22:02 7.8 C 7.75 g/m*3 7.8 C 0 km/h
2541 30-10-2007 05:34:02 7.8 C 7.75 g/m*3 7.8 C 0 km/h
2542 30-10-2007 05:46:03 7.7 C 7.7 g/m*3 7.7 C 0 km/h
2543 30-10-2007 05:58:03 7.7 C 7.7 g/m*3 7.7 C 0 km/h
2544 30-10-2007 06:10:02 7.8 C 7.75 g/m*3 7.8 C 0 km/h
2545 30-10-2007 06:22:03 7.8 C 7.75 g/m*3 7.8 C 0 km/h
2546 30-10-2007 06:34:02 7.7 C 7.7 g/m*3 7.7 C 0 km/h
2547 30-10-2007 06:46:01 7.7 C 7.7 g/m*3 7.7 C 0 km/h
2548 30-10-2007 06:58:01 7.7 C 7.7 g/m*3 7.7 C 0 km/h
2549 30-10-2007 07:10:02 7.7 C 7.7 g/m*3 7.7 C 0 km/h
2550 30-10-2007 07:22:01 7.7 C 7.7 g/m*3 7.7 C 0 km/h
Sensor: Nr:Datum:Temp:Abs-Feuchte:Windchill:Wind:
Aussen-T/F 2551 30-10-2007 07:34:02 7.7 C 7.7 g/m*3 7.7 C 0 km/h
2552 30-10-2007 07:46:02 7.6 C 7.65 g/m*3 7.6 C 0 km/h
2553 30-10-2007 07:58:02 7.8 C 7.75 g/m*3 7.8 C 0 km/h
2554 30-10-2007 08:10:03 7.9 C 7.8 g/m*3 7.9 C 0 km/h
2555 30-10-2007 08:22:02 8.1 C 7.9 g/m*3 8.1 C 0 km/h
2556 30-10-2007 08:34:03 8.2 C 7.96 g/m*3 8.2 C 0 km/h
2557 30-10-2007 08:46:02 8.2 C 7.96 g/m*3 8.2 C 0 km/h
2558 30-10-2007 08:58:02 8.4 C 7.97 g/m*3 8.4 C 0 km/h
2559 30-10-2007 09:10:02 8.6 C 8.08 g/m*3 8.6 C 0 km/h
2560 30-10-2007 09:22:02 8.6 C 7.91 g/m*3 8.6 C 0 km/h
2561 30-10-2007 09:34:02 8.8 C 7.92 g/m*3 8.8 C 0 km/h
2562 30-10-2007 09:46:02 9.1 C 7.9 g/m*3 9.1 C 0 km/h
2563 30-10-2007 09:58:02 9.5 C 8.1 g/m*3 9.5 C 0 km/h
2564 30-10-2007 10:10:02 9.5 C 8.01 g/m*3 9.5 C 0 km/h
2565 30-10-2007 10:22:02 9.6 C 7.51 g/m*3 9.6 C 0 km/h
2566 30-10-2007 10:34:02 9.7 C 7.19 g/m*3 9.7 C 0 km/h
2567 30-10-2007 10:46:02 10.2 C 7.04 g/m*3 10.2 C 0 km/h
2568 30-10-2007 10:58:03 10.1 C 6.81 g/m*3 10.1 C 0 km/h
2569 30-10-2007 11:10:01 10 C 6.48 g/m*3 10 C 0 km/h
2570 30-10-2007 11:22:02 10.2 C 6.76 g/m*3 10.2 C 0 km/h
2571 30-10-2007 11:34:02 10.2 C 6.85 g/m*3 10.2 C 0 km/h
2572 30-10-2007 11:46:02 10.3 C 6.8 g/m*3 10.3 C 0 km/h
2573 30-10-2007 11:58:02 11.1 C 6.55 g/m*3 11.1 C 0 km/h
2574 30-10-2007 12:10:02 11.1 C 5.74 g/m*3 11.1 C 0 km/h
2575 30-10-2007 12:22:02 10.9 C 6.07 g/m*3 10.9 C 0 km/h
Sensor: Nr:Datum:Temp:Abs-Feuchte:Windchill:Wind:
Aussen-T/F 2576 30-10-2007 12:34:02 10.8 C 6.33 g/m*3 10.8 C 0 km/h
2577 30-10-2007 12:46:02 10.7 C 6.19 g/m*3 10.7 C 0 km/h
2578 30-10-2007 12:58:02 11.1 C 6.14 g/m*3 11.1 C 0 km/h
2579 30-10-2007 13:10:02 11.5 C 5.89 g/m*3 11.5 C 0 km/h
2580 30-10-2007 13:22:01 11.4 C 5.54 g/m*3 11.4 C 0 km/h
2581 30-10-2007 13:34:02 11.4 C 5.65 g/m*3 11.4 C 0 km/h
2582 30-10-2007 13:46:02 11.5 C 5.58 g/m*3 11.5 C 0 km/h
2583 30-10-2007 13:58:02 11.7 C 5.54 g/m*3 11.7 C 0 km/h
2584 30-10-2007 14:10:02 11.6 C 5.92 g/m*3 11.6 C 0 km/h
2585 30-10-2007 14:22:02 11.4 C 5.85 g/m*3 11.4 C 0 km/h
2586 30-10-2007 14:34:01 11 C 5.71 g/m*3 11 C 0 km/h
2587 30-10-2007 14:46:02 10.8 C 5.93 g/m*3 10.8 C 0 km/h
2588 30-10-2007 14:58:02 10.7 C 5.99 g/m*3 10.7 C 0 km/h
2589 30-10-2007 15:10:02 10.7 C 5.89 g/m*3 10.7 C 0 km/h
2590 30-10-2007 15:22:02 10.8 C 6.03 g/m*3 10.8 C 0 km/h
2591 30-10-2007 15:34:01 10.7 C 6.09 g/m*3 10.7 C 0 km/h
2592 30-10-2007 15:46:02 10.3 C 6.03 g/m*3 10.3 C 0 km/h
2593 30-10-2007 15:58:02 9.9 C 6.16 g/m*3 9.9 C 0 km/h
2594 30-10-2007 16:10:02 9.6 C 6.41 g/m*3 9.6 C 0 km/h
2595 30-10-2007 16:22:02 9.1 C 6.48 g/m*3 9.1 C 0 km/h
2596 30-10-2007 16:34:02 8.8 C 6.53 g/m*3 8.8 C 0 km/h
2597 30-10-2007 16:46:02 8.6 C 6.53 g/m*3 8.6 C 0 km/h
2598 30-10-2007 16:58:02 8.2 C 6.45 g/m*3 8.2 C 0 km/h
2599 30-10-2007 17:10:02 8.1 C 6.57 g/m*3 8.1 C 0 km/h
2600 30-10-2007 17:22:02 8.3 C 6.74 g/m*3 8.3 C 0 km/h
Sensor: Nr:Datum:Temp:Abs-Feuchte:Windchill:Wind:
Aussen-T/F 2601 30-10-2007 17:34:02 8.4 C 6.79 g/m*3 8.4 C 0 km/h
2602 30-10-2007 17:46:02 8.4 C 6.87 g/m*3 8.4 C 0 km/h
2603 30-10-2007 17:58:02 8.1 C 6.82 g/m*3 8.1 C 0 km/h
2604 30-10-2007 18:10:03 7.9 C 6.82 g/m*3 7.9 C 0 km/h
2605 30-10-2007 18:22:02 7.8 C 6.86 g/m*3 7.8 C 0 km/h
2606 30-10-2007 18:34:02 7.4 C 6.68 g/m*3 7.4 C 0 km/h
2607 30-10-2007 18:46:02 7.4 C 6.84 g/m*3 7.4 C 0 km/h
2608 30-10-2007 18:58:02 7.6 C 7.01 g/m*3 7.6 C 0 km/h
2609 30-10-2007 19:10:01 7.8 C 7.1 g/m*3 7.8 C 0 km/h
2610 30-10-2007 19:22:02 7.9 C 7.06 g/m*3 7.9 C 0 km/h
2611 30-10-2007 19:34:01 8 C 7.03 g/m*3 8 C 0 km/h
2612 30-10-2007 19:46:01 8 C 6.94 g/m*3 8 C 0 km/h
2613 30-10-2007 19:58:01 7.8 C 7.02 g/m*3 7.8 C 0 km/h
2614 30-10-2007 20:10:02 7.7 C 7.14 g/m*3 7.7 C 0 km/h
2615 30-10-2007 20:22:01 7.6 C 7.17 g/m*3 7.6 C 0 km/h
2616 30-10-2007 20:34:02 7.8 C 7.26 g/m*3 7.8 C 0 km/h
2617 30-10-2007 20:46:02 7.8 C 7.35 g/m*3 7.8 C 0 km/h
2618 30-10-2007 20:58:02 7.9 C 7.47 g/m*3 7.9 C 0 km/h
2619 30-10-2007 21:10:01 7.8 C 7.51 g/m*3 7.8 C 0 km/h
2620 30-10-2007 21:22:02 7.9 C 7.56 g/m*3 7.9 C 0 km/h
2621 30-10-2007 21:34:02 7.8 C 7.51 g/m*3 7.8 C 0 km/h
2622 30-10-2007 21:46:02 7.8 C 7.59 g/m*3 7.8 C 0 km/h
2623 30-10-2007 21:58:02 7.9 C 7.64 g/m*3 7.9 C 0 km/h
2624 30-10-2007 22:10:02 7.7 C 7.54 g/m*3 7.7 C 0 km/h
2625 30-10-2007 22:22:02 7.5 C 7.44 g/m*3 7.5 C 0 km/h
Sensor: Nr:Datum:Temp:Abs-Feuchte:Windchill:Wind:
Aussen-T/F 2626 30-10-2007 22:34:02 7.3 C 7.35 g/m*3 7.3 C 0 km/h
2627 30-10-2007 22:46:01 7.3 C 7.35 g/m*3 7.3 C 0 km/h
2628 30-10-2007 22:58:01 7.1 C 7.25 g/m*3 7.1 C 0 km/h
2629 30-10-2007 23:10:02 7.1 C 7.33 g/m*3 7.1 C 0 km/h
2630 30-10-2007 23:22:01 6.8 C 7.19 g/m*3 6.8 C 0 km/h
2631 30-10-2007 23:34:02 6.7 C 7.14 g/m*3 6.7 C 0 km/h
2632 30-10-2007 23:46:02 6.3 C 6.96 g/m*3 6.3 C 0 km/h
2633 30-10-2007 23:58:02 6.1 C 6.87 g/m*3 6.1 C 0 km/h
2634 31-10-2007 00:10:02 5.9 C 6.85 g/m*3 5.9 C 0 km/h
2635 31-10-2007 00:22:03 6 C 6.9 g/m*3 6 C 0 km/h
2636 31-10-2007 00:34:02 5.9 C 6.85 g/m*3 5.9 C 0 km/h
2637 31-10-2007 00:46:02 5.7 C 6.76 g/m*3 5.7 C 0 km/h
2638 31-10-2007 00:58:02 5.3 C 6.58 g/m*3 5.3 C 0 km/h
2639 31-10-2007 01:10:02 5.2 C 6.54 g/m*3 5.2 C 0 km/h
2640 31-10-2007 01:22:02 5.1 C 6.5 g/m*3 5.1 C 0 km/h
2641 31-10-2007 01:34:02 5.4 C 6.63 g/m*3 5.4 C 0 km/h
2642 31-10-2007 01:46:02 5.1 C 6.5 g/m*3 5.1 C 0 km/h
2643 31-10-2007 01:58:02 5.1 C 6.5 g/m*3 5.1 C 0 km/h
2644 31-10-2007 02:10:01 4.9 C 6.41 g/m*3 4.9 C 0 km/h
2645 31-10-2007 02:22:02 4.7 C 6.33 g/m*3 4.7 C 0 km/h
2646 31-10-2007 02:34:01 4.5 C 6.24 g/m*3 4.5 C 0 km/h
2647 31-10-2007 02:46:01 4.8 C 6.37 g/m*3 4.8 C 0 km/h
2648 31-10-2007 02:58:01 5.2 C 6.54 g/m*3 5.2 C 0 km/h
2649 31-10-2007 03:10:02 5.3 C 6.58 g/m*3 5.3 C 0 km/h
2650 31-10-2007 03:22:02 5.3 C 6.58 g/m*3 5.3 C 0 km/h
Sensor: Nr:Datum:Temp:Abs-Feuchte:Windchill:Wind:
Aussen-T/F 2651 31-10-2007 03:34:02 5.2 C 6.54 g/m*3 5.2 C 0 km/h
2652 31-10-2007 03:46:02 5.2 C 6.54 g/m*3 5.2 C 0 km/h
2653 31-10-2007 03:58:02 5.2 C 6.54 g/m*3 5.2 C 0 km/h
2654 31-10-2007 04:10:01 5.3 C 6.58 g/m*3 5.3 C 0 km/h
2655 31-10-2007 04:22:02 5.3 C 6.58 g/m*3 5.3 C 0 km/h
2656 31-10-2007 04:34:01 5.3 C 6.58 g/m*3 5.3 C 0 km/h
2657 31-10-2007 04:46:02 5.3 C 6.58 g/m*3 5.3 C 0 km/h
2658 31-10-2007 04:58:02 5.4 C 6.63 g/m*3 5.4 C 0 km/h
2659 31-10-2007 05:10:01 5.6 C 6.72 g/m*3 5.6 C 0 km/h
2660 31-10-2007 05:22:01 5.6 C 6.72 g/m*3 5.6 C 0 km/h
2661 31-10-2007 05:34:01 5.6 C 6.72 g/m*3 5.6 C 0 km/h
2662 31-10-2007 05:46:01 5.6 C 6.72 g/m*3 5.6 C 0 km/h
2663 31-10-2007 05:58:01 5.8 C 6.81 g/m*3 5.8 C 0 km/h
2664 31-10-2007 06:10:01 5.8 C 6.81 g/m*3 5.8 C 0 km/h
2665 31-10-2007 06:22:02 5.8 C 6.81 g/m*3 5.8 C 0 km/h
2666 31-10-2007 06:34:01 5.8 C 6.81 g/m*3 5.8 C 0 km/h
2667 31-10-2007 06:46:01 5.9 C 6.85 g/m*3 5.9 C 0 km/h
2668 31-10-2007 06:58:01 5.9 C 6.85 g/m*3 5.9 C 0 km/h
2669 31-10-2007 07:10:02 6 C 6.9 g/m*3 6 C 0 km/h
2670 31-10-2007 07:22:01 6 C 6.9 g/m*3 6 C 0 km/h
2671 31-10-2007 07:34:01 6.1 C 6.94 g/m*3 6.1 C 0 km/h
2672 31-10-2007 07:46:01 6.2 C 6.99 g/m*3 6.2 C 0 km/h
2673 31-10-2007 07:58:01 6.3 C 7.03 g/m*3 6.3 C 0 km/h
2674 31-10-2007 08:10:02 6.3 C 7.03 g/m*3 6.3 C 0 km/h
2675 31-10-2007 08:22:02 6.3 C 7.03 g/m*3 6.3 C 0 km/h
Sensor: Nr:Datum:Temp:Abs-Feuchte:Windchill:Wind:
Aussen-T/F 2676 31-10-2007 08:34:01 6.3 C 7.03 g/m*3 6.3 C 0 km/h
2677 31-10-2007 08:46:01 6.5 C 7.12 g/m*3 6.5 C 0 km/h
2678 31-10-2007 08:58:01 6.5 C 7.12 g/m*3 6.5 C 0 km/h
2679 31-10-2007 09:10:02 6.5 C 7.05 g/m*3 6.5 C 0 km/h
2680 31-10-2007 09:22:01 6.7 C 6.99 g/m*3 6.7 C 0 km/h
2681 31-10-2007 09:34:02 7 C 7.05 g/m*3 7 C 0 km/h
2682 31-10-2007 09:46:02 6.9 C 6.85 g/m*3 6.9 C 0 km/h
2683 31-10-2007 09:58:02 6.9 C 6.7 g/m*3 6.9 C 0 km/h
2684 31-10-2007 10:10:01 7.1 C 6.63 g/m*3 7.1 C 0 km/h
2685 31-10-2007 10:22:01 7.1 C 6.47 g/m*3 7.1 C 0 km/h
2686 31-10-2007 10:34:01 7.3 C 6.56 g/m*3 7.3 C 0 km/h
2687 31-10-2007 10:46:01 7.4 C 6.52 g/m*3 7.4 C 0 km/h
2688 31-10-2007 10:58:01 7.6 C 6.53 g/m*3 7.6 C 0 km/h
2689 31-10-2007 11:10:02 7.9 C 6.57 g/m*3 7.9 C 0 km/h
2690 31-10-2007 11:22:01 7.6 C 6.36 g/m*3 7.6 C 0 km/h
2691 31-10-2007 11:34:01 7.9 C 6.49 g/m*3 7.9 C 0 km/h
2692 31-10-2007 11:46:02 8.3 C 6.49 g/m*3 8.3 C 0 km/h
2693 31-10-2007 11:58:02 8.4 C 6.28 g/m*3 8.4 C 0 km/h
2694 31-10-2007 12:10:01 8.8 C 6.44 g/m*3 8.8 C 0 km/h
2695 31-10-2007 12:22:02 8.6 C 6.19 g/m*3 8.6 C 0 km/h
2696 31-10-2007 12:34:01 8.9 C 6.39 g/m*3 8.9 C 0 km/h
2697 31-10-2007 12:46:01 9.1 C 6.48 g/m*3 9.1 C 0 km/h
2698 31-10-2007 12:58:01 9.1 C 6.48 g/m*3 9.1 C 0 km/h
2699 31-10-2007 13:10:02 9.2 C 6.43 g/m*3 9.2 C 0 km/h
2700 31-10-2007 13:22:01 9.4 C 6.42 g/m*3 9.4 C 0 km/h
Sensor: Nr:Datum:Temp:Abs-Feuchte:Windchill:Wind:
Aussen-T/F 2701 31-10-2007 13:34:02 9.7 C 6.36 g/m*3 9.7 C 0 km/h
2702 31-10-2007 13:46:02 9.9 C 6.44 g/m*3 9.9 C 0 km/h
2703 31-10-2007 13:58:02 10 C 6.3 g/m*3 10 C 0 km/h
2704 31-10-2007 14:10:01 10 C 6.3 g/m*3 10 C 0 km/h
2705 31-10-2007 14:22:02 9.9 C 6.26 g/m*3 9.9 C 0 km/h
2706 31-10-2007 14:34:01 9.8 C 6.22 g/m*3 9.8 C 0 km/h
2707 31-10-2007 14:46:01 9.8 C 6.31 g/m*3 9.8 C 0 km/h
2708 31-10-2007 14:58:01 10.3 C 6.22 g/m*3 10.3 C 0 km/h
2709 31-10-2007 15:10:01 10.5 C 6.21 g/m*3 10.5 C 0 km/h
2710 31-10-2007 15:22:01 10.6 C 6.34 g/m*3 10.6 C 0 km/h
2711 31-10-2007 15:34:02 10.8 C 6.33 g/m*3 10.8 C 0 km/h
2712 31-10-2007 15:46:01 11 C 6.21 g/m*3 11 C 0 km/h
2713 31-10-2007 15:58:01 10.9 C 6.27 g/m*3 10.9 C 0 km/h
2714 31-10-2007 16:10:01 10.5 C 6.11 g/m*3 10.5 C 0 km/h
2715 31-10-2007 16:22:02 10.2 C 6.19 g/m*3 10.2 C 0 km/h
2716 31-10-2007 16:34:02 9.7 C 6.18 g/m*3 9.7 C 0 km/h
2717 31-10-2007 16:46:01 8.8 C 6.09 g/m*3 8.8 C 0 km/h
2718 31-10-2007 16:58:01 8.1 C 6.07 g/m*3 8.1 C 0 km/h
2719 31-10-2007 17:10:01 7.5 C 6.08 g/m*3 7.5 C 0 km/h
2720 31-10-2007 17:22:01 6.9 C 6.16 g/m*3 6.9 C 0 km/h
2721 31-10-2007 17:34:01 6.5 C 6.15 g/m*3 6.5 C 0 km/h
2722 31-10-2007 17:46:02 6.2 C 6.1 g/m*3 6.2 C 0 km/h
2723 31-10-2007 17:58:02 6 C 6.1 g/m*3 6 C 0 km/h
2724 31-10-2007 18:10:01 5.9 C 6.13 g/m*3 5.9 C 0 km/h
2725 31-10-2007 18:22:01 5.8 C 6.16 g/m*3 5.8 C 0 km/h
Sensor: Nr:Datum:Temp:Abs-Feuchte:Windchill:Wind:
Aussen-T/F 2726 31-10-2007 18:34:01 5.7 C 6.12 g/m*3 5.7 C 0 km/h
2727 31-10-2007 18:46:01 5.4 C 6 g/m*3 5.4 C 0 km/h
2728 31-10-2007 18:58:01 5.2 C 5.99 g/m*3 5.2 C 0 km/h
2729 31-10-2007 19:10:02 5.2 C 5.99 g/m*3 5.2 C 0 km/h
2730 31-10-2007 19:22:01 5.1 C 6.02 g/m*3 5.1 C 0 km/h
2731 31-10-2007 19:34:01 4.9 C 6.01 g/m*3 4.9 C 0 km/h
2732 31-10-2007 19:46:02 4.9 C 6.01 g/m*3 4.9 C 0 km/h
2733 31-10-2007 19:58:02 4.9 C 6.01 g/m*3 4.9 C 0 km/h
2734 31-10-2007 20:10:01 4.7 C 5.93 g/m*3 4.7 C 0 km/h
2735 31-10-2007 20:22:01 4.4 C 5.81 g/m*3 4.4 C 0 km/h
2736 31-10-2007 20:34:01 4.4 C 5.81 g/m*3 4.4 C 0 km/h
2737 31-10-2007 20:46:01 4.4 C 5.88 g/m*3 4.4 C 0 km/h
2738 31-10-2007 20:58:01 4.1 C 5.76 g/m*3 4.1 C 0 km/h
2739 31-10-2007 21:10:02 4 C 5.72 g/m*3 4 C 0 km/h
2740 31-10-2007 21:22:01 3.9 C 5.75 g/m*3 3.9 C 0 km/h
2741 31-10-2007 21:34:01 3.8 C 5.77 g/m*3 3.8 C 0 km/h
2742 31-10-2007 21:46:02 3.7 C 5.67 g/m*3 3.7 C 0 km/h
2743 31-10-2007 21:58:02 3.8 C 5.77 g/m*3 3.8 C 0 km/h
2744 31-10-2007 22:10:01 3.7 C 5.73 g/m*3 3.7 C 0 km/h
2745 31-10-2007 22:22:02 3.6 C 5.69 g/m*3 3.6 C 0 km/h
2746 31-10-2007 22:34:01 3.7 C 5.8 g/m*3 3.7 C 0 km/h
2747 31-10-2007 22:46:01 3.8 C 5.83 g/m*3 3.8 C 0 km/h
2748 31-10-2007 22:58:01 3.9 C 5.87 g/m*3 3.9 C 0 km/h
2749 31-10-2007 23:10:02 3.9 C 5.94 g/m*3 3.9 C 0 km/h
2750 31-10-2007 23:22:01 4 C 5.98 g/m*3 4 C 0 km/h
Sensor: Nr:Datum:Temp:Abs-Feuchte:Windchill:Wind:
Aussen-T/F 2751 31-10-2007 23:34:02 4.1 C 6.02 g/m*3 4.1 C 0 km/h
2752 31-10-2007 23:46:02 4.1 C 6.02 g/m*3 4.1 C 0 km/h
2753 31-10-2007 23:58:02 4.2 C 6.06 g/m*3 4.2 C 0 km/h
2754 01-11-2007 00:10:01 4 C 5.98 g/m*3 4 C 0 km/h
2755 01-11-2007 00:22:02 4.1 C 6.02 g/m*3 4.1 C 0 km/h
2756 01-11-2007 00:34:01 4 C 5.98 g/m*3 4 C 0 km/h
2757 01-11-2007 00:46:01 4.1 C 6.02 g/m*3 4.1 C 0 km/h
2758 01-11-2007 00:58:01 4.1 C 6.02 g/m*3 4.1 C 0 km/h
2759 01-11-2007 01:10:02 3.8 C 5.9 g/m*3 3.8 C 0 km/h
2760 01-11-2007 01:22:01 3.5 C 5.78 g/m*3 3.5 C 0 km/h
2761 01-11-2007 01:34:02 3.6 C 5.82 g/m*3 3.6 C 0 km/h
2762 01-11-2007 01:46:01 3.6 C 5.82 g/m*3 3.6 C 0 km/h
2763 01-11-2007 01:58:02 3.6 C 5.82 g/m*3 3.6 C 0 km/h
2764 01-11-2007 02:10:01 3.6 C 5.82 g/m*3 3.6 C 0 km/h
2765 01-11-2007 02:22:02 3.4 C 5.74 g/m*3 3.4 C 0 km/h
2766 01-11-2007 02:34:01 3.4 C 5.68 g/m*3 3.4 C 0 km/h
2767 01-11-2007 02:47:04 3.4 C 5.68 g/m*3 3.4 C 0 km/h
2768 01-11-2007 02:59:04 3.4 C 5.68 g/m*3 3.4 C 0 km/h
2769 01-11-2007 03:11:04 3.5 C 5.66 g/m*3 3.5 C 0 km/h
2770 01-11-2007 03:23:04 3.4 C 5.62 g/m*3 3.4 C 0 km/h
2771 01-11-2007 03:35:02 3.3 C 5.58 g/m*3 3.3 C 0 km/h
2772 01-11-2007 03:47:02 3.1 C 5.57 g/m*3 3.1 C 0 km/h
2773 01-11-2007 03:59:02 2.9 C 5.55 g/m*3 2.9 C 0 km/h
2774 01-11-2007 04:11:02 3 C 5.59 g/m*3 3 C 0 km/h
2775 01-11-2007 04:23:02 2.7 C 5.48 g/m*3 2.7 C 0 km/h
Sensor: Nr:Datum:Temp:Abs-Feuchte:Windchill:Wind:
Aussen-T/F 2776 01-11-2007 04:35:02 2.4 C 5.37 g/m*3 2.4 C 0 km/h
2777 01-11-2007 04:47:02 2.4 C 5.37 g/m*3 2.4 C 0 km/h
2778 01-11-2007 04:59:02 2.5 C 5.4 g/m*3 2.5 C 0 km/h
2779 01-11-2007 05:11:02 2.7 C 5.54 g/m*3 2.7 C 0 km/h
2780 01-11-2007 05:23:02 2.7 C 5.54 g/m*3 2.7 C 0 km/h
2781 01-11-2007 05:35:02 2.7 C 5.48 g/m*3 2.7 C 0 km/h
2782 01-11-2007 05:47:02 2.7 C 5.48 g/m*3 2.7 C 0 km/h
2783 01-11-2007 05:59:02 2.7 C 5.48 g/m*3 2.7 C 0 km/h
2784 01-11-2007 06:11:02 2.5 C 5.35 g/m*3 2.5 C 0 km/h
2785 01-11-2007 06:23:02 2.5 C 5.35 g/m*3 2.5 C 0 km/h
2786 01-11-2007 06:35:02 2.4 C 5.31 g/m*3 2.4 C 0 km/h
2787 01-11-2007 06:47:02 2.4 C 5.31 g/m*3 2.4 C 0 km/h
2788 01-11-2007 06:59:02 2.4 C 5.37 g/m*3 2.4 C 0 km/h
2789 01-11-2007 07:11:02 2.4 C 5.31 g/m*3 2.4 C 0 km/h
2790 01-11-2007 07:23:02 2.3 C 5.27 g/m*3 2.3 C 0 km/h
2791 01-11-2007 07:35:02 2.2 C 5.24 g/m*3 2.2 C 0 km/h
2792 01-11-2007 07:47:01 2.2 C 5.24 g/m*3 2.2 C 0 km/h
2793 01-11-2007 07:59:01 2 C 5.17 g/m*3 2 C 0 km/h
2794 01-11-2007 08:11:02 1.9 C 5.19 g/m*3 1.9 C 0 km/h
2795 01-11-2007 08:23:01 2 C 5.17 g/m*3 2 C 0 km/h
2796 01-11-2007 08:35:02 2.1 C 5.2 g/m*3 2.1 C 0 km/h
2797 01-11-2007 08:47:02 1.8 C 5.1 g/m*3 1.8 C 0 km/h
2798 01-11-2007 08:59:02 2 C 5.11 g/m*3 2 C 0 km/h
2799 01-11-2007 09:11:02 2.1 C 5.15 g/m*3 2.1 C 0 km/h
2800 01-11-2007 09:23:02 2.4 C 5.2 g/m*3 2.4 C 0 km/h
Sensor: Nr:Datum:Temp:Abs-Feuchte:Windchill:Wind:
Aussen-T/F 2801 01-11-2007 09:35:02 2.8 C 5.34 g/m*3 2.8 C 0 km/h
2802 01-11-2007 09:47:01 3.2 C 5.36 g/m*3 3.2 C 0 km/h
2803 01-11-2007 09:59:01 3.3 C 5.34 g/m*3 3.3 C 0 km/h
2804 01-11-2007 10:11:02 3.4 C 5.37 g/m*3 3.4 C 0 km/h
2805 01-11-2007 10:23:01 3.5 C 5.47 g/m*3 3.5 C 0 km/h
2806 01-11-2007 10:35:02 4.1 C 5.63 g/m*3 4.1 C 0 km/h
2807 01-11-2007 10:47:02 5 C 5.91 g/m*3 5 C 0 km/h
2808 01-11-2007 10:59:02 5.5 C 5.83 g/m*3 5.5 C 0 km/h
2809 01-11-2007 11:11:02 5.5 C 5.62 g/m*3 5.5 C 0 km/h
2810 01-11-2007 11:23:02 5.7 C 5.84 g/m*3 5.7 C 0 km/h
2811 01-11-2007 11:35:02 6.7 C 5.93 g/m*3 6.7 C 0 km/h
2812 01-11-2007 11:47:02 7.7 C 5.92 g/m*3 7.7 C 0 km/h
2813 01-11-2007 11:59:02 8.6 C 6.02 g/m*3 8.6 C 0 km/h
2814 01-11-2007 12:11:02 8.5 C 5.64 g/m*3 8.5 C 0 km/h
2815 01-11-2007 12:23:02 8.9 C 5.87 g/m*3 8.9 C 0 km/h
2816 01-11-2007 12:35:02 9 C 5.82 g/m*3 9 C 0 km/h
2817 01-11-2007 12:47:02 9 C 5.82 g/m*3 9 C 0 km/h
2818 01-11-2007 12:59:03 9 C 5.91 g/m*3 9 C 0 km/h
2819 01-11-2007 13:11:01 9 C 5.91 g/m*3 9 C 0 km/h
2820 01-11-2007 13:23:01 9 C 5.99 g/m*3 9 C 0 km/h
2821 01-11-2007 13:35:02 8.9 C 6.04 g/m*3 8.9 C 0 km/h
2822 01-11-2007 13:47:02 8.9 C 6.04 g/m*3 8.9 C 0 km/h
2823 01-11-2007 13:59:02 8.9 C 5.96 g/m*3 8.9 C 0 km/h
2824 01-11-2007 14:11:02 8.8 C 6.09 g/m*3 8.8 C 0 km/h
2825 01-11-2007 14:23:02 8.7 C 6.05 g/m*3 8.7 C 0 km/h
Sensor: Nr:Datum:Temp:Abs-Feuchte:Windchill:Wind:
Aussen-T/F 2826 01-11-2007 14:35:02 8.5 C 6.06 g/m*3 8.5 C 0 km/h
2827 01-11-2007 14:47:02 8.4 C 6.11 g/m*3 8.4 C 0 km/h
2828 01-11-2007 14:59:02 8.4 C 6.19 g/m*3 8.4 C 0 km/h
2829 01-11-2007 15:11:02 8.3 C 6.24 g/m*3 8.3 C 0 km/h
2830 01-11-2007 15:23:02 8.2 C 6.2 g/m*3 8.2 C 0 km/h
2831 01-11-2007 15:35:02 8.2 C 6.2 g/m*3 8.2 C 0 km/h
2832 01-11-2007 15:47:02 8.2 C 6.2 g/m*3 8.2 C 0 km/h
2833 01-11-2007 15:59:02 8.2 C 6.28 g/m*3 8.2 C 0 km/h
2834 01-11-2007 16:11:01 8.2 C 6.36 g/m*3 8.2 C 0 km/h
2835 01-11-2007 16:23:02 8.1 C 6.41 g/m*3 8.1 C 0 km/h
2836 01-11-2007 16:35:02 8 C 6.37 g/m*3 8 C 0 km/h
2837 01-11-2007 16:47:02 8 C 6.37 g/m*3 8 C 0 km/h
2838 01-11-2007 16:59:02 8 C 6.45 g/m*3 8 C 0 km/h
2839 01-11-2007 17:11:02 7.9 C 6.49 g/m*3 7.9 C 0 km/h
2840 01-11-2007 17:23:03 7.9 C 6.49 g/m*3 7.9 C 0 km/h
2841 01-11-2007 17:35:02 7.9 C 6.57 g/m*3 7.9 C 0 km/h
2842 01-11-2007 17:47:02 7.9 C 6.65 g/m*3 7.9 C 0 km/h
2843 01-11-2007 17:59:02 7.9 C 6.65 g/m*3 7.9 C 0 km/h
2844 01-11-2007 18:11:02 7.9 C 6.65 g/m*3 7.9 C 0 km/h
2845 01-11-2007 18:23:02 7.9 C 6.65 g/m*3 7.9 C 0 km/h
2846 01-11-2007 18:35:01 7.8 C 6.61 g/m*3 7.8 C 0 km/h
2847 01-11-2007 18:47:01 7.9 C 6.65 g/m*3 7.9 C 0 km/h
2848 01-11-2007 18:59:01 7.9 C 6.65 g/m*3 7.9 C 0 km/h
2849 01-11-2007 19:11:02 7.8 C 6.69 g/m*3 7.8 C 0 km/h
2850 01-11-2007 19:23:02 7.9 C 6.74 g/m*3 7.9 C 0 km/h
Sensor: Nr:Datum:Temp:Abs-Feuchte:Windchill:Wind:
Aussen-T/F 2851 01-11-2007 19:35:01 7.8 C 6.69 g/m*3 7.8 C 0 km/h
2852 01-11-2007 19:47:01 7.8 C 6.69 g/m*3 7.8 C 0 km/h
2853 01-11-2007 19:59:01 7.8 C 6.69 g/m*3 7.8 C 0 km/h
2854 01-11-2007 20:11:02 7.9 C 6.82 g/m*3 7.9 C 0 km/h
2855 01-11-2007 20:23:02 7.9 C 6.82 g/m*3 7.9 C 0 km/h
2856 01-11-2007 20:35:01 7.9 C 6.82 g/m*3 7.9 C 0 km/h
2857 01-11-2007 20:47:01 8 C 6.78 g/m*3 8 C 0 km/h
2858 01-11-2007 20:59:01 8 C 6.78 g/m*3 8 C 0 km/h
2859 01-11-2007 21:11:02 8 C 6.78 g/m*3 8 C 0 km/h
2860 01-11-2007 21:23:01 8 C 6.78 g/m*3 8 C 0 km/h
2861 01-11-2007 21:35:01 8.1 C 6.82 g/m*3 8.1 C 0 km/h
2862 01-11-2007 21:47:01 8.1 C 6.82 g/m*3 8.1 C 0 km/h
2863 01-11-2007 21:59:01 8.1 C 6.91 g/m*3 8.1 C 0 km/h
2864 01-11-2007 22:11:02 8.1 C 6.91 g/m*3 8.1 C 0 km/h
2865 01-11-2007 22:23:01 8.1 C 6.91 g/m*3 8.1 C 0 km/h
2866 01-11-2007 22:35:01 8.1 C 6.91 g/m*3 8.1 C 0 km/h
2867 01-11-2007 22:47:02 8.2 C 6.95 g/m*3 8.2 C 0 km/h
2868 01-11-2007 22:59:02 8.2 C 6.95 g/m*3 8.2 C 0 km/h
2869 01-11-2007 23:11:02 8.2 C 6.95 g/m*3 8.2 C 0 km/h
2870 01-11-2007 23:23:02 8.2 C 6.95 g/m*3 8.2 C 0 km/h
2871 01-11-2007 23:35:02 8.1 C 6.91 g/m*3 8.1 C 0 km/h
2872 01-11-2007 23:47:02 8 C 6.94 g/m*3 8 C 0 km/h
2873 01-11-2007 23:59:02 8 C 6.94 g/m*3 8 C 0 km/h
2874 02-11-2007 00:11:02 8.1 C 6.99 g/m*3 8.1 C 0 km/h
2875 02-11-2007 00:23:03 8.1 C 7.07 g/m*3 8.1 C 0 km/h
Sensor: Nr:Datum:Temp:Abs-Feuchte:Windchill:Wind:
Aussen-T/F 2876 02-11-2007 00:35:02 8.2 C 7.12 g/m*3 8.2 C 0 km/h
2877 02-11-2007 00:47:02 8.2 C 7.12 g/m*3 8.2 C 0 km/h
2878 02-11-2007 00:59:02 8.2 C 7.12 g/m*3 8.2 C 0 km/h
2879 02-11-2007 01:11:02 8.2 C 7.12 g/m*3 8.2 C 0 km/h
2880 02-11-2007 01:23:02 8.1 C 7.07 g/m*3 8.1 C 0 km/h
2881 02-11-2007 01:35:01 8.1 C 7.16 g/m*3 8.1 C 0 km/h
2882 02-11-2007 01:47:01 8.2 C 7.2 g/m*3 8.2 C 0 km/h
2883 02-11-2007 01:59:01 8.1 C 7.24 g/m*3 8.1 C 0 km/h
2884 02-11-2007 02:11:02 8.2 C 7.29 g/m*3 8.2 C 0 km/h
2885 02-11-2007 02:23:02 8.2 C 7.29 g/m*3 8.2 C 0 km/h
2886 02-11-2007 02:35:01 8.2 C 7.29 g/m*3 8.2 C 0 km/h
2887 02-11-2007 02:47:01 8.3 C 7.33 g/m*3 8.3 C 0 km/h
2888 02-11-2007 02:59:01 8.3 C 7.33 g/m*3 8.3 C 0 km/h
2889 02-11-2007 03:11:02 8.4 C 7.38 g/m*3 8.4 C 0 km/h
2890 02-11-2007 03:23:02 8.4 C 7.38 g/m*3 8.4 C 0 km/h
2891 02-11-2007 03:35:01 8.4 C 7.38 g/m*3 8.4 C 0 km/h
2892 02-11-2007 03:47:01 8.3 C 7.33 g/m*3 8.3 C 0 km/h
2893 02-11-2007 03:59:01 8.4 C 7.38 g/m*3 8.4 C 0 km/h
2894 02-11-2007 04:11:02 8.4 C 7.47 g/m*3 8.4 C 0 km/h
2895 02-11-2007 04:23:01 8.5 C 7.51 g/m*3 8.5 C 0 km/h
2896 02-11-2007 04:35:01 8.5 C 7.51 g/m*3 8.5 C 0 km/h
2897 02-11-2007 04:47:02 8.5 C 7.51 g/m*3 8.5 C 0 km/h
2898 02-11-2007 04:59:02 8.5 C 7.51 g/m*3 8.5 C 0 km/h
2899 02-11-2007 05:11:01 8.6 C 7.65 g/m*3 8.6 C 0 km/h
2900 02-11-2007 05:23:01 8.6 C 7.65 g/m*3 8.6 C 0 km/h
Sensor: Nr:Datum:Temp:Abs-Feuchte:Windchill:Wind:
Aussen-T/F 2901 02-11-2007 05:35:02 8.6 C 7.65 g/m*3 8.6 C 0 km/h
2902 02-11-2007 05:47:02 8.6 C 7.65 g/m*3 8.6 C 0 km/h
2903 02-11-2007 05:59:02 8.6 C 7.65 g/m*3 8.6 C 0 km/h
2904 02-11-2007 06:11:01 8.5 C 7.6 g/m*3 8.5 C 0 km/h
2905 02-11-2007 06:23:01 8.6 C 7.65 g/m*3 8.6 C 0 km/h
2906 02-11-2007 06:35:02 8.5 C 7.6 g/m*3 8.5 C 0 km/h
2907 02-11-2007 06:47:02 8.5 C 7.6 g/m*3 8.5 C 0 km/h
2908 02-11-2007 06:59:02 8.5 C 7.6 g/m*3 8.5 C 0 km/h
2909 02-11-2007 07:11:02 8.6 C 7.73 g/m*3 8.6 C 0 km/h
2910 02-11-2007 07:23:01 8.7 C 7.78 g/m*3 8.7 C 0 km/h
2911 02-11-2007 07:35:02 8.8 C 7.83 g/m*3 8.8 C 0 km/h
2912 02-11-2007 07:47:01 8.8 C 7.83 g/m*3 8.8 C 0 km/h
2913 02-11-2007 07:59:02 8.8 C 7.83 g/m*3 8.8 C 0 km/h
2914 02-11-2007 08:11:01 8.8 C 7.83 g/m*3 8.8 C 0 km/h
2915 02-11-2007 08:23:02 8.9 C 7.88 g/m*3 8.9 C 0 km/h
2916 02-11-2007 08:35:01 9 C 7.93 g/m*3 9 C 0 km/h
2917 02-11-2007 08:47:01 9.2 C 8.04 g/m*3 9.2 C 0 km/h
2918 02-11-2007 08:59:02 9.2 C 8.13 g/m*3 9.2 C 0 km/h
2919 02-11-2007 09:11:01 9.3 C 8.27 g/m*3 9.3 C 0 km/h
2920 02-11-2007 09:23:01 9.5 C 8.37 g/m*3 9.5 C 0 km/h
2921 02-11-2007 09:35:02 9.5 C 8.37 g/m*3 9.5 C 0 km/h
2922 02-11-2007 09:47:01 9.7 C 8.48 g/m*3 9.7 C 0 km/h
2923 02-11-2007 09:59:02 9.9 C 8.68 g/m*3 9.9 C 0 km/h
2924 02-11-2007 10:11:01 10.1 C 8.61 g/m*3 10.1 C 0 km/h
2925 02-11-2007 10:23:01 10.1 C 8.61 g/m*3 10.1 C 0 km/h
Sensor: Nr:Datum:Temp:Abs-Feuchte:Windchill:Wind:
Aussen-T/F 2926 02-11-2007 10:35:02 10.1 C 8.61 g/m*3 10.1 C 0 km/h
2927 02-11-2007 10:47:01 10.2 C 8.66 g/m*3 10.2 C 0 km/h
2928 02-11-2007 10:59:01 10.4 C 8.77 g/m*3 10.4 C 0 km/h
2929 02-11-2007 11:11:02 10.5 C 8.92 g/m*3 10.5 C 0 km/h
2930 02-11-2007 11:23:02 10.5 C 8.92 g/m*3 10.5 C 0 km/h
2931 02-11-2007 11:35:01 10.6 C 8.98 g/m*3 10.6 C 0 km/h
2932 02-11-2007 11:47:01 10.7 C 9.04 g/m*3 10.7 C 0 km/h
2933 02-11-2007 11:59:01 10.7 C 9.04 g/m*3 10.7 C 0 km/h
2934 02-11-2007 12:11:02 10.9 C 9.05 g/m*3 10.9 C 0 km/h
2935 02-11-2007 12:23:02 11 C 9.11 g/m*3 11 C 0 km/h
2936 02-11-2007 12:35:01 11.1 C 9.17 g/m*3 11.1 C 0 km/h
2937 02-11-2007 12:47:01 11.3 C 9.28 g/m*3 11.3 C 0 km/h
2938 02-11-2007 12:59:01 11.4 C 9.24 g/m*3 11.4 C 0 km/h
2939 02-11-2007 13:11:02 11.6 C 9.35 g/m*3 11.6 C 0 km/h
2940 02-11-2007 13:23:01 11.6 C 9.35 g/m*3 11.6 C 0 km/h
2941 02-11-2007 13:35:02 11.7 C 9.31 g/m*3 11.7 C 0 km/h
2942 02-11-2007 13:47:01 11.9 C 9.43 g/m*3 11.9 C 0 km/h
2943 02-11-2007 13:59:01 12 C 9.27 g/m*3 12 C 0 km/h
2944 02-11-2007 14:11:02 12.1 C 9.33 g/m*3 12.1 C 0 km/h
2945 02-11-2007 14:23:01 12.2 C 9.28 g/m*3 12.2 C 0 km/h
2946 02-11-2007 14:35:01 12.2 C 9.28 g/m*3 12.2 C 0 km/h
2947 02-11-2007 14:47:01 12.3 C 9.34 g/m*3 12.3 C 0 km/h
2948 02-11-2007 14:59:02 12.3 C 9.34 g/m*3 12.3 C 0 km/h
2949 02-11-2007 15:11:01 12.3 C 9.34 g/m*3 12.3 C 0 km/h
2950 02-11-2007 15:23:01 12.2 C 9.39 g/m*3 12.2 C 0 km/h
Sensor: Nr:Datum:Temp:Abs-Feuchte:Windchill:Wind:
Aussen-T/F 2951 02-11-2007 15:35:02 12.1 C 9.33 g/m*3 12.1 C 0 km/h
2952 02-11-2007 15:47:01 11.9 C 9.32 g/m*3 11.9 C 0 km/h
2953 02-11-2007 15:59:01 11.8 C 9.26 g/m*3 11.8 C 0 km/h
2954 02-11-2007 16:11:01 11.7 C 9.31 g/m*3 11.7 C 0 km/h
2955 02-11-2007 16:23:01 11.7 C 9.31 g/m*3 11.7 C 0 km/h
2956 02-11-2007 16:35:02 11.6 C 9.25 g/m*3 11.6 C 0 km/h
2957 02-11-2007 16:47:02 11.6 C 9.25 g/m*3 11.6 C 0 km/h
2958 02-11-2007 16:59:02 11.5 C 9.3 g/m*3 11.5 C 0 km/h
2959 02-11-2007 17:11:01 11.5 C 9.3 g/m*3 11.5 C 0 km/h
2960 02-11-2007 17:23:01 11.5 C 9.3 g/m*3 11.5 C 0 km/h
2961 02-11-2007 17:35:02 11.4 C 9.24 g/m*3 11.4 C 0 km/h
2962 02-11-2007 17:47:02 11.4 C 9.24 g/m*3 11.4 C 0 km/h
2963 02-11-2007 17:59:02 11.4 C 9.24 g/m*3 11.4 C 0 km/h
2964 02-11-2007 18:11:02 11.4 C 9.24 g/m*3 11.4 C 0 km/h
2965 02-11-2007 18:23:01 11.3 C 9.18 g/m*3 11.3 C 0 km/h
2966 02-11-2007 18:35:01 11.3 C 9.28 g/m*3 11.3 C 0 km/h
2967 02-11-2007 18:47:02 11.3 C 9.28 g/m*3 11.3 C 0 km/h
2968 02-11-2007 18:59:02 11.3 C 9.28 g/m*3 11.3 C 0 km/h
2969 02-11-2007 19:11:02 11.3 C 9.28 g/m*3 11.3 C 0 km/h
2970 02-11-2007 19:23:01 11.3 C 9.28 g/m*3 11.3 C 0 km/h
2971 02-11-2007 19:35:01 11.3 C 9.28 g/m*3 11.3 C 0 km/h
2972 02-11-2007 19:47:02 11.3 C 9.28 g/m*3 11.3 C 0 km/h
2973 02-11-2007 19:59:02 11.3 C 9.28 g/m*3 11.3 C 0 km/h
2974 02-11-2007 20:11:02 11.3 C 9.28 g/m*3 11.3 C 0 km/h
2975 02-11-2007 20:23:02 11.3 C 9.28 g/m*3 11.3 C 0 km/h
Sensor: Nr:Datum:Temp:Abs-Feuchte:Windchill:Wind:
Aussen-T/F 2976 02-11-2007 20:35:01 11.3 C 9.38 g/m*3 11.3 C 0 km/h
2977 02-11-2007 20:47:01 11.3 C 9.38 g/m*3 11.3 C 0 km/h
2978 02-11-2007 20:59:01 11.3 C 9.38 g/m*3 11.3 C 0 km/h
2979 02-11-2007 21:11:01 11.3 C 9.38 g/m*3 11.3 C 0 km/h
2980 02-11-2007 21:23:01 11.3 C 9.38 g/m*3 11.3 C 0 km/h
2981 02-11-2007 21:35:02 11.3 C 9.38 g/m*3 11.3 C 0 km/h
2982 02-11-2007 21:47:02 11.3 C 9.38 g/m*3 11.3 C 0 km/h
2983 02-11-2007 21:59:02 11.4 C 9.44 g/m*3 11.4 C 0 km/h
2984 02-11-2007 22:11:01 11.4 C 9.44 g/m*3 11.4 C 0 km/h
2985 02-11-2007 22:23:01 11.3 C 9.49 g/m*3 11.3 C 0 km/h
2986 02-11-2007 22:35:02 11.4 C 9.55 g/m*3 11.4 C 0 km/h
2987 02-11-2007 22:47:02 11.4 C 9.55 g/m*3 11.4 C 0 km/h
2988 02-11-2007 22:59:02 11.4 C 9.55 g/m*3 11.4 C 0 km/h
2989 02-11-2007 23:11:01 11.4 C 9.55 g/m*3 11.4 C 0 km/h
2990 02-11-2007 23:23:01 11.4 C 9.55 g/m*3 11.4 C 0 km/h
2991 02-11-2007 23:35:01 11.4 C 9.55 g/m*3 11.4 C 0 km/h
2992 02-11-2007 23:47:01 11.3 C 9.49 g/m*3 11.3 C 0 km/h
2993 02-11-2007 23:59:01 11.4 C 9.55 g/m*3 11.4 C 0 km/h
2994 03-11-2007 00:11:01 11.4 C 9.65 g/m*3 11.4 C 0 km/h
2995 03-11-2007 00:23:02 11.4 C 9.65 g/m*3 11.4 C 0 km/h
2996 03-11-2007 00:35:01 11.4 C 9.65 g/m*3 11.4 C 0 km/h
2997 03-11-2007 00:47:02 11.4 C 9.65 g/m*3 11.4 C 0 km/h
2998 03-11-2007 00:59:02 11.3 C 9.59 g/m*3 11.3 C 0 km/h
2999 03-11-2007 01:11:01 11.3 C 9.59 g/m*3 11.3 C 0 km/h
3000 03-11-2007 01:23:01 11.3 C 9.59 g/m*3 11.3 C 0 km/h
Sensor: Nr:Datum:Temp:Abs-Feuchte:Windchill:Wind:
Aussen-T/F 3001 03-11-2007 01:35:02 11.4 C 9.75 g/m*3 11.4 C 0 km/h
3002 03-11-2007 01:47:02 11.4 C 9.75 g/m*3 11.4 C 0 km/h
3003 03-11-2007 01:59:02 11.4 C 9.75 g/m*3 11.4 C 0 km/h
3004 03-11-2007 02:11:01 11.4 C 9.75 g/m*3 11.4 C 0 km/h
3005 03-11-2007 02:23:01 11.4 C 9.75 g/m*3 11.4 C 0 km/h
3006 03-11-2007 02:35:01 11.3 C 9.69 g/m*3 11.3 C 0 km/h
3007 03-11-2007 02:48:05 11.3 C 9.69 g/m*3 11.3 C 0 km/h
3008 03-11-2007 03:00:05 11.3 C 9.69 g/m*3 11.3 C 0 km/h
3009 03-11-2007 03:12:05 11.3 C 9.69 g/m*3 11.3 C 0 km/h
3010 03-11-2007 03:24:05 11.3 C 9.69 g/m*3 11.3 C 0 km/h
3011 03-11-2007 03:36:02 11.4 C 9.75 g/m*3 11.4 C 0 km/h
3012 03-11-2007 03:48:03 11.4 C 9.75 g/m*3 11.4 C 0 km/h
3013 03-11-2007 04:00:03 11.3 C 9.69 g/m*3 11.3 C 0 km/h
3014 03-11-2007 04:12:02 11.3 C 9.69 g/m*3 11.3 C 0 km/h
3015 03-11-2007 04:24:01 11.3 C 9.69 g/m*3 11.3 C 0 km/h
3016 03-11-2007 04:36:02 11.3 C 9.69 g/m*3 11.3 C 0 km/h
3017 03-11-2007 04:48:02 11.3 C 9.69 g/m*3 11.3 C 0 km/h
3018 03-11-2007 05:00:02 11.3 C 9.69 g/m*3 11.3 C 0 km/h
3019 03-11-2007 05:12:01 11.3 C 9.69 g/m*3 11.3 C 0 km/h
3020 03-11-2007 05:24:01 11.3 C 9.69 g/m*3 11.3 C 0 km/h
3021 03-11-2007 05:36:02 11.3 C 9.69 g/m*3 11.3 C 0 km/h
3022 03-11-2007 05:48:02 11.3 C 9.69 g/m*3 11.3 C 0 km/h
3023 03-11-2007 06:00:02 11.3 C 9.69 g/m*3 11.3 C 0 km/h
3024 03-11-2007 06:12:02 11.3 C 9.69 g/m*3 11.3 C 0 km/h
3025 03-11-2007 06:24:02 11.3 C 9.69 g/m*3 11.3 C 0 km/h
Sensor: Nr:Datum:Temp:Abs-Feuchte:Windchill:Wind:
Aussen-T/F 3026 03-11-2007 06:36:02 11.3 C 9.69 g/m*3 11.3 C 0 km/h
3027 03-11-2007 06:48:02 11.3 C 9.69 g/m*3 11.3 C 0 km/h
3028 03-11-2007 07:00:02 11.3 C 9.69 g/m*3 11.3 C 0 km/h
3029 03-11-2007 07:12:02 11.2 C 9.63 g/m*3 11.2 C 0 km/h
3030 03-11-2007 07:24:02 11.1 C 9.57 g/m*3 11.1 C 0 km/h
3031 03-11-2007 07:36:02 11.3 C 9.69 g/m*3 11.3 C 0 km/h
3032 03-11-2007 07:48:02 11.4 C 9.75 g/m*3 11.4 C 0 km/h
3033 03-11-2007 08:00:02 11.4 C 9.75 g/m*3 11.4 C 0 km/h
3034 03-11-2007 08:12:02 11.4 C 9.75 g/m*3 11.4 C 0 km/h
3035 03-11-2007 08:24:02 11.4 C 9.75 g/m*3 11.4 C 0 km/h
3036 03-11-2007 08:36:02 11.5 C 9.81 g/m*3 11.5 C 0 km/h
3037 03-11-2007 08:48:02 11.5 C 9.81 g/m*3 11.5 C 0 km/h
3038 03-11-2007 09:00:02 11.6 C 9.87 g/m*3 11.6 C 0 km/h
3039 03-11-2007 09:12:02 11.6 C 9.87 g/m*3 11.6 C 0 km/h
3040 03-11-2007 09:24:02 11.7 C 9.94 g/m*3 11.7 C 0 km/h
3041 03-11-2007 09:36:02 11.8 C 10 g/m*3 11.8 C 0 km/h
3042 03-11-2007 09:48:02 11.9 C 10.06 g/m*3 11.9 C 0 km/h
3043 03-11-2007 10:00:02 12 C 10.12 g/m*3 12 C 0 km/h
3044 03-11-2007 10:12:02 12.1 C 10.19 g/m*3 12.1 C 0 km/h
3045 03-11-2007 10:24:02 12.2 C 10.25 g/m*3 12.2 C 0 km/h
3046 03-11-2007 10:36:02 12.3 C 10.32 g/m*3 12.3 C 0 km/h
3047 03-11-2007 10:48:02 12.5 C 10.44 g/m*3 12.5 C 0 km/h
3048 03-11-2007 11:00:02 12.6 C 10.51 g/m*3 12.6 C 0 km/h
3049 03-11-2007 11:12:02 12.7 C 10.58 g/m*3 12.7 C 0 km/h
3050 03-11-2007 11:24:02 12.7 C 10.58 g/m*3 12.7 C 0 km/h
Sensor: Nr:Datum:Temp:Abs-Feuchte:Windchill:Wind:
Aussen-T/F 3051 03-11-2007 11:36:02 12.7 C 10.58 g/m*3 12.7 C 0 km/h
3052 03-11-2007 11:48:02 12.6 C 10.51 g/m*3 12.6 C 0 km/h
3053 03-11-2007 12:00:03 13 C 10.77 g/m*3 13 C 0 km/h
3054 03-11-2007 12:12:01 13.2 C 10.91 g/m*3 13.2 C 0 km/h
3055 03-11-2007 12:24:01 13 C 10.66 g/m*3 13 C 0 km/h
3056 03-11-2007 12:36:02 12.6 C 10.4 g/m*3 12.6 C 0 km/h
3057 03-11-2007 12:48:03 12.4 C 10.16 g/m*3 12.4 C 0 km/h
3058 03-11-2007 13:00:03 12.5 C 10.22 g/m*3 12.5 C 0 km/h
3059 03-11-2007 13:12:02 12.8 C 10.42 g/m*3 12.8 C 0 km/h
3060 03-11-2007 13:24:03 12.8 C 10.19 g/m*3 12.8 C 0 km/h
3061 03-11-2007 13:36:02 13 C 10.09 g/m*3 13 C 0 km/h
3062 03-11-2007 13:48:02 12.8 C 9.86 g/m*3 12.8 C 0 km/h
3063 03-11-2007 14:00:02 12.8 C 9.86 g/m*3 12.8 C 0 km/h
3064 03-11-2007 14:12:02 12.8 C 9.86 g/m*3 12.8 C 0 km/h
3065 03-11-2007 14:24:02 13 C 9.98 g/m*3 13 C 0 km/h
3066 03-11-2007 14:36:02 13 C 9.87 g/m*3 13 C 0 km/h
3067 03-11-2007 14:48:02 12.9 C 9.81 g/m*3 12.9 C 0 km/h
3068 03-11-2007 15:00:02 12.9 C 9.81 g/m*3 12.9 C 0 km/h
3069 03-11-2007 15:12:01 12.8 C 9.63 g/m*3 12.8 C 0 km/h
3070 03-11-2007 15:24:02 12.7 C 9.46 g/m*3 12.7 C 0 km/h
3071 03-11-2007 15:36:02 12.7 C 9.46 g/m*3 12.7 C 0 km/h
3072 03-11-2007 15:48:02 12.7 C 9.24 g/m*3 12.7 C 0 km/h
3073 03-11-2007 16:00:02 12.5 C 9.24 g/m*3 12.5 C 0 km/h
3074 03-11-2007 16:12:03 12.3 C 9.12 g/m*3 12.3 C 0 km/h
3075 03-11-2007 16:24:02 12.2 C 9.17 g/m*3 12.2 C 0 km/h
Sensor: Nr:Datum:Temp:Abs-Feuchte:Windchill:Wind:
Aussen-T/F 3076 03-11-2007 16:36:02 12.1 C 9.12 g/m*3 12.1 C 0 km/h
3077 03-11-2007 16:48:01 12 C 9.06 g/m*3 12 C 0 km/h
3078 03-11-2007 17:00:01 12 C 8.95 g/m*3 12 C 0 km/h
3079 03-11-2007 17:12:01 11.9 C 8.79 g/m*3 11.9 C 0 km/h
3080 03-11-2007 17:24:02 11.9 C 8.79 g/m*3 11.9 C 0 km/h
3081 03-11-2007 17:36:01 11.9 C 8.9 g/m*3 11.9 C 0 km/h
3082 03-11-2007 17:48:02 11.7 C 8.89 g/m*3 11.7 C 0 km/h
3083 03-11-2007 18:00:02 11.5 C 8.88 g/m*3 11.5 C 0 km/h
3084 03-11-2007 18:12:01 11.5 C 9.09 g/m*3 11.5 C 0 km/h
3085 03-11-2007 18:24:02 11.5 C 9.19 g/m*3 11.5 C 0 km/h
3086 03-11-2007 18:36:02 11.5 C 9.3 g/m*3 11.5 C 0 km/h
3087 03-11-2007 18:48:01 11.5 C 9.3 g/m*3 11.5 C 0 km/h
3088 03-11-2007 19:00:01 11.5 C 9.3 g/m*3 11.5 C 0 km/h
3089 03-11-2007 19:12:02 11.6 C 9.35 g/m*3 11.6 C 0 km/h
3090 03-11-2007 19:24:02 11.5 C 9.3 g/m*3 11.5 C 0 km/h
3091 03-11-2007 19:36:01 11.5 C 9.3 g/m*3 11.5 C 0 km/h
3092 03-11-2007 19:48:01 11.5 C 9.3 g/m*3 11.5 C 0 km/h
3093 03-11-2007 20:00:01 11.4 C 9.24 g/m*3 11.4 C 0 km/h
3094 03-11-2007 20:12:01 11.5 C 9.3 g/m*3 11.5 C 0 km/h
3095 03-11-2007 20:24:02 11.5 C 9.19 g/m*3 11.5 C 0 km/h
3096 03-11-2007 20:36:02 11.6 C 9.15 g/m*3 11.6 C 0 km/h
3097 03-11-2007 20:48:01 11.6 C 9.15 g/m*3 11.6 C 0 km/h
3098 03-11-2007 21:00:01 11.6 C 9.15 g/m*3 11.6 C 0 km/h
3099 03-11-2007 21:12:02 11.5 C 9.09 g/m*3 11.5 C 0 km/h
3100 03-11-2007 21:24:01 11.5 C 9.09 g/m*3 11.5 C 0 km/h
Sensor: Nr:Datum:Temp:Abs-Feuchte:Windchill:Wind:
Aussen-T/F 3101 03-11-2007 21:36:02 11.4 C 9.14 g/m*3 11.4 C 0 km/h
3102 03-11-2007 21:48:03 11.3 C 9.18 g/m*3 11.3 C 0 km/h
3103 03-11-2007 22:00:03 11.2 C 9.12 g/m*3 11.2 C 0 km/h
3104 03-11-2007 22:12:03 11.3 C 9.18 g/m*3 11.3 C 0 km/h
3105 03-11-2007 22:24:02 11.3 C 9.28 g/m*3 11.3 C 0 km/h
3106 03-11-2007 22:36:02 11.3 C 9.28 g/m*3 11.3 C 0 km/h
3107 03-11-2007 22:48:02 11.4 C 9.34 g/m*3 11.4 C 0 km/h
3108 03-11-2007 23:00:02 11.4 C 9.34 g/m*3 11.4 C 0 km/h
3109 03-11-2007 23:12:03 11.2 C 9.22 g/m*3 11.2 C 0 km/h
3110 03-11-2007 23:24:02 11.1 C 9.17 g/m*3 11.1 C 0 km/h
3111 03-11-2007 23:36:02 10.8 C 8.99 g/m*3 10.8 C 0 km/h
3112 03-11-2007 23:48:02 10.6 C 8.88 g/m*3 10.6 C 0 km/h
3113 04-11-2007 00:00:02 10.5 C 8.92 g/m*3 10.5 C 0 km/h
3114 04-11-2007 00:12:03 10.7 C 9.13 g/m*3 10.7 C 0 km/h
3115 04-11-2007 00:24:03 10.9 C 9.25 g/m*3 10.9 C 0 km/h
3116 04-11-2007 00:36:03 11 C 9.21 g/m*3 11 C 0 km/h
3117 04-11-2007 00:48:02 11 C 9.11 g/m*3 11 C 0 km/h
3118 04-11-2007 01:00:02 11 C 9.01 g/m*3 11 C 0 km/h
3119 04-11-2007 01:12:02 10.9 C 8.85 g/m*3 10.9 C 0 km/h
3120 04-11-2007 01:24:02 10.8 C 8.7 g/m*3 10.8 C 0 km/h
3121 04-11-2007 01:36:02 10.8 C 8.5 g/m*3 10.8 C 0 km/h
3122 04-11-2007 01:48:02 10.8 C 8.2 g/m*3 10.8 C 0 km/h
3123 04-11-2007 02:00:02 10.7 C 8.15 g/m*3 10.7 C 0 km/h
3124 04-11-2007 02:12:02 10.6 C 8.2 g/m*3 10.6 C 0 km/h
3125 04-11-2007 02:24:02 10.5 C 8.15 g/m*3 10.5 C 0 km/h
Sensor: Nr:Datum:Temp:Abs-Feuchte:Windchill:Wind:
Aussen-T/F 3126 04-11-2007 02:36:02 10.4 C 8.1 g/m*3 10.4 C 0 km/h
3127 04-11-2007 02:49:03 10.4 C 8 g/m*3 10.4 C 0 km/h
3128 04-11-2007 03:01:03 10.3 C 7.95 g/m*3 10.3 C 0 km/h
3129 04-11-2007 03:13:04 10.3 C 7.85 g/m*3 10.3 C 0 km/h
3130 04-11-2007 03:25:04 10.1 C 7.75 g/m*3 10.1 C 0 km/h
3131 04-11-2007 03:37:02 10.2 C 7.61 g/m*3 10.2 C 0 km/h
3132 04-11-2007 03:49:02 10.2 C 7.52 g/m*3 10.2 C 0 km/h
3133 04-11-2007 04:01:02 10.1 C 7.47 g/m*3 10.1 C 0 km/h
3134 04-11-2007 04:13:02 10 C 7.42 g/m*3 10 C 0 km/h
3135 04-11-2007 04:25:02 10 C 7.52 g/m*3 10 C 0 km/h
3136 04-11-2007 04:37:02 9.9 C 7.56 g/m*3 9.9 C 0 km/h
3137 04-11-2007 04:49:02 9.9 C 7.56 g/m*3 9.9 C 0 km/h
3138 04-11-2007 05:01:02 9.9 C 7.47 g/m*3 9.9 C 0 km/h
3139 04-11-2007 05:13:02 9.8 C 7.52 g/m*3 9.8 C 0 km/h
3140 04-11-2007 05:25:01 9.8 C 7.61 g/m*3 9.8 C 0 km/h
3141 04-11-2007 05:37:02 9.8 C 7.61 g/m*3 9.8 C 0 km/h
3142 04-11-2007 05:49:02 9.7 C 7.65 g/m*3 9.7 C 0 km/h
3143 04-11-2007 06:01:01 9.7 C 7.65 g/m*3 9.7 C 0 km/h
3144 04-11-2007 06:13:01 9.7 C 7.65 g/m*3 9.7 C 0 km/h
3145 04-11-2007 06:25:02 9.7 C 7.65 g/m*3 9.7 C 0 km/h
3146 04-11-2007 06:37:02 9.6 C 7.6 g/m*3 9.6 C 0 km/h
3147 04-11-2007 06:49:02 9.6 C 7.6 g/m*3 9.6 C 0 km/h
3148 04-11-2007 07:01:01 9.6 C 7.6 g/m*3 9.6 C 0 km/h
3149 04-11-2007 07:13:01 9.5 C 7.46 g/m*3 9.5 C 0 km/h
3150 04-11-2007 07:25:02 9.5 C 7.46 g/m*3 9.5 C 0 km/h
Sensor: Nr:Datum:Temp:Abs-Feuchte:Windchill:Wind:
Aussen-T/F 3151 04-11-2007 07:37:02 9.4 C 7.42 g/m*3 9.4 C 0 km/h
3152 04-11-2007 07:49:02 9.4 C 7.42 g/m*3 9.4 C 0 km/h
3153 04-11-2007 08:01:02 9.4 C 7.42 g/m*3 9.4 C 0 km/h
3154 04-11-2007 08:13:03 9.5 C 7.46 g/m*3 9.5 C 0 km/h
3155 04-11-2007 08:25:02 9.6 C 7.6 g/m*3 9.6 C 0 km/h
3156 04-11-2007 08:37:01 9.5 C 7.55 g/m*3 9.5 C 0 km/h
3157 04-11-2007 08:49:01 9.4 C 7.6 g/m*3 9.4 C 0 km/h
3158 04-11-2007 09:01:02 9.5 C 7.65 g/m*3 9.5 C 0 km/h
3159 04-11-2007 09:13:02 9.8 C 7.89 g/m*3 9.8 C 0 km/h
3160 04-11-2007 09:25:02 10 C 7.8 g/m*3 10 C 0 km/h
3161 04-11-2007 09:37:02 10.2 C 7.61 g/m*3 10.2 C 0 km/h
3162 04-11-2007 09:49:02 10.4 C 7.61 g/m*3 10.4 C 0 km/h
3163 04-11-2007 10:01:02 10.7 C 7.66 g/m*3 10.7 C 0 km/h
3164 04-11-2007 10:13:02 11 C 7.51 g/m*3 11 C 0 km/h
3165 04-11-2007 10:25:02 10.8 C 7.31 g/m*3 10.8 C 0 km/h
3166 04-11-2007 10:37:02 11 C 7.31 g/m*3 11 C 0 km/h
3167 04-11-2007 10:49:02 11 C 7.21 g/m*3 11 C 0 km/h
3168 04-11-2007 11:01:02 11.1 C 7.25 g/m*3 11.1 C 0 km/h
3169 04-11-2007 11:13:02 11.5 C 7.44 g/m*3 11.5 C 0 km/h
3170 04-11-2007 11:25:02 11.3 C 7.14 g/m*3 11.3 C 0 km/h
3171 04-11-2007 11:37:01 11.6 C 7.17 g/m*3 11.6 C 0 km/h
3172 04-11-2007 11:49:02 11.7 C 6.9 g/m*3 11.7 C 0 km/h
3173 04-11-2007 12:01:02 11.9 C 6.99 g/m*3 11.9 C 0 km/h
3174 04-11-2007 12:13:02 11.9 C 6.67 g/m*3 11.9 C 0 km/h
3175 04-11-2007 12:25:02 12.4 C 6.12 g/m*3 12.4 C 0 km/h
Sensor: Nr:Datum:Temp:Abs-Feuchte:Windchill:Wind:
Aussen-T/F 3176 04-11-2007 12:37:02 12.4 C 4.81 g/m*3 12.4 C 0 km/h
3177 04-11-2007 12:49:02 12.5 C 4.73 g/m*3 12.5 C 0 km/h
3178 04-11-2007 13:01:02 12.4 C 5.03 g/m*3 12.4 C 0 km/h
3179 04-11-2007 13:13:02 11.9 C 5.51 g/m*3 11.9 C 0 km/h
3180 04-11-2007 13:25:01 11.8 C 5.26 g/m*3 11.8 C 0 km/h
3181 04-11-2007 13:37:02 12.4 C 5.57 g/m*3 12.4 C 0 km/h
3182 04-11-2007 13:49:02 12.1 C 4.72 g/m*3 12.1 C 0 km/h
3183 04-11-2007 14:01:01 11.5 C 5.78 g/m*3 11.5 C 0 km/h
3184 04-11-2007 14:13:02 11.4 C 5.75 g/m*3 11.4 C 0 km/h
3185 04-11-2007 14:25:01 11.3 C 5.41 g/m*3 11.3 C 0 km/h
3186 04-11-2007 14:37:01 11.6 C 5.51 g/m*3 11.6 C 0 km/h
3187 04-11-2007 14:49:02 11.9 C 5.51 g/m*3 11.9 C 0 km/h
3188 04-11-2007 15:01:02 11.8 C 4.74 g/m*3 11.8 C 0 km/h
3189 04-11-2007 15:13:02 11.7 C 4.92 g/m*3 11.7 C 0 km/h
3190 04-11-2007 15:25:02 11.5 C 4.65 g/m*3 11.5 C 0 km/h
3191 04-11-2007 15:37:02 11.4 C 4.93 g/m*3 11.4 C 0 km/h
3192 04-11-2007 15:49:01 11.3 C 4.9 g/m*3 11.3 C 0 km/h
3193 04-11-2007 16:01:01 11.1 C 4.94 g/m*3 11.1 C 0 km/h
3194 04-11-2007 16:13:01 11 C 5.1 g/m*3 11 C 0 km/h
3195 04-11-2007 16:25:01 10.8 C 5.24 g/m*3 10.8 C 0 km/h
3196 04-11-2007 16:37:02 10.7 C 5.3 g/m*3 10.7 C 0 km/h
3197 04-11-2007 16:49:02 10.7 C 5.4 g/m*3 10.7 C 0 km/h
3198 04-11-2007 17:01:02 10.6 C 5.47 g/m*3 10.6 C 0 km/h
3199 04-11-2007 17:13:02 10.5 C 5.63 g/m*3 10.5 C 0 km/h
3200 04-11-2007 17:25:02 10.4 C 5.78 g/m*3 10.4 C 0 km/h
Sensor: Nr:Datum:Temp:Abs-Feuchte:Windchill:Wind:
Aussen-T/F 3201 04-11-2007 17:37:02 10.3 C 5.84 g/m*3 10.3 C 0 km/h
3202 04-11-2007 17:49:02 10.2 C 5.9 g/m*3 10.2 C 0 km/h
3203 04-11-2007 18:01:02 10.2 C 6.09 g/m*3 10.2 C 0 km/h
3204 04-11-2007 18:13:02 10 C 5.92 g/m*3 10 C 0 km/h
3205 04-11-2007 18:25:02 10 C 6.01 g/m*3 10 C 0 km/h
3206 04-11-2007 18:37:02 10 C 6.11 g/m*3 10 C 0 km/h
3207 04-11-2007 18:49:02 10 C 6.01 g/m*3 10 C 0 km/h
3208 04-11-2007 19:01:02 9.8 C 6.12 g/m*3 9.8 C 0 km/h
3209 04-11-2007 19:13:02 9.8 C 6.12 g/m*3 9.8 C 0 km/h
3210 04-11-2007 19:25:02 9.7 C 6.27 g/m*3 9.7 C 0 km/h
3211 04-11-2007 19:37:02 9.7 C 6.36 g/m*3 9.7 C 0 km/h
3212 04-11-2007 19:49:02 9.7 C 6.36 g/m*3 9.7 C 0 km/h
3213 04-11-2007 20:01:02 9.7 C 6.45 g/m*3 9.7 C 0 km/h
3214 04-11-2007 20:13:02 9.7 C 6.45 g/m*3 9.7 C 0 km/h
3215 04-11-2007 20:25:01 9.6 C 6.5 g/m*3 9.6 C 0 km/h
3216 04-11-2007 20:37:02 9.6 C 6.5 g/m*3 9.6 C 0 km/h
3217 04-11-2007 20:49:02 9.5 C 6.46 g/m*3 9.5 C 0 km/h
3218 04-11-2007 21:01:02 9.5 C 6.55 g/m*3 9.5 C 0 km/h
3219 04-11-2007 21:13:02 9.5 C 6.55 g/m*3 9.5 C 0 km/h
3220 04-11-2007 21:25:01 9.4 C 6.51 g/m*3 9.4 C 0 km/h
3221 04-11-2007 21:37:01 9.4 C 6.6 g/m*3 9.4 C 0 km/h
3222 04-11-2007 21:49:01 9.4 C 6.51 g/m*3 9.4 C 0 km/h
3223 04-11-2007 22:01:02 9.1 C 6.3 g/m*3 9.1 C 0 km/h
3224 04-11-2007 22:13:02 9 C 6.08 g/m*3 9 C 0 km/h
3225 04-11-2007 22:25:01 9 C 5.91 g/m*3 9 C 0 km/h
Sensor: Nr:Datum:Temp:Abs-Feuchte:Windchill:Wind:
Aussen-T/F 3226 04-11-2007 22:37:01 8.9 C 6.04 g/m*3 8.9 C 0 km/h
3227 04-11-2007 22:49:01 8.8 C 5.92 g/m*3 8.8 C 0 km/h
3228 04-11-2007 23:01:02 8.9 C 5.96 g/m*3 8.9 C 0 km/h
3229 04-11-2007 23:13:02 8.8 C 6.01 g/m*3 8.8 C 0 km/h
3230 04-11-2007 23:25:02 8.8 C 6.18 g/m*3 8.8 C 0 km/h
3231 04-11-2007 23:37:01 8.7 C 6.23 g/m*3 8.7 C 0 km/h
3232 04-11-2007 23:49:02 8.7 C 6.31 g/m*3 8.7 C 0 km/h
3233 05-11-2007 00:01:01 8.7 C 6.31 g/m*3 8.7 C 0 km/h
3234 05-11-2007 00:13:01 8.7 C 6.23 g/m*3 8.7 C 0 km/h
3235 05-11-2007 00:25:02 8.6 C 6.19 g/m*3 8.6 C 0 km/h
3236 05-11-2007 00:37:01 8.6 C 6.27 g/m*3 8.6 C 0 km/h
3237 05-11-2007 00:49:02 8.5 C 6.32 g/m*3 8.5 C 0 km/h
3238 05-11-2007 01:01:02 8.5 C 6.23 g/m*3 8.5 C 0 km/h
3239 05-11-2007 01:13:02 8.5 C 6.23 g/m*3 8.5 C 0 km/h
3240 05-11-2007 01:25:02 8.4 C 6.11 g/m*3 8.4 C 0 km/h
3241 05-11-2007 01:37:02 8.4 C 6.02 g/m*3 8.4 C 0 km/h
3242 05-11-2007 01:49:02 8.4 C 6.02 g/m*3